Provisional Data: Little Chiques Creek near Mount Joy, PA


Please select a monitoring station.
Please select start date.
Please select start date.

Toggle Unit: C/F Toggle Unit: C/F
Sample Time Temperature (C) Temperature (F) Specific Conductivity (mS/cm) pH   Turbidity (NTU+) DO (mg/L)
5/17/2022 12:00:00 AM 16.71 62.078 0.357 7.65 32.79 8.32
5/17/2022 12:15:00 AM 16.65 61.97 0.358 7.64 38.65 8.34
5/17/2022 12:30:00 AM 16.59 61.862 0.359 7.64 38.55 8.35
5/17/2022 12:45:00 AM 16.52 61.736 0.361 7.64 35.56 8.33
5/17/2022 1:00:00 AM 16.44 61.592 0.362 7.64 35.4 8.37
5/17/2022 1:15:00 AM 16.37 61.466 0.362 7.63 31.85 8.38
5/17/2022 1:30:00 AM 16.3 61.34 0.363 7.63 17.71 8.38
5/17/2022 1:45:00 AM 16.23 61.214 0.364 7.63 31.11 8.4
5/17/2022 2:00:00 AM 16.16 61.088 0.365 7.63 31.42 8.41
5/17/2022 2:15:00 AM 16.09 60.962 0.365 7.63 32.18 8.42
5/17/2022 2:30:00 AM 16.02 60.836 0.366 7.63 27.57 8.44
5/17/2022 2:45:00 AM 15.94 60.692 0.366 7.63 29.11 8.45
5/17/2022 3:00:00 AM 15.87 60.566 0.367 7.64 32.95 8.48
5/17/2022 3:15:00 AM 15.79 60.422 0.367 7.64 26.69 8.5
5/17/2022 3:30:00 AM 15.72 60.296 0.367 7.63 26.13 8.5
5/17/2022 3:45:00 AM 15.65 60.17 0.369 7.64 27.22 8.53
5/17/2022 4:00:00 AM 15.58 60.044 0.369 7.64 25.12 8.54
5/17/2022 4:15:00 AM 15.5 59.9 0.369 7.64 28.13 8.55
5/17/2022 4:30:00 AM 15.43 59.774 0.369 7.64 25.25 8.57
5/17/2022 4:45:00 AM 15.36 59.648 0.37 7.64 24.87 8.6
5/17/2022 5:00:00 AM 15.29 59.522 0.371 7.64 39.28 8.61
5/17/2022 5:15:00 AM 15.22 59.396 0.371 7.64 26.39 8.64
5/17/2022 5:30:00 AM 15.14 59.252 0.371 7.64 25.78 8.65
5/17/2022 5:45:00 AM 15.07 59.126 0.371 7.64 26.11 8.68
5/17/2022 6:00:00 AM 15 59 0.372 7.64 26.91 8.69
5/17/2022 6:15:00 AM 14.94 58.892 0.373 7.65 27.76 8.71
5/17/2022 6:30:00 AM 14.87 58.766 0.373 7.65 25.23 8.75
5/17/2022 6:45:00 AM 14.81 58.658 0.373 7.65 24.43 8.78
5/17/2022 7:00:00 AM 14.76 58.568 0.373 7.66 22.77 8.82
5/17/2022 7:15:00 AM 14.72 58.496 0.374 7.65 24.06 8.86
5/17/2022 7:30:00 AM 14.69 58.442 0.374 7.67 23.34 8.92
5/17/2022 7:45:00 AM 14.69 58.442 0.374 7.67 21.7 8.98
5/17/2022 8:00:00 AM 14.67 58.406 0.375 7.68 25.91 9.01
5/17/2022 8:15:00 AM 14.66 58.388 0.374 7.69 21.78 9.09
5/17/2022 8:30:00 AM 14.66 58.388 0.375 7.69 21.06 9.18
5/17/2022 8:45:00 AM 14.67 58.406 0.375 7.7 20.04 9.25
5/17/2022 9:00:00 AM 14.69 58.442 0.376 7.67 18.84 9.35
5/17/2022 9:15:00 AM 14.72 58.496 0.376 7.72 17.11 9.43
5/17/2022 9:30:00 AM 14.75 58.55 0.376 7.73 18.79 9.51
5/17/2022 9:45:00 AM 14.82 58.676 0.377 7.74 43.38 9.61
5/17/2022 10:00:00 AM 14.9 58.82 0.377 7.75 20.81 9.68
5/17/2022 10:15:00 AM 14.98 58.964 0.376 7.76 17.07 9.78
5/17/2022 10:30:00 AM 15.01 59.018 0.377 7.77 18.02 9.85
5/17/2022 10:45:00 AM 15.11 59.198 0.377 7.78 16.45 9.95
5/17/2022 11:00:00 AM 15.22 59.396 0.389 7.79 17.07 10.03
5/17/2022 11:15:00 AM 15.33 59.594 0.38 7.8 19.07 10.1
5/17/2022 11:30:00 AM 15.46 59.828 0.38 7.82 18.35 10.17
5/17/2022 11:45:00 AM 15.62 60.116 0.402 7.83 17.26 10.26
5/17/2022 12:00:00 PM 15.79 60.422 0.381 7.84 15.2 10.34
5/17/2022 12:15:00 PM 15.97 60.746 0.448 7.87 16.04 10.42
5/17/2022 12:30:00 PM 16.09 60.962 0.382 7.88 14.69 10.45
5/17/2022 12:45:00 PM 16.18 61.124 0.382 7.88 16.03 10.44
5/17/2022 1:00:00 PM 16.27 61.286 0.381 7.89 15.95 10.48
5/17/2022 1:15:00 PM 16.36 61.448 0.381 7.9 15.38 10.51
5/17/2022 1:30:00 PM 16.51 61.718 0.381 7.91 15.03 10.55
5/17/2022 1:45:00 PM 16.56 61.808 0.382 7.91 15.5 10.53
5/17/2022 2:00:00 PM 16.62 61.916 0.382 7.92 16.25 10.5
5/17/2022 2:15:00 PM 16.71 62.078 0.382 7.92 11.15 10.47
5/17/2022 2:30:00 PM 16.8 62.24 0.382 7.92 22.37 10.41
5/17/2022 2:45:00 PM 16.98 62.564 0.382 7.93 15.4 10.48
5/17/2022 3:00:00 PM 17.15 62.87 0.383 7.94 15.99 10.52
5/17/2022 3:15:00 PM 17.27 63.086 0.383 7.95 16.12 10.51
5/17/2022 3:30:00 PM 17.36 63.248 0.383 7.96 15.26 10.51
5/17/2022 3:45:00 PM 17.44 63.392 0.383 7.96 16.49 10.5
5/17/2022 4:00:00 PM 17.47 63.446 0.383 7.96 15.48 10.47
5/17/2022 4:15:00 PM 17.45 63.41 0.384 7.96 14.74 10.39
5/17/2022 4:30:00 PM 17.43 63.374 0.385 7.95 16.82 10.31
5/17/2022 4:45:00 PM 17.39 63.302 0.384 7.94 14.85 10.21
5/17/2022 5:00:00 PM 17.38 63.284 0.384 7.94 14.63 10.13
5/17/2022 5:15:00 PM 17.38 63.284 0.385 7.93 16.02 10.07
5/17/2022 5:30:00 PM 17.38 63.284 0.384 7.92 15.62 9.98
5/17/2022 5:45:00 PM 17.38 63.284 0.384 7.91 14.55 9.89
5/17/2022 6:00:00 PM 17.37 63.266 0.385 7.9 15.3 9.8
5/17/2022 6:15:00 PM 17.37 63.266 0.385 7.89 15.47 9.69
5/17/2022 6:30:00 PM 17.36 63.248 0.385 7.88 14.23 9.59
5/17/2022 6:45:00 PM 17.36 63.248 0.386 7.87 14.93 9.52
5/17/2022 7:00:00 PM 17.35 63.23 0.386 7.86 15.24 9.43
5/17/2022 7:15:00 PM 17.33 63.194 0.386 7.85 14.76 9.33
5/17/2022 7:30:00 PM 17.31 63.158 0.387 7.84 14.97 9.26
5/17/2022 7:45:00 PM 17.26 63.068 0.387 7.83 14.98 9.17
5/17/2022 8:00:00 PM 17.21 62.978 0.408 7.82 15.34 9.11
5/17/2022 8:15:00 PM 17.17 62.906 0.389 7.8 14.48 8.98
5/17/2022 8:30:00 PM 17.11 62.798 0.387 7.8 15.59 8.97
5/17/2022 8:45:00 PM 17.06 62.708 0.387 7.79 19.47 8.91
5/17/2022 9:00:00 PM 17.01 62.618 0.388 7.78 17.83 8.84
5/17/2022 9:15:00 PM 16.96 62.528 0.387 7.77 6.4 8.82
5/17/2022 9:30:00 PM 16.9 62.42 0.389 7.76 18.1 8.76
5/17/2022 9:45:00 PM 16.84 62.312 0.388 7.75 16.91 8.71
5/17/2022 10:00:00 PM 16.78 62.204 0.388 7.75 16.87 8.7
5/17/2022 10:15:00 PM 16.73 62.114 0.389 7.74 16.27 8.66
5/17/2022 10:30:00 PM 16.67 62.006 0.389 7.73 17.45 8.63
5/17/2022 10:45:00 PM 16.62 61.916 0.389 7.72 16.71 8.61
5/17/2022 11:00:00 PM 16.56 61.808 0.389 7.72 8.23 8.59
5/17/2022 11:15:00 PM 16.5 61.7 0.389 7.72 30.51 8.54
5/17/2022 11:30:00 PM 16.44 61.592 0.397 7.71 17.12 8.55
5/17/2022 11:45:00 PM 16.38 61.484 0.391 7.71 17.83 8.54
5/18/2022 12:00:00 AM 16.32 61.376 0.391 7.71 18.85 8.53
5/18/2022 12:15:00 AM 16.26 61.268 0.39 7.7 19.22 8.53
5/18/2022 12:30:00 AM 16.21 61.178 0.39 7.7 18.52 8.51
5/18/2022 12:45:00 AM 16.14 61.052 0.39 7.69 18.28 8.52
5/18/2022 1:00:00 AM 16.08 60.944 0.391 7.69 18.62 8.52
5/18/2022 1:15:00 AM 16.03 60.854 0.391 7.69 17.13 8.52
5/18/2022 1:30:00 AM 15.96 60.728 0.391 7.69 18.21 8.52
5/18/2022 1:45:00 AM 15.88 60.584 0.391 7.68 18.59 8.54
5/18/2022 2:00:00 AM 15.81 60.458 0.391 7.68 17.76 8.54
5/18/2022 2:15:00 AM 15.74 60.332 0.391 7.68 21.84 8.54
5/18/2022 2:30:00 AM 15.67 60.206 0.391 7.67 5.46 8.54
5/18/2022 2:45:00 AM 15.59 60.062 0.393 7.68 19.36 8.57
5/18/2022 3:00:00 AM 15.52 59.936 0.395 7.68 18.46 8.57
5/18/2022 3:15:00 AM 15.44 59.792 0.4 7.67 18.84 8.6
5/18/2022 3:30:00 AM 15.35 59.63 0.4 7.67 17.7 8.62
5/18/2022 3:45:00 AM 15.27 59.486 0.4 7.67 19.29 8.63
5/18/2022 4:00:00 AM 15.18 59.324 0.392 7.67 18.84 8.64
5/18/2022 4:15:00 AM 15.1 59.18 0.461 7.67 20.49 8.66
5/18/2022 4:30:00 AM 15 59 0.376 7.67 18.99 8.68
5/18/2022 4:45:00 AM 14.92 58.856 0.394 7.67 20.32 8.69
5/18/2022 5:00:00 AM 14.83 58.694 0.396 7.67 19.73 8.72
5/18/2022 5:15:00 AM 14.75 58.55 0.462 7.67 19.46 8.72
5/18/2022 5:30:00 AM 14.67 58.406 0.393 7.67 20.37 8.76
5/18/2022 5:45:00 AM 14.6 58.28 0.393 7.67 20.08 8.78
5/18/2022 6:00:00 AM 14.51 58.118 0.379 7.67 18.74 8.8
5/18/2022 6:15:00 AM 14.44 57.992 0.395 7.67 19 8.82
5/18/2022 6:30:00 AM 14.37 57.866 0.401 7.67 18.87 8.85
5/18/2022 6:45:00 AM 14.31 57.758 0.416 7.67 18.69 8.88
5/18/2022 7:00:00 AM 14.27 57.686 0.397 7.67 19.38 8.93
5/18/2022 7:15:00 AM 14.24 57.632 0.393 7.68 14.99 8.96
5/18/2022 7:30:00 AM 14.23 57.614 0.394 7.68 16.68 9.02
5/18/2022 7:45:00 AM 14.22 57.596 0.417 7.69 16.48 9.11
5/18/2022 8:00:00 AM 14.2 57.56 0.398 7.7 16.71 9.17
5/18/2022 8:15:00 AM 14.2 57.56 0.417 7.7 16.63 9.25
5/18/2022 8:30:00 AM 14.18 57.524 0.417 7.72 16.74 9.34
5/18/2022 8:45:00 AM 14.18 57.524 0.396 7.71 16.92 9.42
5/18/2022 9:00:00 AM 14.17 57.506 0.395 7.73 16.69 9.52
5/18/2022 9:15:00 AM 14.17 57.506 0.395 7.74 16.34 9.6
5/18/2022 9:30:00 AM 14.19 57.542 0.398 7.75 15.82 9.72
5/18/2022 9:45:00 AM 14.25 57.65 0.417 7.76 15.73 9.84
5/18/2022 10:00:00 AM 14.31 57.758 0.383 7.77 15.73 9.95
5/18/2022 10:15:00 AM 14.38 57.884 0.417 7.79 16 10.06
5/18/2022 10:30:00 AM 14.44 57.992 0.397 7.8 14.32 10.18
5/18/2022 10:45:00 AM 14.5 58.1 0.393 7.82 11 10.3
5/18/2022 11:00:00 AM 14.56 58.208 0.393 7.83 23.21 10.38
5/18/2022 11:15:00 AM 14.65 58.37 0.416 7.85 15.28 10.51
5/18/2022 11:30:00 AM 14.74 58.532 0.397 7.87 14.84 10.61
5/18/2022 11:45:00 AM 14.85 58.73 0.393 7.88 14.79 10.72
5/18/2022 12:00:00 PM 14.99 58.982 0.462 7.9 14.38 10.8
5/18/2022 12:15:00 PM 15.1 59.18 0.462 7.92 15.52 10.86
5/18/2022 12:30:00 PM 15.24 59.432 0.393 7.93 76.08 10.96
5/18/2022 12:45:00 PM 15.38 59.684 0.393 7.94 13.05 10.99
5/18/2022 1:00:00 PM 15.54 59.972 0.393 7.96 8.37 11.04
5/18/2022 1:15:00 PM 15.72 60.296 0.393 7.97 14.51 11.13
5/18/2022 1:30:00 PM 15.86 60.548 0.394 7.98 14.55 11.14
5/18/2022 1:45:00 PM 16.02 60.836 0.394 7.99 14.13 11.17
5/18/2022 2:00:00 PM 16.18 61.124 0.394 8 15.37 11.18
5/18/2022 2:15:00 PM 16.32 61.376 0.394 8.01 14.14 11.17
5/18/2022 2:30:00 PM 16.45 61.61 0.395 8.01 14.66 11.16
5/18/2022 2:45:00 PM 16.55 61.79 0.394 8.02 14.73 11.13
5/18/2022 3:00:00 PM 16.6 61.88 0.393 8.02 14.83 11.1
5/18/2022 3:15:00 PM 16.56 61.808 0.393 8.02 15.05 11.05
5/18/2022 3:30:00 PM 16.62 61.916 0.393 8.01 16 11.03
5/18/2022 3:45:00 PM 16.63 61.934 0.393 8.03 39.12 11.02
5/18/2022 4:00:00 PM 16.66 61.988 0.393 8.03 2.72 10.99
5/18/2022 4:15:00 PM 16.62 61.916 0.394 8.02 15.32 10.89
5/18/2022 4:30:00 PM 16.59 61.862 0.393 8.01 14.69 10.8
5/18/2022 4:45:00 PM 16.56 61.808 0.395 8 15.46 10.66
5/18/2022 5:00:00 PM 16.53 61.754 0.394 7.98 15.03 10.5
5/18/2022 5:15:00 PM 16.52 61.736 0.394 7.95 17.86 10.32
5/18/2022 5:30:00 PM 16.52 61.736 0.394 7.94 10.57 10.16
5/18/2022 5:45:00 PM 16.53 61.754 0.394 7.92 16.01 10.02
5/18/2022 6:00:00 PM 16.56 61.808 0.394 7.9 17.81 9.88
5/18/2022 6:15:00 PM 16.59 61.862 0.396 7.89 15.09 9.81
5/18/2022 6:30:00 PM 16.62 61.916 0.395 7.88 15.76 9.74
5/18/2022 6:45:00 PM 16.63 61.934 0.394 7.88 14.98 9.68
5/18/2022 7:00:00 PM 16.65 61.97 0.394 7.87 14.35 9.62
5/18/2022 7:15:00 PM 16.64 61.952 0.394 7.85 18.17 9.55
5/18/2022 7:30:00 PM 16.63 61.934 0.394 7.84 11.84 9.51
5/18/2022 7:45:00 PM 16.6 61.88 0.394 7.84 16.08 9.41
5/18/2022 8:00:00 PM 16.56 61.808 0.394 7.82 20.5 9.31
5/18/2022 8:15:00 PM 16.52 61.736 0.394 7.81 3.4 9.2
5/18/2022 8:30:00 PM 16.48 61.664 0.394 7.8 16.52 9.1
5/18/2022 8:45:00 PM 16.44 61.592 0.395 7.78 17.83 9.04
5/18/2022 9:00:00 PM 16.41 61.538 0.395 7.77 15.59 8.97
5/18/2022 9:15:00 PM 16.39 61.502 0.395 7.76 16.32 8.89
5/18/2022 9:30:00 PM 16.36 61.448 0.395 7.75 22.09 8.87
5/18/2022 9:45:00 PM 16.34 61.412 0.399 7.74 17.75 8.83
5/18/2022 10:00:00 PM 16.32 61.376 0.396 7.74 16.98 8.8
5/18/2022 10:15:00 PM 16.3 61.34 0.395 7.73 17.54 8.76
5/18/2022 10:30:00 PM 16.27 61.286 0.395 7.73 18.22 8.73
5/18/2022 10:45:00 PM 16.24 61.232 0.395 7.72 17.64 8.7
5/18/2022 11:00:00 PM 16.21 61.178 0.394 7.72 17.2 8.68
5/18/2022 11:15:00 PM 16.17 61.106 0.395 7.71 19.44 8.65
5/18/2022 11:30:00 PM 16.14 61.052 0.396 7.71 16.78 8.62
5/18/2022 11:45:00 PM 16.11 60.998 0.395 7.71 18.56 8.59
5/19/2022 12:00:00 AM 16.08 60.944 0.394 7.7 18.1 8.58
5/19/2022 12:15:00 AM 16.05 60.89 0.393 7.68 18.29 8.54
5/19/2022 12:30:00 AM 16.02 60.836 0.392 7.69 17.71 8.53
5/19/2022 12:45:00 AM 15.99 60.782 0.393 7.69 19.13 8.52
5/19/2022 1:00:00 AM 15.95 60.71 0.391 7.68 18.66 8.52
5/19/2022 1:15:00 AM 15.91 60.638 0.39 7.68 18.33 8.52
5/19/2022 1:30:00 AM 15.87 60.566 0.388 7.68 19.17 8.53
5/19/2022 1:45:00 AM 15.83 60.494 0.388 7.68 21.69 8.53
5/19/2022 2:00:00 AM 15.8 60.44 0.386 7.67 22.01 8.52
5/19/2022 2:15:00 AM 15.76 60.368 0.386 7.68 21.35 8.5
5/19/2022 2:30:00 AM 15.72 60.296 0.385 7.66 21.25 8.52
5/19/2022 2:45:00 AM 15.68 60.224 0.405 7.67 22.58 8.52
5/19/2022 3:00:00 AM 15.65 60.17 0.383 7.67 22.24 8.5
5/19/2022 3:15:00 AM 15.61 60.098 0.39 7.67 21.5 8.51
5/19/2022 3:30:00 AM 15.58 60.044 0.388 7.67 22.19 8.52
5/19/2022 3:45:00 AM 15.54 59.972 0.378 7.66 23.76 8.53
5/19/2022 4:00:00 AM 15.51 59.918 0.399 7.66 24.49 8.54
5/19/2022 4:15:00 AM 15.48 59.864 0.372 7.66 25.49 8.54
5/19/2022 4:30:00 AM 15.46 59.828 0.37 7.66 26.1 8.55
5/19/2022 4:45:00 AM 15.43 59.774 0.368 7.66 25.07 8.55
5/19/2022 5:00:00 AM 15.39 59.702 0.366 7.65 28.33 8.57
5/19/2022 5:15:00 AM 15.35 59.63 0.365 7.66 29.84 8.59
5/19/2022 5:30:00 AM 15.31 59.558 0.363 7.66 29.38 8.63
5/19/2022 5:45:00 AM 15.25 59.45 0.361 7.66 30.02 8.67
5/19/2022 6:00:00 AM 15.2 59.36 0.358 7.66 43.62 8.7
5/19/2022 6:15:00 AM 15.15 59.27 0.355 7.66 40.57 8.73
5/19/2022 6:30:00 AM 15.1 59.18 0.352 7.67 42.98 8.75
5/19/2022 6:45:00 AM 15.06 59.108 0.35 7.66 42.21 8.78
5/19/2022 7:00:00 AM 15.02 59.036 0.346 7.67 38.9 8.81
5/19/2022 7:15:00 AM 14.98 58.964 0.344 7.66 49.88 8.83
5/19/2022 7:30:00 AM 14.95 58.91 0.342 7.67 65.75 8.86
5/19/2022 7:45:00 AM 14.92 58.856 0.341 7.66 68.13 8.88
5/19/2022 8:00:00 AM 14.89 58.802 0.34 7.66 56.84 8.9
5/19/2022 8:15:00 AM 14.86 58.748 0.336 7.66 62.51 8.92
5/19/2022 8:30:00 AM 14.82 58.676 0.336 7.66 57.95 8.94
5/19/2022 8:45:00 AM 14.79 58.622 0.333 7.66 58.49 8.96
5/19/2022 9:00:00 AM 14.77 58.586 0.329 7.66 60.7 8.98
5/19/2022 9:15:00 AM 14.74 58.532 0.328 7.66 137.32 9
5/19/2022 9:30:00 AM 14.71 58.478 0.325 7.65 76.17 9.02
5/19/2022 9:45:00 AM 14.68 58.424 0.321 7.65 80 9.03
5/19/2022 10:00:00 AM 14.66 58.388 0.318 7.65 88.38 9.05
5/19/2022 10:15:00 AM 14.65 58.37 0.316 7.65 70.86 9.06
5/19/2022 10:30:00 AM 14.64 58.352 0.314 7.63 84.1 9.08
5/19/2022 10:45:00 AM 14.64 58.352 0.312 7.64 59.62 9.08
5/19/2022 11:00:00 AM 14.65 58.37 0.312 7.64 72.29 9.09
5/19/2022 11:15:00 AM 14.67 58.406 0.31 7.64 64.21 9.09
5/19/2022 11:30:00 AM 14.7 58.46 0.309 7.64 69.03 9.1
5/19/2022 11:45:00 AM 14.74 58.532 0.309 7.63 56.76 9.12
5/19/2022 12:00:00 PM 14.85 58.73 0.308 7.64 65.72 9.15
5/19/2022 12:15:00 PM 14.95 58.91 0.308 7.65 55.3 9.19
5/19/2022 12:30:00 PM 15.06 59.108 0.308 7.65 45.32 9.22
5/19/2022 12:45:00 PM 15.17 59.306 0.308 7.66 52.14 9.24
5/19/2022 1:00:00 PM 15.27 59.486 0.308 7.66 46.2 9.27
5/19/2022 1:15:00 PM 15.34 59.612 0.309 7.67 44.11 9.28
5/19/2022 1:30:00 PM 15.47 59.846 0.309 7.66 48.23 9.31
5/19/2022 1:45:00 PM 15.65 60.17 0.31 7.67 46.62 9.34
5/19/2022 2:00:00 PM 15.79 60.422 0.31 7.67 42.05 9.36
5/19/2022 2:15:00 PM 15.96 60.728 0.312 7.67 45.68 9.38
5/19/2022 2:30:00 PM 16.09 60.962 0.312 7.68 49.43 9.37
5/19/2022 2:45:00 PM 16.2 61.16 0.313 7.69 50.98 9.35
5/19/2022 3:00:00 PM 16.29 61.322 0.313 7.7 38.04 9.34
5/19/2022 3:15:00 PM 16.36 61.448 0.316 7.7 53.09 9.3
5/19/2022 3:30:00 PM 16.44 61.592 0.317 7.7 50 9.27
5/19/2022 3:45:00 PM 16.5 61.7 0.318 7.7 43.26 9.21
5/19/2022 4:00:00 PM 16.63 61.934 0.319 7.69 50.26 9.18
5/19/2022 4:15:00 PM 16.76 62.168 0.32 7.69 41.24 9.14
5/19/2022 4:30:00 PM 16.83 62.294 0.321 7.7 39.96 9.09
5/19/2022 4:45:00 PM 16.88 62.384 0.322 7.7 39.78 9.05
5/19/2022 5:00:00 PM 16.91 62.438 0.324 7.69 42.36 8.99
5/19/2022 5:15:00 PM 16.93 62.474 0.325 7.69 41.26 8.94
5/19/2022 5:30:00 PM 16.94 62.492 0.326 7.68 30.47 8.88
5/19/2022 5:45:00 PM 16.97 62.546 0.327 7.68 40.55 8.84
5/19/2022 6:00:00 PM 17 62.6 0.328 7.68 38.56 8.79
5/19/2022 6:15:00 PM 17.02 62.636 0.329 7.68 37.97 8.74
5/19/2022 6:30:00 PM 17.05 62.69 0.33 7.68 36.47 8.71
5/19/2022 6:45:00 PM 17.08 62.744 0.331 7.67 38.56 8.66
5/19/2022 7:00:00 PM 17.1 62.78 0.333 7.67 35.37 8.63
5/19/2022 7:15:00 PM 17.11 62.798 0.334 7.67 36.82 8.59
5/19/2022 7:30:00 PM 17.11 62.798 0.335 7.66 41.07 8.55
5/19/2022 7:45:00 PM 17.1 62.78 0.336 7.66 37.23 8.54
5/19/2022 8:00:00 PM 17.08 62.744 0.337 7.66 36.65 8.5
5/19/2022 8:15:00 PM 17.06 62.708 0.338 7.66 36.14 8.46
5/19/2022 8:30:00 PM 17.04 62.672 0.339 7.65 37.17 8.44
5/19/2022 8:45:00 PM 17.02 62.636 0.339 7.65 37.99 8.42
5/19/2022 9:00:00 PM 17 62.6 0.341 7.65 37.89 8.4
5/19/2022 9:15:00 PM 16.98 62.564 0.342 7.64 35.14 8.37
5/19/2022 9:30:00 PM 16.96 62.528 0.343 7.64 36.87 8.35
5/19/2022 9:45:00 PM 16.93 62.474 0.344 7.63 37.26 8.33
5/19/2022 10:00:00 PM 16.9 62.42 0.345 7.63 38.39 8.3
5/19/2022 10:15:00 PM 16.88 62.384 0.346 7.63 39.19 8.31
5/19/2022 10:30:00 PM 16.86 62.348 0.347 7.63 37.92 8.29
5/19/2022 10:45:00 PM 16.84 62.312 0.348 7.62 35.36 8.28
5/19/2022 11:00:00 PM 16.82 62.276 0.349 7.62 34.55 8.29
5/19/2022 11:15:00 PM 16.8 62.24 0.35 7.62 33.48 8.29
5/19/2022 11:30:00 PM 16.77 62.186 0.351 7.62 36.82 8.27
5/19/2022 11:45:00 PM 16.74 62.132 0.352 7.62 36.56 8.27
5/20/2022 12:00:00 AM 16.71 62.078 0.353 7.62 35.96 8.27
5/20/2022 12:15:00 AM 16.68 62.024 0.353 7.61 35.57 8.28
5/20/2022 12:30:00 AM 16.64 61.952 0.354 7.61 43.38 8.28
5/20/2022 12:45:00 AM 16.59 61.862 0.355 7.62 34.6 8.29
5/20/2022 1:00:00 AM 16.55 61.79 0.355 7.61 37.37 8.3
5/20/2022 1:15:00 AM 16.5 61.7 0.356 7.61 36.02 8.31
5/20/2022 1:30:00 AM 16.45 61.61 0.357 7.61 38.8 8.32
5/20/2022 1:45:00 AM 16.39 61.502 0.358 7.61 37.83 8.32
5/20/2022 2:00:00 AM 16.34 61.412 0.358 7.61 33.36 8.32
5/20/2022 2:15:00 AM 16.28 61.304 0.359 7.61 35.12 8.33
5/20/2022 2:30:00 AM 16.22 61.196 0.36 7.61 35.71 8.36
5/20/2022 2:45:00 AM 16.17 61.106 0.36 7.61 35.61 8.37
5/20/2022 3:00:00 AM 16.11 60.998 0.361 7.61 35.87 8.35
5/20/2022 3:15:00 AM 16.06 60.908 0.362 7.61 34.72 8.38
5/20/2022 3:30:00 AM 16 60.8 0.362 7.61 36.18 8.41
5/20/2022 3:45:00 AM 15.94 60.692 0.363 7.61 35.75 8.42
5/20/2022 4:00:00 AM 15.89 60.602 0.363 7.61 34.46 8.42
5/20/2022 4:15:00 AM 15.84 60.512 0.364 7.61 37.61 8.45
5/20/2022 4:30:00 AM 15.78 60.404 0.365 7.61 34.14 8.46
5/20/2022 4:45:00 AM 15.73 60.314 0.365 7.61 34.46 8.48
5/20/2022 5:00:00 AM 15.67 60.206 0.366 7.61 34.85 8.48
5/20/2022 5:15:00 AM 15.61 60.098 0.367 7.61 35.27 8.5
5/20/2022 5:30:00 AM 15.55 59.99 0.367 7.61 36.97 8.52
5/20/2022 5:45:00 AM 15.5 59.9 0.368 7.6 63.41 8.5
5/20/2022 6:00:00 AM 15.44 59.792 0.369 7.61 35.36 8.55
5/20/2022 6:15:00 AM 15.39 59.702 0.369 7.6 32.73 8.58
5/20/2022 6:30:00 AM 15.35 59.63 0.37 7.6 35.88 8.6
5/20/2022 6:45:00 AM 15.3 59.54 0.37 7.61 34.3 8.62
5/20/2022 7:00:00 AM 15.27 59.486 0.371 7.61 34.11 8.65
5/20/2022 7:15:00 AM 15.24 59.432 0.372 7.61 16.29 8.69
5/20/2022 7:30:00 AM 15.21 59.378 0.372 7.61 44.52 8.73
5/20/2022 7:45:00 AM 15.17 59.306 0.372 7.62 32.63 8.76
5/20/2022 8:00:00 AM 15.14 59.252 0.373 7.62 32.76 8.78
5/20/2022 8:15:00 AM 15.11 59.198 0.373 7.62 33.48 8.8
5/20/2022 8:30:00 AM 15.08 59.144 0.373 7.62 32.79 8.81
5/20/2022 8:45:00 AM 15.06 59.108 0.374 7.62 35.54 8.86
5/20/2022 9:00:00 AM 15.06 59.108 0.375 7.63 32.75 8.94
5/20/2022 9:15:00 AM 15.06 59.108 0.375 7.64 31.47 9
5/20/2022 9:30:00 AM 15.04 59.072 0.375 7.65 31.7 9.03
5/20/2022 9:45:00 AM 15.04 59.072 0.376 7.65 8.14 9.05
5/20/2022 10:00:00 AM 15.08 59.144 0.376 7.66 31.22 9.16
5/20/2022 10:15:00 AM 15.16 59.288 0.375 7.67 30.22 9.24
5/20/2022 10:30:00 AM 15.18 59.324 0.374 7.68 33.03 9.34
5/20/2022 10:45:00 AM 15.21 59.378 0.376 7.68 33.21 9.4
5/20/2022 11:00:00 AM 15.24 59.432 0.376 7.7 30.32 9.46
5/20/2022 11:15:00 AM 15.33 59.594 0.375 7.71 30.47 9.56
5/20/2022 11:30:00 AM 15.36 59.648 0.449 7.71 30.51 9.61
5/20/2022 11:45:00 AM 15.46 59.828 0.449 7.73 29.6 9.7
5/20/2022 12:00:00 PM 15.53 59.954 0.382 7.73 29.49 9.76
5/20/2022 12:15:00 PM 15.58 60.044 0.373 7.75 30.93 9.75
5/20/2022 12:30:00 PM 15.69 60.242 0.372 7.76 32.64 9.81
5/20/2022 12:45:00 PM 15.73 60.314 0.445 7.76 31.96 9.8
5/20/2022 1:00:00 PM 15.81 60.458 0.385 7.76 31.47 9.82
5/20/2022 1:15:00 PM 15.87 60.566 0.37 7.77 33.94 9.71
5/20/2022 1:30:00 PM 15.92 60.656 0.37 7.76 32.6 9.71
5/20/2022 1:45:00 PM 15.91 60.638 0.37 7.76 33.43 9.69
5/20/2022 2:00:00 PM 15.91 60.638 0.444 7.75 32.9 9.67
5/20/2022 2:15:00 PM 16.08 60.944 0.378 7.75 31.96 9.74
5/20/2022 2:30:00 PM 16.18 61.124 0.38 7.77 31.14 9.8
5/20/2022 2:45:00 PM 16.27 61.286 0.366 7.78 38.09 9.71
5/20/2022 3:00:00 PM 16.24 61.232 0.366 7.77 41.66 9.62
5/20/2022 3:15:00 PM 16.19 61.142 0.367 7.75 35.82 9.48
5/20/2022 3:30:00 PM 16.17 61.106 0.367 7.74 35.99 9.36
5/20/2022 3:45:00 PM 16.19 61.142 0.366 7.73 35.89 9.25
5/20/2022 4:00:00 PM 16.24 61.232 0.366 7.72 34.58 9.34
5/20/2022 4:15:00 PM 16.33 61.394 0.365 7.72 39.48 9.39
5/20/2022 4:30:00 PM 16.4 61.52 0.37 7.73 29.58 9.39
5/20/2022 4:45:00 PM 16.44 61.592 0.391 7.73 40.65 9.41
5/20/2022 5:00:00 PM 16.46 61.628 0.365 7.73 39 9.34
5/20/2022 5:15:00 PM 16.48 61.664 0.365 7.73 40.48 9.28
5/20/2022 5:30:00 PM 16.49 61.682 0.361 7.72 42.52 9.22
5/20/2022 5:45:00 PM 16.53 61.754 0.365 7.73 43.19 9.22
5/20/2022 6:00:00 PM 16.57 61.826 0.364 7.73 44.28 9.23
5/20/2022 6:15:00 PM 16.6 61.88 0.364 7.72 46.11 9.19
5/20/2022 6:30:00 PM 16.63 61.934 0.361 7.73 56.36 9.14
5/20/2022 6:45:00 PM 16.64 61.952 0.362 7.72 44.37 9.08
5/20/2022 7:00:00 PM 16.65 61.97 0.363 7.72 46.31 9.03
5/20/2022 7:15:00 PM 16.67 62.006 0.363 7.7 48.9 8.95
5/20/2022 7:30:00 PM 16.68 62.024 0.362 7.7 28.87 8.89
5/20/2022 7:45:00 PM 16.69 62.042 0.362 7.7 24.57 8.83
5/20/2022 8:00:00 PM 16.7 62.06 0.361 7.69 30.97 8.79
5/20/2022 8:15:00 PM 16.7 62.06 0.36 7.68 112.44 8.77
5/20/2022 8:30:00 PM 16.7 62.06 0.36 7.68 13.41 8.74
5/20/2022 8:45:00 PM 16.7 62.06 0.359 7.66 61.05 8.7
5/20/2022 9:00:00 PM 16.69 62.042 0.359 7.67 59.84 8.7
5/20/2022 9:15:00 PM 16.67 62.006 0.36 7.66 12.51 8.68
5/20/2022 9:30:00 PM 16.66 61.988 0.361 7.65 53.06 8.65
5/20/2022 9:45:00 PM 16.63 61.934 0.362 7.65 56.17 8.62
5/20/2022 10:00:00 PM 16.6 61.88 0.363 7.64 49.44 8.62
5/20/2022 10:15:00 PM 16.58 61.844 0.364 7.64 52.55 8.61
5/20/2022 10:30:00 PM 16.57 61.826 0.362 7.63 51.68 8.59
5/20/2022 10:45:00 PM 16.55 61.79 0.365 7.63 48.67 8.57
5/20/2022 11:00:00 PM 16.54 61.772 0.365 7.63 45.75 8.56
5/20/2022 11:15:00 PM 16.52 61.736 0.365 7.62 47.96 8.55
5/20/2022 11:30:00 PM 16.51 61.718 0.365 7.61 49.36 8.53
5/20/2022 11:45:00 PM 16.49 61.682 0.365 7.61 45.58 8.53
5/21/2022 12:00:00 AM 16.48 61.664 0.364 7.61 48.51 8.52
5/21/2022 12:15:00 AM 16.46 61.628 0.365 7.6 47.62 8.5
5/21/2022 12:30:00 AM 16.45 61.61 0.365 7.59 49.8 8.49
5/21/2022 12:45:00 AM 16.43 61.574 0.364 7.6 55.7 8.49
5/21/2022 1:00:00 AM 16.41 61.538 0.365 7.59 61.27 8.49
5/21/2022 1:15:00 AM 16.39 61.502 0.364 7.59 54.9 8.48
5/21/2022 1:30:00 AM 16.38 61.484 0.364 7.59 75.62 8.44
5/21/2022 1:45:00 AM 16.35 61.43 0.365 7.58 58.23 8.47
5/21/2022 2:00:00 AM 16.33 61.394 0.365 7.58 51.52 8.47
5/21/2022 2:15:00 AM 16.3 61.34 0.365 7.58 47.05 8.48
5/21/2022 2:30:00 AM 16.28 61.304 0.365 7.58 53.22 8.49
5/21/2022 2:45:00 AM 16.25 61.25 0.366 7.59 55.85 8.49
5/21/2022 3:00:00 AM 16.21 61.178 0.366 7.58 44.23 8.51
5/21/2022 3:15:00 AM 16.18 61.124 0.367 7.58 49.11 8.51
5/21/2022 3:30:00 AM 16.15 61.07 0.368 7.58 46 8.52
5/21/2022 3:45:00 AM 16.11 60.998 0.368 7.59 44.35 8.53
5/21/2022 4:00:00 AM 16.07 60.926 0.369 7.58 35.95 8.54
5/21/2022 4:15:00 AM 16.03 60.854 0.369 7.58 47.02 8.56
5/21/2022 4:30:00 AM 15.99 60.782 0.369 7.58 44.16 8.57
5/21/2022 4:45:00 AM 15.95 60.71 0.37 7.58 45.51 8.56
5/21/2022 5:00:00 AM 15.92 60.656 0.368 7.59 46.02 8.59
5/21/2022 5:15:00 AM 15.88 60.584 0.368 7.58 44.72 8.6
5/21/2022 5:30:00 AM 15.84 60.512 0.37 7.59 42.06 8.61
5/21/2022 5:45:00 AM 15.81 60.458 0.376 7.59 20.35 8.62
5/21/2022 6:00:00 AM 15.77 60.386 0.371 7.59 43.2 8.62
5/21/2022 6:15:00 AM 15.73 60.314 0.376 7.58 184.21 8.64
5/21/2022 6:30:00 AM 15.7 60.26 0.444 7.58 55.87 8.66
5/21/2022 6:45:00 AM 15.67 60.206 0.372 7.58 42.94 8.68
5/21/2022 7:00:00 AM 15.65 60.17 0.399 7.58 42.79 8.7
5/21/2022 7:15:00 AM 15.64 60.152 0.379 7.59 43.3 8.74
5/21/2022 7:30:00 AM 15.62 60.116 0.381 7.6 42.82 8.77
5/21/2022 7:45:00 AM 15.61 60.098 0.378 7.6 23.02 8.82
5/21/2022 8:00:00 AM 15.62 60.116 0.372 7.61 42.33 8.86
5/21/2022 8:15:00 AM 15.63 60.134 0.446 7.62 39.93 8.92
5/21/2022 8:30:00 AM 15.64 60.152 0.371 7.63 46.83 8.98
5/21/2022 8:45:00 AM 15.67 60.206 0.371 7.63 41.77 9.04
5/21/2022 9:00:00 AM 15.69 60.242 0.371 7.64 41.21 9.09
5/21/2022 9:15:00 AM 15.72 60.296 0.401 7.64 39.69 9.15
5/21/2022 9:30:00 AM 15.77 60.386 0.37 7.65 39.07 9.2
5/21/2022 9:45:00 AM 15.83 60.494 0.37 7.66 38.21 9.25
5/21/2022 10:00:00 AM 15.93 60.674 0.383 7.67 38.24 9.32
5/21/2022 10:15:00 AM 15.99 60.782 0.383 7.68 37.99 9.37
5/21/2022 10:30:00 AM 16.09 60.962 0.383 7.69 37.38 9.43
5/21/2022 10:45:00 AM 16.16 61.088 0.402 7.7 38.53 9.49
5/21/2022 11:00:00 AM 16.26 61.268 0.381 7.71 37.79 9.56
5/21/2022 11:15:00 AM 16.39 61.502 0.381 7.72 40.76 9.61
5/21/2022 11:30:00 AM 16.52 61.736 0.381 7.73 38.22 9.67
5/21/2022 11:45:00 AM 16.7 62.06 0.381 7.74 40.48 9.71
5/21/2022 12:00:00 PM 16.86 62.348 0.382 7.75 36.44 9.78
5/21/2022 12:15:00 PM 17.02 62.636 0.379 7.77 40.82 9.82
5/21/2022 12:30:00 PM 17.22 62.996 0.382 7.78 10.11 9.85
5/21/2022 12:45:00 PM 17.42 63.356 0.382 7.79 104.82 9.9
5/21/2022 1:00:00 PM 17.63 63.734 0.383 7.8 40.1 9.95
5/21/2022 1:15:00 PM 17.83 64.094 0.383 7.81 39.53 9.98
5/21/2022 1:30:00 PM 18.01 64.418 0.383 7.82 36.66 9.97
5/21/2022 1:45:00 PM 18.22 64.796 0.386 7.82 37.98 10.01
5/21/2022 2:00:00 PM 18.41 65.138 0.383 7.83 38.54 10
5/21/2022 2:15:00 PM 18.58 65.444 0.383 7.84 38.35 9.99
5/21/2022 2:30:00 PM 18.72 65.696 0.383 7.84 32.75 9.95
5/21/2022 2:45:00 PM 18.85 65.93 0.384 7.85 39.39 9.93
5/21/2022 3:00:00 PM 18.93 66.074 0.384 7.85 38.92 9.89
5/21/2022 3:15:00 PM 19.05 66.29 0.384 7.85 38.37 9.87
5/21/2022 3:30:00 PM 19.16 66.488 0.384 7.85 38.53 9.82
5/21/2022 3:45:00 PM 19.27 66.686 0.384 7.86 39.97 9.78
5/21/2022 4:00:00 PM 19.35 66.83 0.384 7.85 36.76 9.71
5/21/2022 4:15:00 PM 19.41 66.938 0.384 7.85 37.9 9.64
5/21/2022 4:30:00 PM 19.44 66.992 0.384 7.84 39.22 9.54
5/21/2022 4:45:00 PM 19.46 67.028 0.384 7.84 40.58 9.44
5/21/2022 5:00:00 PM 19.49 67.082 0.384 7.82 40.23 9.37
5/21/2022 5:15:00 PM 19.52 67.136 0.385 7.82 38.94 9.29
5/21/2022 5:30:00 PM 19.56 67.208 0.384 7.82 37.76 9.2
5/21/2022 5:45:00 PM 19.6 67.28 0.385 7.81 38.86 9.12
5/21/2022 6:00:00 PM 19.63 67.334 0.386 7.8 40.46 9.03
5/21/2022 6:15:00 PM 19.67 67.406 0.385 7.79 38.07 8.97
5/21/2022 6:30:00 PM 19.7 67.46 0.385 7.78 36.49 8.9
5/21/2022 6:45:00 PM 19.73 67.514 0.386 7.78 38.28 8.8
5/21/2022 7:00:00 PM 19.75 67.55 0.385 7.77 38.32 8.71
5/21/2022 7:15:00 PM 19.77 67.586 0.386 7.76 39.69 8.64
5/21/2022 7:30:00 PM 19.77 67.586 0.386 7.75 37.86 8.56
5/21/2022 7:45:00 PM 19.77 67.586 0.387 7.74 39.1 8.5
5/21/2022 8:00:00 PM 19.77 67.586 0.387 7.73 38.15 8.42
5/21/2022 8:15:00 PM 19.76 67.568 0.387 7.72 41.79 8.35
5/21/2022 8:30:00 PM 19.75 67.55 0.387 7.71 39.45 8.29
5/21/2022 8:45:00 PM 19.74 67.532 0.387 7.7 50.95 8.23
5/21/2022 9:00:00 PM 19.72 67.496 0.388 7.7 40.85 8.18
5/21/2022 9:15:00 PM 19.7 67.46 0.388 7.68 40.05 8.15
5/21/2022 9:30:00 PM 19.68 67.424 0.389 7.67 40.62 8.09
5/21/2022 9:45:00 PM 19.65 67.37 0.389 7.67 45.36 8.07
5/21/2022 10:00:00 PM 19.62 67.316 0.389 7.67 39.79 8.02
5/21/2022 10:15:00 PM 19.59 67.262 0.39 7.66 41.23 7.99
5/21/2022 10:30:00 PM 19.56 67.208 0.39 7.65 40.7 7.95
5/21/2022 10:45:00 PM 19.52 67.136 0.39 7.65 41.03 7.94
5/21/2022 11:00:00 PM 19.49 67.082 0.39 7.64 125.56 7.89
5/21/2022 11:15:00 PM 19.46 67.028 0.391 7.64 40.56 7.89
5/21/2022 11:30:00 PM 19.43 66.974 0.391 7.64 42.92 7.89
5/21/2022 11:45:00 PM 19.4 66.92 0.391 7.63 41.97 7.87
5/22/2022 12:00:00 AM 19.37 66.866 0.392 7.63 43.54 7.86
5/22/2022 12:15:00 AM 19.35 66.83 0.392 7.62 41.09 7.85
5/22/2022 12:30:00 AM 19.32 66.776 0.392 7.61 56.39 7.83
5/22/2022 12:45:00 AM 19.29 66.722 0.392 7.61 43.97 7.84
5/22/2022 1:00:00 AM 19.26 66.668 0.392 7.61 37.03 7.81
5/22/2022 1:15:00 AM 19.22 66.596 0.393 7.61 51.63 7.8
5/22/2022 1:30:00 AM 19.19 66.542 0.393 7.61 46.61 7.79
5/22/2022 1:45:00 AM 19.16 66.488 0.393 7.61 43.95 7.82
5/22/2022 2:00:00 AM 19.12 66.416 0.394 7.6 45.16 7.81
5/22/2022 2:15:00 AM 19.09 66.362 0.394 7.61 47.21 7.77
5/22/2022 2:30:00 AM 19.05 66.29 0.394 7.6 46.98 7.83
5/22/2022 2:45:00 AM 19 66.2 0.394 7.6 44.49 7.84
5/22/2022 3:00:00 AM 18.94 66.092 0.394 7.61 45.5 7.84
5/22/2022 3:15:00 AM 18.89 66.002 0.394 7.6 46.94 7.85
5/22/2022 3:30:00 AM 18.84 65.912 0.395 7.6 45.96 7.84
5/22/2022 3:45:00 AM 18.79 65.82201 0.394 7.6 91.44 7.83
5/22/2022 4:00:00 AM 18.73 65.714 0.394 7.6 49.42 7.84
5/22/2022 4:15:00 AM 18.68 65.624 0.394 7.6 51.06 7.83
5/22/2022 4:30:00 AM 18.62 65.516 0.395 7.6 45.91 7.88
5/22/2022 4:45:00 AM 18.58 65.444 0.395 7.6 47.54 7.88
5/22/2022 5:00:00 AM 18.53 65.354 0.395 7.6 48.91 7.92
5/22/2022 5:15:00 AM 18.48 65.264 0.396 7.6 48.76 7.92
5/22/2022 5:30:00 AM 18.44 65.192 0.396 7.6 47.91 7.92
5/22/2022 5:45:00 AM 18.38 65.084 0.396 7.59 48.5 7.94
5/22/2022 6:00:00 AM 18.33 64.994 0.395 7.6 5.72 7.94
5/22/2022 6:15:00 AM 18.28 64.904 0.396 7.59 40.65 7.92
5/22/2022 6:30:00 AM 18.23 64.814 0.396 7.59 47.09 7.96
5/22/2022 6:45:00 AM 18.19 64.742 0.396 7.59 49.62 7.98
5/22/2022 7:00:00 AM 18.15 64.67 0.396 7.59 47.83 8.01
5/22/2022 7:15:00 AM 18.11 64.598 0.396 7.6 18.89 8.01
5/22/2022 7:30:00 AM 18.07 64.526 0.396 7.6 45.57 8.06
5/22/2022 7:45:00 AM 18.04 64.472 0.396 7.6 50.83 8.06
5/22/2022 8:00:00 AM 18.01 64.418 0.396 7.6 55.47 8.12
5/22/2022 8:15:00 AM 18.02 64.436 0.396 7.6 55.84 8.19
5/22/2022 8:30:00 AM 18.01 64.418 0.397 7.61 46.98 8.26
5/22/2022 8:45:00 AM 18.03 64.454 0.396 7.61 143.51 8.29
5/22/2022 9:00:00 AM 18.06 64.508 0.397 7.63 48 8.38
5/22/2022 9:15:00 AM 18.06 64.508 0.396 7.64 58.59 8.44
5/22/2022 9:30:00 AM 18.11 64.598 0.397 7.65 48.05 8.55
5/22/2022 9:45:00 AM 18.13 64.634 0.396 7.66 13.21 8.58
5/22/2022 10:00:00 AM 18.11 64.598 0.397 7.67 47.45 8.67
5/22/2022 10:15:00 AM 18.18 64.724 0.397 7.67 17.39 8.78
5/22/2022 10:30:00 AM 18.27 64.886 0.397 7.69 49.57 8.86
5/22/2022 10:45:00 AM 18.3 64.94 0.397 7.69 5.43 8.88
5/22/2022 11:00:00 AM 18.38 65.084 0.397 7.7 51.97 8.94
5/22/2022 11:15:00 AM 18.49 65.282 0.396 7.7 59.41 8.98
5/22/2022 11:30:00 AM 18.6 65.48 0.396 7.72 58.05 9.07
5/22/2022 11:45:00 AM 18.74 65.732 0.397 7.73 43.98 9.14
5/22/2022 12:00:00 PM 18.9 66.02 0.397 7.74 52.81 9.22
5/22/2022 12:15:00 PM 19.02 66.236 0.397 7.75 51.06 9.25
5/22/2022 12:30:00 PM 19.16 66.488 0.397 7.76 22.83 9.3
5/22/2022 12:45:00 PM 19.33 66.794 0.397 7.78 51.98 9.35
5/22/2022 1:00:00 PM 19.52 67.136 0.397 7.78 50.13 9.42
5/22/2022 1:15:00 PM 19.68 67.424 0.397 7.79 53.38 9.46
5/22/2022 1:30:00 PM 19.84 67.712 0.397 7.8 55.62 9.45
5/22/2022 1:45:00 PM 19.98 67.964 0.397 7.81 71.2 9.47
5/22/2022 2:00:00 PM 20.09 68.162 0.397 7.82 51.5 9.49
5/22/2022 2:15:00 PM 20.19 68.342 0.397 7.83 52.49 9.49
5/22/2022 2:30:00 PM 20.3 68.54 0.398 7.83 53.41 9.48
5/22/2022 2:45:00 PM 20.36 68.648 0.397 7.83 54.64 9.44
5/22/2022 3:00:00 PM 20.4 68.72 0.398 7.83 53.07 9.4
5/22/2022 3:15:00 PM 20.48 68.864 0.398 7.83 52.12 9.37
5/22/2022 3:30:00 PM 20.53 68.954 0.397 7.83 80.72 9.27
5/22/2022 3:45:00 PM 20.53 68.954 0.397 7.83 56.11 9.22
5/22/2022 4:00:00 PM 20.5 68.9 0.397 7.83 53.32 9.17
5/22/2022 4:15:00 PM 20.41 68.738 0.398 7.82 56.08 9.07
5/22/2022 4:30:00 PM 20.34 68.612 0.398 7.81 51.84 8.94
5/22/2022 4:45:00 PM 20.32 68.576 0.397 7.8 69.82 8.83
5/22/2022 5:00:00 PM 20.36 68.648 0.398 7.8 52.3 8.81
5/22/2022 5:15:00 PM 20.42 68.756 0.398 7.79 53 8.81
5/22/2022 5:30:00 PM 20.48 68.864 0.398 7.8 51.79 8.79
5/22/2022 5:45:00 PM 20.52 68.936 0.398 7.8 54.2 8.77
5/22/2022 6:00:00 PM 20.54 68.972 0.398 7.79 53.69 8.69
5/22/2022 6:15:00 PM 20.53 68.954 0.398 7.79 53.3 8.63
5/22/2022 6:30:00 PM 20.48 68.864 0.398 7.77 53.18 8.52
5/22/2022 6:45:00 PM 20.45 68.81 0.397 7.76 52.05 8.44
5/22/2022 7:00:00 PM 20.43 68.774 0.397 7.75 53.45 8.35
5/22/2022 7:15:00 PM 20.42 68.756 0.397 7.74 55.1 8.33
5/22/2022 7:30:00 PM 20.41 68.738 0.396 7.73 49.06 8.26
5/22/2022 7:45:00 PM 20.4 68.72 0.396 7.73 54.85 8.22
5/22/2022 8:00:00 PM 20.38 68.684 0.396 7.72 55.08 8.16
5/22/2022 8:15:00 PM 20.36 68.648 0.395 7.72 79.9 8.13
5/22/2022 8:30:00 PM 20.34 68.612 0.392 7.72 56.97 8.09
5/22/2022 8:45:00 PM 20.31 68.558 0.37 7.74 80.62 8.16
5/22/2022 9:00:00 PM 20.27 68.486 0.368 7.74 31.49 8.13
5/22/2022 9:15:00 PM 20.24 68.432 0.37 7.71 85.74 8.04
5/22/2022 9:30:00 PM 20.22 68.396 0.366 7.68 94.66 7.91
5/22/2022 9:45:00 PM 20.17 68.306 0.361 7.64 111.44 7.84
5/22/2022 10:00:00 PM 20.31 68.558 0.348 7.63 360.56 7.76
5/22/2022 10:15:00 PM 20.39 68.702 0.351 7.64 205 7.79
5/22/2022 10:30:00 PM 20.38 68.684 0.351 7.64 151.09 7.82
5/22/2022 10:45:00 PM 20.37 68.666 0.334 7.64 136.78 7.85
5/22/2022 11:00:00 PM 20.3 68.54 0.322 7.62 186.67 7.86
5/22/2022 11:15:00 PM 20.1 68.18 0.311 7.52 261.35 7.81
5/22/2022 11:30:00 PM 20 68 0.286 7.55 433.53 7.67
5/22/2022 11:45:00 PM 20.21 68.378 0.268 7.48 616.32 7.32
5/23/2022 12:00:00 AM 20.44 68.792 0.264 7.47 474.02 7.28
5/23/2022 12:15:00 AM 20.57 69.026 0.266 7.5 485.92 7.28
5/23/2022 12:30:00 AM 20.52 68.936 0.254 7.51 153.65 7.14
5/23/2022 12:45:00 AM 20.41 68.738 0.243 7.57 554.12 7.1
5/23/2022 1:00:00 AM 20.25 68.45 0.235 7.52 201.64 7.17
5/23/2022 1:15:00 AM 20.12 68.216 0.225 7.49 477.47 7.21
5/23/2022 1:30:00 AM 20.04 68.07201 0.216 7.43 484.45 7.22
5/23/2022 1:45:00 AM 19.96 67.92799 0.211 7.41 368.13 7.22
5/23/2022 2:00:00 AM 19.89 67.802 0.209 7.4 363.2 7.19
5/23/2022 2:15:00 AM 19.83 67.694 0.21 7.4 330.29 7.18
5/23/2022 2:30:00 AM 19.77 67.586 0.212 7.39 316.42 7.17
5/23/2022 2:45:00 AM 19.69 67.442 0.214 7.38 275.95 7.19
5/23/2022 3:00:00 AM 19.6 67.28 0.217 7.38 269.3 7.22
5/23/2022 3:15:00 AM 19.48 67.064 0.221 7.38 244.26 7.26
5/23/2022 3:30:00 AM 19.36 66.848 0.224 7.39 241.11 7.31
5/23/2022 3:45:00 AM 19.24 66.632 0.228 7.39 234.37 7.36
5/23/2022 4:00:00 AM 19.12 66.416 0.232 7.39 236.75 7.42
5/23/2022 4:15:00 AM 19 66.2 0.235 7.4 208.35 7.47
5/23/2022 4:30:00 AM 18.88 65.984 0.239 7.39 216.48 7.52
5/23/2022 4:45:00 AM 18.76 65.768 0.244 7.4 196.97 7.58
5/23/2022 5:00:00 AM 18.65 65.57 0.249 7.4 139.03 7.63
5/23/2022 5:15:00 AM 18.53 65.354 0.253 7.41 54.24 7.68
5/23/2022 5:30:00 AM 18.42 65.156 0.258 7.41 168.38 7.73
5/23/2022 5:45:00 AM 18.29 64.922 0.262 7.33 134.26 7.79
5/23/2022 6:00:00 AM 18.18 64.724 0.266 7.43 134 7.84
5/23/2022 6:15:00 AM 18.06 64.508 0.27 7.45 114.41 7.89
5/23/2022 6:30:00 AM 17.94 64.292 0.273 7.45 107.3 7.94
5/23/2022 6:45:00 AM 17.83 64.094 0.277 7.46 44.72 7.98
5/23/2022 7:00:00 AM 17.72 63.896 0.169 7.46 97.94 8.03
5/23/2022 7:15:00 AM 17.61 63.698 0.284 7.48 112.61 8.06
5/23/2022 7:30:00 AM 17.51 63.518 0.288 7.48 116.89 8.08
5/23/2022 7:45:00 AM 17.4 63.32 0.292 7.49 96.82 8.09
5/23/2022 8:00:00 AM 17.31 63.158 0.296 7.5 85.1 8.11
5/23/2022 8:15:00 AM 17.23 63.014 0.299 7.5 99.7 8.14
5/23/2022 8:30:00 AM 17.16 62.888 0.302 7.51 92.55 8.18
5/23/2022 8:45:00 AM 17.1 62.78 0.306 7.52 92.19 8.23
5/23/2022 9:00:00 AM 17.03 62.654 0.308 7.53 83.94 8.28
5/23/2022 9:15:00 AM 16.96 62.528 0.311 7.54 75.51 8.34
5/23/2022 9:30:00 AM 16.9 62.42 0.313 7.54 67.04 8.4
5/23/2022 9:45:00 AM 16.87 62.366 0.315 7.55 63.44 8.45
5/23/2022 10:00:00 AM 16.83 62.294 0.317 7.56 59.62 8.51
5/23/2022 10:15:00 AM 16.83 62.294 0.318 7.57 60.08 8.56
5/23/2022 10:30:00 AM 16.81 62.258 0.32 7.57 28.09 8.61
5/23/2022 10:45:00 AM 16.82 62.276 0.321 7.57 56.55 8.65
5/23/2022 11:00:00 AM 16.85 62.33 0.322 7.58 57.11 8.7
5/23/2022 11:15:00 AM 16.89 62.402 0.323 7.59 51.43 8.73
5/23/2022 11:30:00 AM 16.94 62.492 0.324 7.59 115.27 8.77
5/23/2022 11:45:00 AM 16.97 62.546 0.325 7.6 28.71 8.8
5/23/2022 12:00:00 PM 17.04 62.672 0.326 7.6 43.6 8.83
5/23/2022 12:15:00 PM 17.15 62.87 0.327 7.6 73.22 8.86
5/23/2022 12:30:00 PM 17.24 63.032 0.328 7.61 42.39 8.87
5/23/2022 12:45:00 PM 17.32 63.176 0.329 7.61 38.03 8.9
5/23/2022 1:00:00 PM 17.42 63.356 0.33 7.62 42.37 8.91
5/23/2022 1:15:00 PM 17.53 63.554 0.331 7.63 38.32 8.93
5/23/2022 1:30:00 PM 17.64 63.752 0.333 7.63 45.45 8.94
5/23/2022 1:45:00 PM 17.74 63.932 0.334 7.64 203.09 8.95
5/23/2022 2:00:00 PM 17.76 63.968 0.334 7.64 43.79 8.96
5/23/2022 2:15:00 PM 17.77 63.986 0.335 7.64 37.2 8.96
5/23/2022 2:30:00 PM 17.79 64.022 0.337 7.64 41.07 8.94
5/23/2022 2:45:00 PM 17.85 64.13 0.337 7.65 31.62 8.95
5/23/2022 3:00:00 PM 17.91 64.238 0.339 7.65 21.47 8.96
5/23/2022 3:15:00 PM 17.95 64.31 0.339 7.65 35.84 8.95
5/23/2022 3:30:00 PM 18 64.4 0.34 7.66 37.02 8.95
5/23/2022 3:45:00 PM 18 64.4 0.342 7.66 17.12 8.92
5/23/2022 4:00:00 PM 18.01 64.418 0.342 7.66 27.92 8.9
5/23/2022 4:15:00 PM 18 64.4 0.343 7.66 28.42 8.89
5/23/2022 4:30:00 PM 17.99 64.382 0.344 7.66 24.76 8.86
5/23/2022 4:45:00 PM 17.98 64.364 0.345 7.66 27.55 8.84
5/23/2022 5:00:00 PM 17.97 64.346 0.346 7.66 27.54 8.84
5/23/2022 5:15:00 PM 17.96 64.328 0.346 7.66 25.46 8.81
5/23/2022 5:30:00 PM 17.96 64.328 0.348 7.66 121.69 8.79
5/23/2022 5:45:00 PM 17.96 64.328 0.348 7.66 26.68 8.76
5/23/2022 6:00:00 PM 17.94 64.292 0.349 7.65 102.29 8.75
5/23/2022 6:15:00 PM 17.93 64.274 0.35 7.66 27.51 8.74
5/23/2022 6:30:00 PM 17.9 64.22 0.35 7.66 28.43 8.72
5/23/2022 6:45:00 PM 17.87 64.166 0.351 7.66 25.88 8.71
5/23/2022 7:00:00 PM 17.83 64.094 0.352 7.65 26.91 8.69
5/23/2022 7:15:00 PM 17.78 64.004 0.353 7.65 24.52 8.68
5/23/2022 7:30:00 PM 17.74 63.932 0.353 7.65 25.7 8.67
5/23/2022 7:45:00 PM 17.7 63.86 0.354 7.65 25.18 8.66
5/23/2022 8:00:00 PM 17.65 63.77 0.354 7.64 23.74 8.66
5/23/2022 8:15:00 PM 17.61 63.698 0.355 7.64 38.42 8.64
5/23/2022 8:30:00 PM 17.56 63.608 0.356 7.65 22.65 8.63
5/23/2022 8:45:00 PM 17.52 63.536 0.356 7.64 136.92 8.61
5/23/2022 9:00:00 PM 17.48 63.464 0.357 7.64 25.35 8.61
5/23/2022 9:15:00 PM 17.44 63.392 0.357 7.64 28.3 8.61
5/23/2022 9:30:00 PM 17.4 63.32 0.357 7.64 23.37 8.6
5/23/2022 9:45:00 PM 17.35 63.23 0.358 7.64 27.12 8.6
5/23/2022 10:00:00 PM 17.3 63.14 0.358 7.63 80.4 8.6
5/23/2022 10:15:00 PM 17.25 63.05 0.366 7.63 24.66 8.61
5/23/2022 10:30:00 PM 17.2 62.96 0.359 7.64 23.07 8.6
5/23/2022 10:45:00 PM 17.15 62.87 0.359 7.63 24.11 8.62
5/23/2022 11:00:00 PM 17.09 62.762 0.364 7.63 70.67 8.62
5/23/2022 11:15:00 PM 17.04 62.672 0.366 7.63 23.43 8.62
5/23/2022 11:30:00 PM 16.99 62.582 0.365 7.63 25.72 8.63
5/23/2022 11:45:00 PM 16.93 62.474 0.366 7.63 30.62 8.64
5/24/2022 12:00:00 AM 16.87 62.366 0.366 7.63 21.54 8.64
5/24/2022 12:15:00 AM 16.81 62.258 0.363 7.63 23.71 8.65
5/24/2022 12:30:00 AM 16.75 62.15 0.434 7.62 25.8 8.66
5/24/2022 12:45:00 AM 16.7 62.06 0.434 7.63 26.17 8.67
5/24/2022 1:00:00 AM 16.64 61.952 0.39 7.63 21.27 8.69
5/24/2022 1:15:00 AM 16.58 61.844 0.364 7.63 23.76 8.7
5/24/2022 1:30:00 AM 16.53 61.754 0.365 7.63 27.64 8.71
5/24/2022 1:45:00 AM 16.47 61.646 0.365 7.63 26.2 8.73
5/24/2022 2:00:00 AM 16.42 61.556 0.366 7.63 22.79 8.74
5/24/2022 2:15:00 AM 16.36 61.448 0.366 7.63 23.52 8.74
5/24/2022 2:30:00 AM 16.31 61.358 0.373 7.63 21.1 8.75
5/24/2022 2:45:00 AM 16.26 61.268 0.367 7.63 23.69 8.76
5/24/2022 3:00:00 AM 16.19 61.142 0.367 7.63 20.65 8.78
5/24/2022 3:15:00 AM 16.14 61.052 0.368 7.63 21.67 8.8
5/24/2022 3:30:00 AM 16.07 60.926 0.367 7.63 23.38 8.82
5/24/2022 3:45:00 AM 16.02 60.836 0.369 7.63 24.33 8.82
5/24/2022 4:00:00 AM 15.97 60.746 0.369 7.63 23.77 8.83
5/24/2022 4:15:00 AM 15.92 60.656 0.37 7.63 24.34 8.86
5/24/2022 4:30:00 AM 15.86 60.548 0.37 7.64 22.5 8.86
5/24/2022 4:45:00 AM 15.82 60.476 0.37 7.64 25.27 8.88
5/24/2022 5:00:00 AM 15.76 60.368 0.37 7.63 165.92 8.9
5/24/2022 5:15:00 AM 15.71 60.278 0.37 7.64 22.92 8.9
5/24/2022 5:30:00 AM 15.66 60.188 0.371 7.63 30.74 8.92
5/24/2022 5:45:00 AM 15.62 60.116 0.371 7.64 24 8.93
5/24/2022 6:00:00 AM 15.56 60.008 0.371 7.64 21.89 8.95
5/24/2022 6:15:00 AM 15.52 59.936 0.371 7.64 24.85 8.96
5/24/2022 6:30:00 AM 15.48 59.864 0.371 7.64 21.95 8.97
5/24/2022 6:45:00 AM 15.43 59.774 0.372 7.64 21.22 9
5/24/2022 7:00:00 AM 15.4 59.72 0.372 7.64 30.46 9.01
5/24/2022 7:15:00 AM 15.36 59.648 0.372 7.64 21.87 9.03
5/24/2022 7:30:00 AM 15.33 59.594 0.372 7.64 33.62 9.05
5/24/2022 7:45:00 AM 15.31 59.558 0.372 7.64 21.01 9.07
5/24/2022 8:00:00 AM 15.3 59.54 0.372 7.64 20.93 9.1
5/24/2022 8:15:00 AM 15.29 59.522 0.373 7.65 19.68 9.13
5/24/2022 8:30:00 AM 15.26 59.468 0.372 7.65 19.44 9.15
5/24/2022 8:45:00 AM 15.24 59.432 0.373 7.65 20.83 9.17
5/24/2022 9:00:00 AM 15.21 59.378 0.373 7.65 20.34 9.18
5/24/2022 9:15:00 AM 15.18 59.324 0.373 7.66 17.75 9.2
5/24/2022 9:30:00 AM 15.17 59.306 0.373 7.66 18.25 9.22
5/24/2022 9:45:00 AM 15.19 59.342 0.373 7.66 17.94 9.27
5/24/2022 10:00:00 AM 15.22 59.396 0.373 7.68 15.74 9.32
5/24/2022 10:15:00 AM 15.28 59.504 0.373 7.68 16.7 9.37
5/24/2022 10:30:00 AM 15.33 59.594 0.373 7.69 18.28 9.42
5/24/2022 10:45:00 AM 15.37 59.666 0.374 7.69 91.29 9.45
5/24/2022 11:00:00 AM 15.42 59.756 0.374 7.7 15.95 9.49
5/24/2022 11:15:00 AM 15.44 59.792 0.374 7.7 16.84 9.5
5/24/2022 11:30:00 AM 15.42 59.756 0.374 7.7 17.19 9.5
5/24/2022 11:45:00 AM 15.4 59.72 0.374 7.71 15.09 9.51
5/24/2022 12:00:00 PM 15.39 59.702 0.374 7.71 15.09 9.5
5/24/2022 12:15:00 PM 15.38 59.684 0.374 7.71 14.41 9.48
5/24/2022 12:30:00 PM 15.39 59.702 0.374 7.71 15.33 9.48
5/24/2022 12:45:00 PM 15.41 59.738 0.373 7.71 16.08 9.47
5/24/2022 1:00:00 PM 15.45 59.81 0.377 7.71 22.24 9.46
5/24/2022 1:15:00 PM 15.47 59.846 0.379 7.71 12.16 9.48
5/24/2022 1:30:00 PM 15.48 59.864 0.374 7.71 15.66 9.48
5/24/2022 1:45:00 PM 15.47 59.846 0.371 7.72 14.04 9.47
5/24/2022 2:00:00 PM 15.46 59.828 0.374 7.71 13.7 9.43
5/24/2022 2:15:00 PM 15.45 59.81 0.374 7.71 13.55 9.41
5/24/2022 2:30:00 PM 15.45 59.81 0.374 7.71 21.34 9.41
5/24/2022 2:45:00 PM 15.46 59.828 0.373 7.71 13.99 9.41
5/24/2022 3:00:00 PM 15.46 59.828 0.374 7.72 14.25 9.43
5/24/2022 3:15:00 PM 15.47 59.846 0.447 7.71 14.63 9.44
5/24/2022 3:30:00 PM 15.47 59.846 0.373 7.72 13.5 9.43
5/24/2022 3:45:00 PM 15.46 59.828 0.401 7.71 15.71 9.41
5/24/2022 4:00:00 PM 15.45 59.81 0.379 7.72 13.38 9.39
5/24/2022 4:15:00 PM 15.44 59.792 0.374 7.71 14.82 9.38
5/24/2022 4:30:00 PM 15.47 59.846 0.374 7.71 12.95 9.39
5/24/2022 4:45:00 PM 15.49 59.882 0.387 7.71 12.92 9.41
5/24/2022 5:00:00 PM 15.51 59.918 0.381 7.72 13.49 9.42
5/24/2022 5:15:00 PM 15.54 59.972 0.389 7.72 13.58 9.43
5/24/2022 5:30:00 PM 15.54 59.972 0.389 7.72 13.34 9.42
5/24/2022 5:45:00 PM 15.53 59.954 0.45 7.72 13.67 9.4
5/24/2022 6:00:00 PM 15.52 59.936 0.404 7.72 14.38 9.39
5/24/2022 6:15:00 PM 15.52 59.936 0.381 7.72 23.21 9.36
5/24/2022 6:30:00 PM 15.52 59.936 0.384 7.71 14.66 9.36
5/24/2022 6:45:00 PM 15.53 59.954 0.389 7.72 12.92 9.36
5/24/2022 7:00:00 PM 15.54 59.972 0.449 7.72 14.61 9.37
5/24/2022 7:15:00 PM 15.55 59.99 0.38 7.72 13.27 9.37
5/24/2022 7:30:00 PM 15.55 59.99 0.38 7.72 45.95 9.36
5/24/2022 7:45:00 PM 15.55 59.99 0.449 7.72 14.12 9.34
5/24/2022 8:00:00 PM 15.54 59.972 0.448 7.71 12.73 9.32
5/24/2022 8:15:00 PM 15.52 59.936 0.449 7.71 13.05 9.3
5/24/2022 8:30:00 PM 15.5 59.9 0.38 7.71 13.35 9.28
5/24/2022 8:45:00 PM 15.48 59.864 0.403 7.7 12.88 9.26
5/24/2022 9:00:00 PM 15.46 59.828 0.382 7.7 15.31 9.24
5/24/2022 9:15:00 PM 15.44 59.792 0.449 7.7 15.27 9.23
5/24/2022 9:30:00 PM 15.42 59.756 0.449 7.7 15.1 9.22
5/24/2022 9:45:00 PM 15.41 59.738 0.381 7.69 16.18 9.21
5/24/2022 10:00:00 PM 15.38 59.684 0.383 7.69 14.93 9.21
5/24/2022 10:15:00 PM 15.36 59.648 0.403 7.69 19.94 9.18
5/24/2022 10:30:00 PM 15.34 59.612 0.375 7.69 19.44 9.17
5/24/2022 10:45:00 PM 15.31 59.558 0.404 7.68 16.18 9.17
5/24/2022 11:00:00 PM 15.29 59.522 0.404 7.68 16.58 9.17
5/24/2022 11:15:00 PM 15.27 59.486 0.375 7.68 15.58 9.16
5/24/2022 11:30:00 PM 15.24 59.432 0.375 7.68 16.1 9.16
5/24/2022 11:45:00 PM 15.22 59.396 0.375 7.68 19.46 9.15
5/25/2022 12:00:00 AM 15.2 59.36 0.382 7.67 15.76 9.15
5/25/2022 12:15:00 AM 15.17 59.306 0.376 7.67 17.08 9.15
5/25/2022 12:30:00 AM 15.15 59.27 0.377 7.67 17.33 9.16
5/25/2022 12:45:00 AM 15.12 59.216 0.376 7.67 18.19 9.15
5/25/2022 1:00:00 AM 15.1 59.18 0.376 7.67 16.61 9.16
5/25/2022 1:15:00 AM 15.08 59.144 0.377 7.67 16.35 9.15
5/25/2022 1:30:00 AM 15.05 59.09 0.377 7.67 32.9 9.17
5/25/2022 1:45:00 AM 15.02 59.036 0.378 7.67 16.45 9.17
5/25/2022 2:00:00 AM 14.99 58.982 0.382 7.67 16.37 9.17
5/25/2022 2:15:00 AM 14.96 58.928 0.378 7.66 16.4 9.18
5/25/2022 2:30:00 AM 14.93 58.874 0.378 7.67 17.54 9.18
5/25/2022 2:45:00 AM 14.89 58.802 0.379 7.67 16.5 9.19
5/25/2022 3:00:00 AM 14.85 58.73 0.379 7.67 15.75 9.19
5/25/2022 3:15:00 AM 14.81 58.658 0.38 7.67 18.92 9.2
5/25/2022 3:30:00 AM 14.76 58.568 0.378 7.67 16.73 9.21
5/25/2022 3:45:00 AM 14.72 58.496 0.38 7.67 18.63 9.21
5/25/2022 4:00:00 AM 14.67 58.406 0.38 7.67 17.28 9.22
5/25/2022 4:15:00 AM 14.62 58.316 0.381 7.67 17.41 9.23
5/25/2022 4:30:00 AM 14.57 58.226 0.381 7.67 16.29 9.24
5/25/2022 4:45:00 AM 14.53 58.154 0.381 7.68 16.63 9.24
5/25/2022 5:00:00 AM 14.48 58.064 0.381 7.67 17.42 9.25
5/25/2022 5:15:00 AM 14.44 57.992 0.381 7.67 16.82 9.26
5/25/2022 5:30:00 AM 14.4 57.92 0.381 7.67 16.33 9.28
5/25/2022 5:45:00 AM 14.37 57.866 0.381 7.67 16.87 9.29
5/25/2022 6:00:00 AM 14.34 57.812 0.381 7.67 16.6 9.29
5/25/2022 6:15:00 AM 14.31 57.758 0.381 7.67 17.13 9.3
5/25/2022 6:30:00 AM 14.29 57.722 0.381 7.68 20.85 9.32
5/25/2022 6:45:00 AM 14.26 57.668 0.381 7.67 16.12 9.33
5/25/2022 7:00:00 AM 14.23 57.614 0.381 7.68 18.22 9.35
5/25/2022 7:15:00 AM 14.21 57.578 0.381 7.68 17.08 9.38
5/25/2022 7:30:00 AM 14.19 57.542 0.381 7.68 15.18 9.4
5/25/2022 7:45:00 AM 14.17 57.506 0.381 7.69 16.86 9.42
5/25/2022 8:00:00 AM 14.16 57.488 0.381 7.69 16.21 9.44
5/25/2022 8:15:00 AM 14.16 57.488 0.381 7.69 17.11 9.47
5/25/2022 8:30:00 AM 14.17 57.506 0.381 7.7 15.64 9.5
5/25/2022 8:45:00 AM -99999.99 -179968 -99999.99 -99999.99 -99999.99 -99999.99
5/25/2022 9:00:00 AM -99999.99 -179968 -99999.99 -99999.99 -99999.99 -99999.99
5/25/2022 9:15:00 AM -99999.99 -179968 -99999.99 -99999.99 -99999.99 -99999.99
5/25/2022 9:30:00 AM -99999.99 -179968 -99999.99 -99999.99 -99999.99 -99999.99
5/25/2022 9:45:00 AM 14.45 58.01 0.38 7.67 9.94 9.69
5/25/2022 10:00:00 AM 14.51 58.118 0.381 7.71 11.99 9.71
5/25/2022 10:15:00 AM 14.57 58.226 0.381 7.72 10.88 9.75
5/25/2022 10:30:00 AM 14.6 58.28 0.381 7.73 10.09 9.78
5/25/2022 10:45:00 AM 14.65 58.37 0.381 7.73 10.13 9.82
5/25/2022 11:00:00 AM 14.74 58.532 0.385 7.73 10.91 9.86
5/25/2022 11:15:00 AM 14.83 58.694 0.385 7.75 9.54 9.89
5/25/2022 11:30:00 AM 14.91 58.838 0.384 7.76 10.35 9.91
5/25/2022 11:45:00 AM 14.97 58.946 0.384 7.76 10.43 9.94
5/25/2022 12:00:00 PM 15.04 59.072 0.383 7.77 11.92 9.96
5/25/2022 12:15:00 PM 15.1 59.18 0.383 7.77 10.33 9.99
5/25/2022 12:30:00 PM 15.17 59.306 0.383 7.78 10.52 10
5/25/2022 12:45:00 PM 15.3 59.54 0.383 7.79 10.44 10.02
5/25/2022 1:00:00 PM 15.43 59.774 0.383 7.79 10.55 10.03
5/25/2022 1:15:00 PM 15.58 60.044 0.181 7.8 10.94 10.04
5/25/2022 1:30:00 PM 15.7 60.26 0.384 7.8 9.54 10.06
5/25/2022 1:45:00 PM 15.8 60.44 0.382 7.81 9.57 10.06
5/25/2022 2:00:00 PM 15.86 60.548 0.384 7.81 11.03 10.06
5/25/2022 2:15:00 PM 15.88 60.584 0.384 7.81 9.72 10.03
5/25/2022 2:30:00 PM 15.9 60.62 0.384 7.81 11.05 10.02
5/25/2022 2:45:00 PM 15.95 60.71 0.384 7.82 10.38 10.01
5/25/2022 3:00:00 PM 16.06 60.908 0.384 7.82 9.5 9.99
5/25/2022 3:15:00 PM 16.17 61.106 0.385 7.77 8.63 9.97
5/25/2022 3:30:00 PM 16.31 61.358 0.384 7.82 9.14 9.96
5/25/2022 3:45:00 PM 16.39 61.502 0.384 7.82 11.18 9.92
5/25/2022 4:00:00 PM 16.43 61.574 0.384 7.82 9.19 9.88
5/25/2022 4:15:00 PM 16.44 61.592 0.385 7.82 8.9 9.83
5/25/2022 4:30:00 PM 16.48 61.664 0.385 7.81 8.29 9.79
5/25/2022 4:45:00 PM 16.51 61.718 0.385 7.82 9.04 9.75
5/25/2022 5:00:00 PM 16.55 61.79 0.385 7.81 9.43 9.71
5/25/2022 5:15:00 PM 16.57 61.826 0.384 7.81 9.76 9.67
5/25/2022 5:30:00 PM 16.61 61.898 0.385 7.81 9.39 9.62
5/25/2022 5:45:00 PM 16.65 61.97 0.385 7.81 9.65 9.58
5/25/2022 6:00:00 PM 16.69 62.042 0.386 7.81 8.42 9.55
5/25/2022 6:15:00 PM 16.73 62.114 0.293 7.8 9.18 9.5
5/25/2022 6:30:00 PM 16.75 62.15 0.386 7.8 9.88 9.46
5/25/2022 6:45:00 PM 16.78 62.204 0.386 7.8 9.39 9.42
5/25/2022 7:00:00 PM 16.79 62.222 0.384 7.79 10.06 9.36
5/25/2022 7:15:00 PM 16.79 62.222 0.386 7.79 8.2 9.32
5/25/2022 7:30:00 PM 16.79 62.222 0.386 7.78 7.85 9.27
5/25/2022 7:45:00 PM 16.78 62.204 0.387 7.78 8.4 9.23
5/25/2022 8:00:00 PM 16.76 62.168 0.387 7.77 9.45 9.19
5/25/2022 8:15:00 PM 16.74 62.132 0.387 7.77 10.74 9.13
5/25/2022 8:30:00 PM 16.72 62.096 0.387 7.76 10.15 9.09
5/25/2022 8:45:00 PM 16.71 62.078 0.387 7.75 9.66 9.05
5/25/2022 9:00:00 PM 16.69 62.042 0.387 7.75 10.3 9.02
5/25/2022 9:15:00 PM 16.68 62.024 0.387 7.75 10.89 9
5/25/2022 9:30:00 PM 16.66 61.988 0.387 7.74 10.39 8.98
5/25/2022 9:45:00 PM 16.64 61.952 0.387 7.74 11.12 8.96
5/25/2022 10:00:00 PM 16.61 61.898 0.387 7.74 11.38 8.93
5/25/2022 10:15:00 PM 16.58 61.844 0.388 7.74 17.11 8.91
5/25/2022 10:30:00 PM 16.54 61.772 0.388 7.73 11.63 8.91
5/25/2022 10:45:00 PM 16.52 61.736 0.388 7.73 11.95 8.89
5/25/2022 11:00:00 PM 16.49 61.682 0.388 7.73 10.73 8.88
5/25/2022 11:15:00 PM 16.46 61.628 0.388 7.72 12.09 8.87
5/25/2022 11:30:00 PM 16.43 61.574 0.388 7.72 11.64 8.86
5/25/2022 11:45:00 PM 16.4 61.52 0.388 7.72 11.63 8.85
5/26/2022 12:00:00 AM 16.37 61.466 0.388 7.72 12.17 8.84
5/26/2022 12:15:00 AM 16.35 61.43 0.388 7.71 12.93 8.84
5/26/2022 12:30:00 AM 16.33 61.394 0.388 7.71 13.01 8.83
5/26/2022 12:45:00 AM 16.3 61.34 0.389 7.71 10.92 8.83
5/26/2022 1:00:00 AM 16.26 61.268 0.389 7.71 11.26 8.82
5/26/2022 1:15:00 AM 16.23 61.214 0.389 7.71 11.23 8.82
5/26/2022 1:30:00 AM 16.2 61.16 0.389 7.7 11.43 8.82
5/26/2022 1:45:00 AM 16.15 61.07 0.389 7.7 11.85 8.82
5/26/2022 2:00:00 AM 16.11 60.998 0.203 7.7 11.89 8.83
5/26/2022 2:15:00 AM 16.06 60.908 0.389 7.7 11.93 8.83
5/26/2022 2:30:00 AM 16.01 60.818 0.389 7.7 6.73 8.82
5/26/2022 2:45:00 AM 15.97 60.746 0.389 7.7 12.76 8.84
5/26/2022 3:00:00 AM 15.93 60.674 0.389 7.7 12.35 8.85
5/26/2022 3:15:00 AM 15.89 60.602 0.389 7.7 22.75 8.86
5/26/2022 3:30:00 AM 15.85 60.53 0.389 7.7 12.32 8.86
5/26/2022 3:45:00 AM 15.81 60.458 0.389 7.7 12.46 8.87
5/26/2022 4:00:00 AM 15.76 60.368 0.389 7.7 12.86 8.88
5/26/2022 4:15:00 AM 15.71 60.278 0.243 7.7 12.33 8.89
5/26/2022 4:30:00 AM 15.66 60.188 0.39 7.7 13.11 8.89
5/26/2022 4:45:00 AM 15.61 60.098 0.227 7.69 10.46 8.9
5/26/2022 5:00:00 AM 15.56 60.008 0.389 7.7 12.08 8.91
5/26/2022 5:15:00 AM 15.5 59.9 0.39 7.7 12.67 8.92
5/26/2022 5:30:00 AM 15.45 59.81 0.389 7.69 12.41 8.93
5/26/2022 5:45:00 AM 15.4 59.72 0.39 7.7 12.92 8.94
5/26/2022 6:00:00 AM 15.36 59.648 0.39 7.7 12.67 8.95
5/26/2022 6:15:00 AM 15.33 59.594 0.39 7.7 11.24 8.96
5/26/2022 6:30:00 AM 15.3 59.54 0.39 7.7 11.74 8.98
5/26/2022 6:45:00 AM 15.26 59.468 0.39 7.7 83.33 9
5/26/2022 7:00:00 AM 15.23 59.414 0.39 7.7 12.47 9.02
5/26/2022 7:15:00 AM 15.2 59.36 0.39 7.7 12.38 9.05
5/26/2022 7:30:00 AM 15.17 59.306 0.39 7.7 11.77 9.08
5/26/2022 7:45:00 AM 15.15 59.27 0.39 7.71 11.94 9.11
5/26/2022 8:00:00 AM 15.12 59.216 0.39 7.71 11.67 9.15
5/26/2022 8:15:00 AM 15.11 59.198 0.39 7.71 10.54 9.19
5/26/2022 8:30:00 AM 15.1 59.18 0.39 7.72 11.45 9.23
5/26/2022 8:45:00 AM 15.1 59.18 0.39 7.72 11.94 9.27
5/26/2022 9:00:00 AM 15.1 59.18 0.39 7.73 11.65 9.32
5/26/2022 9:15:00 AM 15.11 59.198 0.39 7.73 11.66 9.37
5/26/2022 9:30:00 AM 15.13 59.234 0.39 7.74 11.45 9.42
5/26/2022 9:45:00 AM 15.13 59.234 0.39 7.74 11.33 9.46
5/26/2022 10:00:00 AM 15.13 59.234 0.39 7.75 9.25 9.48
5/26/2022 10:15:00 AM 15.13 59.234 0.353 7.75 10.8 9.5
5/26/2022 10:30:00 AM 15.13 59.234 0.39 7.75 10.05 9.52
5/26/2022 10:45:00 AM 15.12 59.216 0.39 7.75 10.93 9.54
5/26/2022 11:00:00 AM 15.14 59.252 0.39 7.76 10.93 9.57
5/26/2022 11:15:00 AM 15.16 59.288 0.39 7.76 10.4 9.61
5/26/2022 11:30:00 AM 15.2 59.36 0.391 7.77 10.02 9.65
5/26/2022 11:45:00 AM 15.25 59.45 0.391 7.77 9.98 9.69
5/26/2022 12:00:00 PM 15.32 59.576 0.391 7.79 9.8 9.75
5/26/2022 12:15:00 PM 15.38 59.684 0.172 7.79 10.07 9.78
5/26/2022 12:30:00 PM 15.43 59.774 0.391 7.8 9.29 9.79
5/26/2022 12:45:00 PM 15.44 59.792 0.391 7.8 10.02 9.8
5/26/2022 1:00:00 PM 15.45 59.81 0.39 7.8 9.66 9.8
5/26/2022 1:15:00 PM 15.47 59.846 0.39 7.8 10.44 9.78
5/26/2022 1:30:00 PM 15.48 59.864 0.39 7.8 9.54 9.77
5/26/2022 1:45:00 PM 15.51 59.918 0.39 7.8 8.34 9.78
5/26/2022 2:00:00 PM 15.54 59.972 0.391 7.81 8.95 9.78
5/26/2022 2:15:00 PM 15.59 60.062 0.391 7.81 8.95 9.79
5/26/2022 2:30:00 PM 15.65 60.17 0.291 7.81 8.14 9.81
5/26/2022 2:45:00 PM 15.71 60.278 0.39 7.81 9.94 9.82
5/26/2022 3:00:00 PM 15.74 60.332 0.315 7.82 8.22 9.79
5/26/2022 3:15:00 PM 15.79 60.422 0.39 7.82 9.18 9.8
5/26/2022 3:30:00 PM 15.88 60.584 0.39 7.82 7.18 9.81
5/26/2022 3:45:00 PM 15.94 60.692 0.39 7.83 6.98 9.82
5/26/2022 4:00:00 PM 15.98 60.764 0.39 7.83 8.18 9.78
5/26/2022 4:15:00 PM 16.02 60.836 0.39 7.83 13.14 9.8
5/26/2022 4:30:00 PM 16.04 60.872 0.39 7.83 9.02 9.77
5/26/2022 4:45:00 PM 16.05 60.89 0.39 7.83 10.66 9.72
5/26/2022 5:00:00 PM 16.06 60.908 0.39 7.82 9.54 9.66
5/26/2022 5:15:00 PM 16.06 60.908 0.39 7.82 8.77 9.61
5/26/2022 5:30:00 PM 16.08 60.944 0.391 7.81 9.55 9.56
5/26/2022 5:45:00 PM 16.09 60.962 0.39 7.81 10.15 9.51
5/26/2022 6:00:00 PM 16.1 60.98 0.39 7.8 9.58 9.48
5/26/2022 6:15:00 PM 16.13 61.034 0.389 7.8 8.5 9.45
5/26/2022 6:30:00 PM 16.16 61.088 0.39 7.8 9.73 9.42
5/26/2022 6:45:00 PM 16.18 61.124 0.39 7.8 8.5 9.4
5/26/2022 7:00:00 PM 16.2 61.16 0.39 7.79 8.24 9.36
5/26/2022 7:15:00 PM 16.22 61.196 0.39 7.79 9.8 9.34
5/26/2022 7:30:00 PM 16.23 61.214 0.391 7.79 13.74 9.28
5/26/2022 7:45:00 PM 16.23 61.214 0.39 7.78 11.31 9.24
5/26/2022 8:00:00 PM 16.22 61.196 0.391 7.78 11.2 9.2
5/26/2022 8:15:00 PM 16.22 61.196 0.391 7.77 9.84 9.15
5/26/2022 8:30:00 PM 16.22 61.196 0.39 7.77 9.37 9.12
5/26/2022 8:45:00 PM 16.21 61.178 0.391 7.76 9.9 9.08
5/26/2022 9:00:00 PM 16.21 61.178 0.238 7.76 9.14 9.04
5/26/2022 9:15:00 PM 16.2 61.16 0.389 7.75 10.84 9.02
5/26/2022 9:30:00 PM 16.2 61.16 0.389 7.75 10.32 9
5/26/2022 9:45:00 PM 16.2 61.16 0.39 7.75 10.27 8.99
5/26/2022 10:00:00 PM 16.2 61.16 0.391 7.74 9.45 8.97
5/26/2022 10:15:00 PM 16.19 61.142 0.391 7.74 10.45 8.95
5/26/2022 10:30:00 PM 16.19 61.142 0.391 7.74 11.88 8.93
5/26/2022 10:45:00 PM 16.18 61.124 0.39 7.73 11.35 8.91
5/26/2022 11:00:00 PM 16.18 61.124 0.391 7.73 11.91 8.9
5/26/2022 11:15:00 PM 16.17 61.106 0.391 7.71 10.54 8.89
5/26/2022 11:30:00 PM 16.16 61.088 0.391 7.73 11.64 8.88
5/26/2022 11:45:00 PM 16.15 61.07 0.288 7.72 10.8 8.84
5/27/2022 12:00:00 AM 16.14 61.052 0.2 7.72 10.72 8.81
5/27/2022 12:15:00 AM 16.13 61.034 0.391 7.71 11.46 8.84
5/27/2022 12:30:00 AM 16.12 61.016 0.389 7.71 12.45 8.83
5/27/2022 12:45:00 AM 16.11 60.998 0.391 7.71 11.31 8.82
5/27/2022 1:00:00 AM 16.11 60.998 0.293 7.71 12.16 8.81
5/27/2022 1:15:00 AM 16.1 60.98 0.391 7.71 13.26 8.81
5/27/2022 1:30:00 AM 16.09 60.962 0.391 7.71 7.28 8.81
5/27/2022 1:45:00 AM 16.08 60.944 0.391 7.71 11.39 8.79
5/27/2022 2:00:00 AM 16.07 60.926 0.391 7.7 10.72 8.79
5/27/2022 2:15:00 AM 16.06 60.908 0.391 7.7 11.65 8.79
5/27/2022 2:30:00 AM 16.04 60.872 0.23 7.7 12.03 8.77
5/27/2022 2:45:00 AM 16.03 60.854 0.307 7.7 13.09 8.78
5/27/2022 3:00:00 AM 16.01 60.818 0.391 7.69 14.27 8.78
5/27/2022 3:15:00 AM 16 60.8 0.391 7.68 12.92 8.78
5/27/2022 3:30:00 AM 15.98 60.764 0.391 7.68 13.1 8.78
5/27/2022 3:45:00 AM 15.97 60.746 0.391 7.68 12.59 8.78
5/27/2022 4:00:00 AM 15.95 60.71 0.389 7.68 10.72 8.77
5/27/2022 4:15:00 AM 15.93 60.674 0.391 7.69 12.47 8.78
5/27/2022 4:30:00 AM 15.93 60.674 0.391 7.68 11.85 8.77
5/27/2022 4:45:00 AM 15.91 60.638 0.391 7.69 12.86 8.77
5/27/2022 5:00:00 AM 15.9 60.62 0.391 7.69 14.01 8.78
5/27/2022 5:15:00 AM 15.89 60.602 0.363 7.69 11.88 8.78
5/27/2022 5:30:00 AM 15.87 60.566 0.391 7.68 9.09 8.78
5/27/2022 5:45:00 AM 15.86 60.548 0.391 7.68 12.3 8.79
5/27/2022 6:00:00 AM 15.86 60.548 0.39 7.68 11.4 8.78
5/27/2022 6:15:00 AM 15.85 60.53 0.391 7.68 11.94 8.78
5/27/2022 6:30:00 AM 15.83 60.494 0.391 7.68 61.44 8.79
5/27/2022 6:45:00 AM 15.82 60.476 0.39 7.68 10.32 8.79
5/27/2022 7:00:00 AM 15.81 60.458 0.391 7.68 12.22 8.8
5/27/2022 7:15:00 AM 15.8 60.44 0.386 7.69 109.24 8.81
5/27/2022 7:30:00 AM 15.79 60.422 0.373 7.69 11.27 8.82
5/27/2022 7:45:00 AM 15.79 60.422 0.392 7.68 10.92 8.83
5/27/2022 8:00:00 AM 15.79 60.422 0.391 7.69 13.43 8.84
5/27/2022 8:15:00 AM 15.79 60.422 0.336 7.69 11.37 8.86
5/27/2022 8:30:00 AM 15.79 60.422 0.389 7.7 12.27 8.89
5/27/2022 8:45:00 AM 15.79 60.422 0.391 7.7 11.24 8.91
5/27/2022 9:00:00 AM 15.8 60.44 0.391 7.7 12.05 8.93
5/27/2022 9:15:00 AM 15.81 60.458 0.391 7.71 13.05 8.96
5/27/2022 9:30:00 AM 15.82 60.476 0.391 7.71 11.39 8.99
5/27/2022 9:45:00 AM 15.83 60.494 0.391 7.71 12.71 9.01
5/27/2022 10:00:00 AM 15.87 60.566 0.391 7.71 11.78 9.05
5/27/2022 10:15:00 AM 15.89 60.602 0.391 7.73 9.19 9.08
5/27/2022 10:30:00 AM 15.92 60.656 0.292 7.73 12.39 9.08
5/27/2022 10:45:00 AM 15.93 60.674 0.391 7.73 11.56 9.1
5/27/2022 11:00:00 AM 15.95 60.71 0.391 7.74 12.6 9.12
5/27/2022 11:15:00 AM 15.96 60.728 0.39 7.74 10.94 9.12
5/27/2022 11:30:00 AM 15.97 60.746 0.391 7.74 11.66 9.13
5/27/2022 11:45:00 AM 15.98 60.764 0.391 7.75 9.55 9.13
5/27/2022 12:00:00 PM 16.01 60.818 0.39 7.75 10.53 9.15
5/27/2022 12:15:00 PM 16.04 60.872 0.391 7.75 9.25 9.17
5/27/2022 12:30:00 PM 16.1 60.98 0.391 7.76 10.77 9.21
5/27/2022 12:45:00 PM 16.14 61.052 0.391 7.77 12.05 9.25
5/27/2022 1:00:00 PM 16.22 61.196 0.391 7.77 12.36 9.28
5/27/2022 1:15:00 PM 16.27 61.286 0.391 7.78 11.2 9.35
5/27/2022 1:30:00 PM 16.32 61.376 0.39 7.78 8.49 9.37
5/27/2022 1:45:00 PM 16.33 61.394 0.286 7.78 11.09 9.32
5/27/2022 2:00:00 PM 16.28 61.304 0.354 7.77 10.03 9.25
5/27/2022 2:15:00 PM 16.24 61.232 0.365 7.76 10.88 9.17
5/27/2022 2:30:00 PM 16.21 61.178 0.387 7.75 11.96 9.09
5/27/2022 2:45:00 PM 16.21 61.178 0.387 7.74 8.54 9.07
5/27/2022 3:00:00 PM 16.25 61.25 0.37 7.75 12.74 9.1
5/27/2022 3:15:00 PM 16.29 61.322 0.367 7.76 8.5 9.19
5/27/2022 3:30:00 PM 16.37 61.466 0.386 7.77 11.2 9.26
5/27/2022 3:45:00 PM 16.45 61.61 0.386 7.78 10.77 9.34
5/27/2022 4:00:00 PM 16.53 61.754 0.384 7.8 9.84 9.34
5/27/2022 4:15:00 PM 16.57 61.826 0.384 7.8 10.77 9.35
5/27/2022 4:30:00 PM 16.6 61.88 0.382 7.79 11.54 9.33
5/27/2022 4:45:00 PM 16.62 61.916 0.381 7.79 11.75 9.3
5/27/2022 5:00:00 PM 16.65 61.97 0.381 7.8 12.5 9.29
5/27/2022 5:15:00 PM 16.68 62.024 0.38 7.79 12.24 9.25
5/27/2022 5:30:00 PM 16.71 62.078 0.379 7.79 11.72 9.24
5/27/2022 5:45:00 PM 16.73 62.114 0.379 7.79 12.02 9.21
5/27/2022 6:00:00 PM 16.76 62.168 0.376 7.79 12.97 9.19
5/27/2022 6:15:00 PM 16.78 62.204 0.376 7.79 9.5 9.15
5/27/2022 6:30:00 PM 16.8 62.24 0.378 7.78 13.31 9.13
5/27/2022 6:45:00 PM 16.81 62.258 0.376 7.78 10.93 9.07
5/27/2022 7:00:00 PM 16.82 62.276 0.376 7.78 13.28 9.03
5/27/2022 7:15:00 PM 16.83 62.294 0.377 7.77 16.02 8.98
5/27/2022 7:30:00 PM 16.83 62.294 0.376 7.77 17.21 8.94
5/27/2022 7:45:00 PM 16.83 62.294 0.236 7.76 12.88 8.91
5/27/2022 8:00:00 PM 16.84 62.312 0.373 7.76 12.83 8.87
5/27/2022 8:15:00 PM 16.84 62.312 0.374 7.76 13.41 8.85
5/27/2022 8:30:00 PM 16.84 62.312 0.374 7.75 10.15 8.83
5/27/2022 8:45:00 PM 16.84 62.312 0.11 7.74 13.39 8.8
5/27/2022 9:00:00 PM 16.83 62.294 0.374 7.73 12.67 8.77
5/27/2022 9:15:00 PM 16.83 62.294 0.373 7.73 27.63 8.74
5/27/2022 9:30:00 PM 16.83 62.294 0.321 7.73 18.96 8.72
5/27/2022 9:45:00 PM 16.82 62.276 0.373 7.72 20.05 8.69
5/27/2022 10:00:00 PM 16.81 62.258 0.329 7.72 15.84 8.69
5/27/2022 10:15:00 PM 16.8 62.24 0.262 7.72 15.34 8.65
5/27/2022 10:30:00 PM 16.79 62.222 0.378 7.69 13.18 8.64
5/27/2022 10:45:00 PM 16.78 62.204 0.375 7.71 12.51 8.62
5/27/2022 11:00:00 PM 16.77 62.186 0.376 7.7 12.84 8.62
5/27/2022 11:15:00 PM 16.77 62.186 0.373 7.7 11.61 8.61
5/27/2022 11:30:00 PM 16.77 62.186 0.375 7.7 27.5 8.6
5/27/2022 11:45:00 PM 16.77 62.186 0.373 7.7 17.8 8.57
5/28/2022 12:00:00 AM 16.76 62.168 0.25 7.69 15.49 8.56
5/28/2022 12:15:00 AM 16.75 62.15 0.374 7.69 24.82 8.54
5/28/2022 12:30:00 AM 16.74 62.132 0.374 7.69 14.26 8.52
5/28/2022 12:45:00 AM 16.73 62.114 0.355 7.62 20.88 8.52
5/28/2022 1:00:00 AM 16.72 62.096 0.295 7.68 23.77 8.52
5/28/2022 1:15:00 AM 16.7 62.06 0.374 7.68 20.67 8.52
5/28/2022 1:30:00 AM 16.69 62.042 0.373 7.67 18.38 8.52
5/28/2022 1:45:00 AM 16.67 62.006 0.372 7.67 21.97 8.52
5/28/2022 2:00:00 AM 16.65 61.97 0.373 7.67 17.52 8.52
5/28/2022 2:15:00 AM 16.62 61.916 0.374 7.66 11.14 8.52
5/28/2022 2:30:00 AM 16.6 61.88 0.373 7.67 16.39 8.52
5/28/2022 2:45:00 AM 16.58 61.844 0.374 7.66 15.52 8.52
5/28/2022 3:00:00 AM 16.56 61.808 0.372 7.67 16.54 8.52
5/28/2022 3:15:00 AM 16.54 61.772 0.373 7.67 12.79 8.53
5/28/2022 3:30:00 AM 16.52 61.736 0.373 7.66 16.73 8.54
5/28/2022 3:45:00 AM 16.51 61.718 0.375 7.66 15.27 8.54
5/28/2022 4:00:00 AM 16.49 61.682 0.375 7.67 15 8.54
5/28/2022 4:15:00 AM 16.46 61.628 0.376 7.67 15.63 8.55
5/28/2022 4:30:00 AM 16.44 61.592 0.376 7.68 13.41 8.56
5/28/2022 4:45:00 AM 16.41 61.538 0.376 7.69 28.68 8.57
5/28/2022 5:00:00 AM 16.38 61.484 0.376 7.68 15.42 8.56
5/28/2022 5:15:00 AM 16.35 61.43 0.369 7.68 13.85 8.57
5/28/2022 5:30:00 AM 16.32 61.376 0.368 7.68 18.53 8.57
5/28/2022 5:45:00 AM 16.29 61.322 0.378 7.68 16.76 8.58
5/28/2022 6:00:00 AM 16.27 61.286 0.378 7.67 14.71 8.59
5/28/2022 6:15:00 AM 16.25 61.25 0.378 7.68 17.41 8.58
5/28/2022 6:30:00 AM 16.23 61.214 0.378 7.68 14.66 8.6
5/28/2022 6:45:00 AM 16.21 61.178 0.299 7.68 14.75 8.6
5/28/2022 7:00:00 AM 16.18 61.124 0.379 7.67 17.25 8.62
5/28/2022 7:15:00 AM 16.17 61.106 0.379 7.69 12.93 8.63
5/28/2022 7:30:00 AM 16.14 61.052 0.294 7.69 20.47 8.65
5/28/2022 7:45:00 AM 16.13 61.034 0.379 7.69 17.33 8.67
5/28/2022 8:00:00 AM 16.12 61.016 0.38 7.68 14.02 8.7
5/28/2022 8:15:00 AM 16.14 61.052 0.378 7.7 13.44 8.72
5/28/2022 8:30:00 AM 16.17 61.106 0.379 7.7 11.95 8.76
5/28/2022 8:45:00 AM 16.18 61.124 0.379 7.71 10.6 8.81
5/28/2022 9:00:00 AM 16.18 61.124 0.38 7.71 13.94 8.85
5/28/2022 9:15:00 AM 16.18 61.124 0.38 7.72 13.9 8.88
5/28/2022 9:30:00 AM 16.21 61.178 0.383 7.63 12.15 8.95
5/28/2022 9:45:00 AM 16.25 61.25 0.25 7.73 10.25 8.99
5/28/2022 10:00:00 AM 16.27 61.286 0.282 7.74 13.22 9.01
5/28/2022 10:15:00 AM 16.34 61.412 0.381 7.74 22.32 9.05
5/28/2022 10:30:00 AM 16.38 61.484 0.38 7.75 12.35 9.08
5/28/2022 10:45:00 AM 16.41 61.538 0.379 7.75 11.18 9.13
5/28/2022 11:00:00 AM 16.46 61.628 0.381 7.72 13.02 9.19
5/28/2022 11:15:00 AM 16.55 61.79 0.381 7.77 13.18 9.25
5/28/2022 11:30:00 AM 16.6 61.88 0.382 7.77 12.41 9.27
5/28/2022 11:45:00 AM 16.62 61.916 0.382 7.78 21.44 9.29
5/28/2022 12:00:00 PM 16.63 61.934 0.382 7.78 11.17 9.3
5/28/2022 12:15:00 PM 16.7 62.06 0.382 7.79 13.04 9.34
5/28/2022 12:30:00 PM 16.83 62.294 0.382 7.8 60.02 9.38
5/28/2022 12:45:00 PM 17 62.6 0.382 7.81 12.92 9.41
5/28/2022 1:00:00 PM 17.08 62.744 0.383 7.81 12.85 9.44
5/28/2022 1:15:00 PM 17.14 62.852 0.226 7.81 11.1 9.47
5/28/2022 1:30:00 PM 17.24 63.032 0.382 7.83 12.81 9.46
5/28/2022 1:45:00 PM 17.32 63.176 0.383 7.83 12.53 9.49
5/28/2022 2:00:00 PM 17.4 63.32 0.298 7.83 12.98 9.46
5/28/2022 2:15:00 PM 17.46 63.428 0.292 7.84 11.76 9.42
5/28/2022 2:30:00 PM 17.55 63.59 0.384 7.84 12.12 9.44
5/28/2022 2:45:00 PM 17.56 63.608 0.383 7.84 11.79 9.4
5/28/2022 3:00:00 PM 17.62 63.716 0.384 7.84 12.82 9.37
5/28/2022 3:15:00 PM 17.68 63.824 0.385 7.84 11.41 9.37
5/28/2022 3:30:00 PM 17.66 63.788 0.276 7.84 7.93 9.33
5/28/2022 3:45:00 PM 17.66 63.788 0.304 7.83 7.84 9.29
5/28/2022 4:00:00 PM 17.72 63.896 0.385 7.84 11.81 9.3
5/28/2022 4:15:00 PM 17.78 64.004 0.385 7.84 11.73 9.27
5/28/2022 4:30:00 PM 17.83 64.094 0.254 7.83 10.46 9.24
5/28/2022 4:45:00 PM 17.89 64.202 0.341 7.83 9.72 9.21
5/28/2022 5:00:00 PM 17.93 64.274 0.386 7.83 10.33 9.17
5/28/2022 5:15:00 PM 17.94 64.292 0.387 7.83 8.99 9.11
5/28/2022 5:30:00 PM 17.96 64.328 0.386 7.82 9.82 9.06
5/28/2022 5:45:00 PM 17.99 64.382 0.103 7.82 11.31 9.03
5/28/2022 6:00:00 PM 18.05 64.49 0.208 7.82 10.2 9.02
5/28/2022 6:15:00 PM 18.08 64.544 0.387 7.82 11.11 8.97
5/28/2022 6:30:00 PM 18.09 64.562 0.261 7.81 9.9 8.93
5/28/2022 6:45:00 PM 18.1 64.58 0.387 7.81 10.67 8.87
5/28/2022 7:00:00 PM 18.1 64.58 0.387 7.8 10.2 8.81
5/28/2022 7:15:00 PM 18.1 64.58 0.386 7.79 9.88 8.75
5/28/2022 7:30:00 PM 18.1 64.58 0.278 7.78 61.18 8.71
5/28/2022 7:45:00 PM 18.09 64.562 0.388 7.78 45.79 8.69
5/28/2022 8:00:00 PM 18.08 64.544 0.388 7.78 12.84 8.67
5/28/2022 8:15:00 PM 18.06 64.508 0.388 7.78 17.69 8.62
5/28/2022 8:30:00 PM 18.04 64.472 0.396 7.67 12.91 8.59
5/28/2022 8:45:00 PM 18.02 64.436 0.389 7.76 10.68 8.55
5/28/2022 9:00:00 PM 17.99 64.382 0.389 7.76 10.48 8.52
5/28/2022 9:15:00 PM 17.97 64.346 0.389 7.76 12.74 8.49
5/28/2022 9:30:00 PM 17.95 64.31 0.39 7.75 11.88 8.46
5/28/2022 9:45:00 PM 17.93 64.274 0.39 7.74 11.43 8.45
5/28/2022 10:00:00 PM 17.91 64.238 0.39 7.74 10.57 8.44
5/28/2022 10:15:00 PM 17.9 64.22 0.39 7.74 10.78 8.41
5/28/2022 10:30:00 PM 17.88 64.184 0.39 7.74 39.71 8.4
5/28/2022 10:45:00 PM 17.86 64.148 0.189 7.73 11.84 8.39
5/28/2022 11:00:00 PM 17.83 64.094 0.246 7.73 12.12 8.38
5/28/2022 11:15:00 PM 17.8 64.04 0.391 7.73 12.42 8.37
5/28/2022 11:30:00 PM 17.77 63.986 0.391 7.73 12.31 8.36
5/28/2022 11:45:00 PM 17.74 63.932 0.392 7.73 12.02 8.35
5/29/2022 12:00:00 AM 17.7 63.86 0.348 7.72 12.18 8.35
5/29/2022 12:15:00 AM 17.66 63.788 0.391 7.72 12.99 8.34
5/29/2022 12:30:00 AM 17.63 63.734 0.392 7.72 12.2 8.34
5/29/2022 12:45:00 AM 17.59 63.662 0.393 7.71 11.45 8.34
5/29/2022 1:00:00 AM 17.54 63.572 0.393 7.71 10.03 8.34
5/29/2022 1:15:00 AM 17.5 63.5 0.393 7.71 11.94 8.34
5/29/2022 1:30:00 AM 17.45 63.41 0.393 7.71 14.32 8.34
5/29/2022 1:45:00 AM 17.41 63.338 0.393 7.71 13.02 8.35
5/29/2022 2:00:00 AM 17.36 63.248 0.393 7.71 12.57 8.35
5/29/2022 2:15:00 AM 17.31 63.158 0.394 7.71 13.12 8.35
5/29/2022 2:30:00 AM 17.26 63.068 0.394 7.71 11.64 8.36
5/29/2022 2:45:00 AM 17.21 62.978 0.29 7.71 10.95 8.37
5/29/2022 3:00:00 AM 17.16 62.888 0.394 7.7 11.8 8.38
5/29/2022 3:15:00 AM 17.11 62.798 0.3 7.7 12.75 8.39
5/29/2022 3:30:00 AM 17.05 62.69 0.395 7.7 9.28 8.41
5/29/2022 3:45:00 AM 16.99 62.582 0.395 7.7 13.23 8.4
5/29/2022 4:00:00 AM 16.94 62.492 0.395 7.7 12.57 8.41
5/29/2022 4:15:00 AM 16.88 62.384 0.395 7.7 13.6 8.43
5/29/2022 4:30:00 AM 16.82 62.276 0.395 7.7 12.98 8.43
5/29/2022 4:45:00 AM 16.77 62.186 0.395 7.7 10.33 8.43
5/29/2022 5:00:00 AM 16.73 62.114 0.395 7.7 10.54 8.45
5/29/2022 5:15:00 AM 16.68 62.024 0.396 7.7 65.1 8.46
5/29/2022 5:30:00 AM 16.64 61.952 0.396 7.7 34.48 8.47
5/29/2022 5:45:00 AM 16.6 61.88 0.396 7.7 11.39 8.49
5/29/2022 6:00:00 AM 16.56 61.808 0.308 7.7 13.48 8.49
5/29/2022 6:15:00 AM 16.52 61.736 0.396 7.7 13.27 8.51
5/29/2022 6:30:00 AM 16.48 61.664 0.396 7.69 12.65 8.53
5/29/2022 6:45:00 AM 16.44 61.592 0.396 7.69 13.29 8.56
5/29/2022 7:00:00 AM 16.41 61.538 0.396 7.7 13.45 8.58
5/29/2022 7:15:00 AM 16.39 61.502 0.396 7.7 11.56 8.62
5/29/2022 7:30:00 AM 16.38 61.484 0.396 7.7 13.24 8.66
5/29/2022 7:45:00 AM 16.37 61.466 0.394 7.7 12.19 8.69
5/29/2022 8:00:00 AM 16.36 61.448 0.396 7.71 11.35 8.73
5/29/2022 8:15:00 AM 16.35 61.43 0.396 7.71 11.99 8.77
5/29/2022 8:30:00 AM 16.32 61.376 0.396 7.71 13.16 8.79
5/29/2022 8:45:00 AM 16.32 61.376 0.396 7.72 12.2 8.82
5/29/2022 9:00:00 AM 16.33 61.394 0.311 7.72 12.79 8.88
5/29/2022 9:15:00 AM 16.35 61.43 0.301 7.73 12.24 8.9
5/29/2022 9:30:00 AM 16.36 61.448 0.397 7.74 11 8.95
5/29/2022 9:45:00 AM 16.39 61.502 0.397 7.74 11.74 8.99
5/29/2022 10:00:00 AM 16.41 61.538 0.397 7.75 9.88 9.03
5/29/2022 10:15:00 AM 16.45 61.61 0.397 7.75 10.85 9.07
5/29/2022 10:30:00 AM 16.5 61.7 0.397 7.76 8.44 9.12
5/29/2022 10:45:00 AM 16.53 61.754 0.397 7.76 11.18 9.15
5/29/2022 11:00:00 AM 16.63 61.934 0.397 7.77 19.16 9.19
5/29/2022 11:15:00 AM 16.75 62.15 0.397 7.78 12.5 9.26
5/29/2022 11:30:00 AM 16.87 62.366 0.397 7.79 12.13 9.32
5/29/2022 11:45:00 AM 17.01 62.618 0.397 7.79 11.94 9.38
5/29/2022 12:00:00 PM 17.07 62.726 0.397 7.8 10.26 9.41
5/29/2022 12:15:00 PM 17.19 62.942 0.397 7.81 10.1 9.43
5/29/2022 12:30:00 PM 17.37 63.266 0.397 7.82 9.65 9.47
5/29/2022 12:45:00 PM 17.53 63.554 0.397 7.82 10.52 9.51
5/29/2022 1:00:00 PM 17.62 63.716 0.397 7.83 10.96 9.53
5/29/2022 1:15:00 PM 17.73 63.914 0.397 7.84 9.32 9.58
5/29/2022 1:30:00 PM 17.89 64.202 0.397 7.85 9.8 9.61
5/29/2022 1:45:00 PM 17.94 64.292 0.395 7.85 12.32 9.58
5/29/2022 2:00:00 PM 17.98 64.364 0.304 7.86 10.56 9.57
5/29/2022 2:15:00 PM 18.05 64.49 0.281 7.86 9.8 9.56
5/29/2022 2:30:00 PM 18.13 64.634 0.398 7.86 9.7 9.54
5/29/2022 2:45:00 PM 18.28 64.904 0.398 7.85 11.48 9.53
5/29/2022 3:00:00 PM 18.4 65.12 0.398 7.86 10.26 9.52
5/29/2022 3:15:00 PM 18.47 65.246 0.398 7.86 9.88 9.49
5/29/2022 3:30:00 PM 18.5 65.3 0.398 7.86 12.68 9.45
5/29/2022 3:45:00 PM 18.5 65.3 0.398 7.86 12.05 9.42
5/29/2022 4:00:00 PM 18.54 65.372 0.398 7.86 13.03 9.39
5/29/2022 4:15:00 PM 18.54 65.372 0.398 7.86 13.29 9.37
5/29/2022 4:30:00 PM 18.54 65.372 0.398 7.86 9.41 9.34
5/29/2022 4:45:00 PM 18.48 65.264 0.398 7.85 7.48 9.26
5/29/2022 5:00:00 PM 18.45 65.21 0.398 7.84 9.63 9.2
5/29/2022 5:15:00 PM 18.44 65.192 0.398 7.84 11.61 9.15
5/29/2022 5:30:00 PM 18.45 65.21 0.301 7.84 9.3 9.11
5/29/2022 5:45:00 PM 18.46 65.228 0.399 7.83 10.78 9.06
5/29/2022 6:00:00 PM 18.46 65.228 0.399 7.83 10.47 9
5/29/2022 6:15:00 PM 18.45 65.21 0.398 7.82 11.45 8.95
5/29/2022 6:30:00 PM 18.47 65.246 0.399 7.82 11.09 8.9
5/29/2022 6:45:00 PM 18.49 65.282 0.399 7.81 9.98 8.85
5/29/2022 7:00:00 PM 18.52 65.336 0.335 7.8 10.55 8.81
5/29/2022 7:15:00 PM 18.54 65.372 0.4 7.8 9.83 8.76
5/29/2022 7:30:00 PM 18.57 65.426 0.4 7.79 24.1 8.71
5/29/2022 7:45:00 PM 18.59 65.462 0.25 7.79 11.07 8.66
5/29/2022 8:00:00 PM 18.59 65.462 0.4 7.78 18.41 8.62
5/29/2022 8:15:00 PM 18.59 65.462 0.4 7.78 9.73 8.58
5/29/2022 8:30:00 PM 18.58 65.444 0.4 7.77 10.78 8.54
5/29/2022 8:45:00 PM 18.56 65.408 0.311 7.76 11.89 8.5
5/29/2022 9:00:00 PM 18.53 65.354 0.4 7.76 11.69 8.46
5/29/2022 9:15:00 PM 18.5 65.3 0.4 7.75 10.63 8.43
5/29/2022 9:30:00 PM 18.48 65.264 0.274 7.75 10.35 8.4
5/29/2022 9:45:00 PM 18.45 65.21 0.4 7.74 11.88 8.38
5/29/2022 10:00:00 PM 18.42 65.156 0.4 7.74 12.07 8.36
5/29/2022 10:15:00 PM 18.38 65.084 0.4 7.74 9.29 8.34
5/29/2022 10:30:00 PM 18.35 65.03 0.401 7.74 16.71 8.32
5/29/2022 10:45:00 PM 18.3 64.94 0.401 7.73 18.53 8.32
5/29/2022 11:00:00 PM 18.26 64.868 0.401 7.73 12.97 8.3
5/29/2022 11:15:00 PM 18.21 64.778 0.401 7.72 15.2 8.29
5/29/2022 11:30:00 PM 18.16 64.688 0.399 7.72 12.33 8.28
5/29/2022 11:45:00 PM 18.12 64.616 0.401 7.72 12.96 8.27
5/30/2022 12:00:00 AM 18.07 64.526 0.401 7.72 30.6 8.27
5/30/2022 12:15:00 AM 18.03 64.454 0.401 7.71 8.89 8.27
5/30/2022 12:30:00 AM 17.98 64.364 0.401 7.71 12.99 8.26
5/30/2022 12:45:00 AM 17.94 64.292 0.401 7.71 8.33 8.26
5/30/2022 1:00:00 AM 17.9 64.22 0.347 7.71 12.48 8.27
5/30/2022 1:15:00 AM 17.86 64.148 0.401 7.7 10.57 8.27
5/30/2022 1:30:00 AM 17.82 64.076 0.401 7.7 11.6 8.27
5/30/2022 1:45:00 AM 17.77 63.986 0.304 7.7 12.67 8.26
5/30/2022 2:00:00 AM 17.72 63.896 0.401 7.7 12.09 8.28
5/30/2022 2:15:00 AM 17.68 63.824 0.258 7.7 13.54 8.29
5/30/2022 2:30:00 AM 17.63 63.734 0.401 7.7 15.98 8.29
5/30/2022 2:45:00 AM 17.59 63.662 0.401 7.7 10.78 8.29
5/30/2022 3:00:00 AM 17.53 63.554 0.401 7.69 14.26 8.3
5/30/2022 3:15:00 AM 17.49 63.482 0.401 7.7 12.7 8.31
5/30/2022 3:30:00 AM 17.43 63.374 0.402 7.69 10.59 8.31
5/30/2022 3:45:00 AM 17.38 63.284 0.402 7.69 16.19 8.32
5/30/2022 4:00:00 AM 17.33 63.194 0.401 7.69 6.53 8.33
5/30/2022 4:15:00 AM 17.28 63.104 0.214 7.69 8.18 8.34
5/30/2022 4:30:00 AM 17.23 63.014 0.402 7.69 14.85 8.36
5/30/2022 4:45:00 AM 17.18 62.924 0.402 7.69 12.16 8.37
5/30/2022 5:00:00 AM 17.13 62.834 0.4 7.69 13.91 8.38
5/30/2022 5:15:00 AM 17.07 62.726 0.31 7.69 13.9 8.38
5/30/2022 5:30:00 AM 17.02 62.636 0.283 7.68 11.78 8.39
5/30/2022 5:45:00 AM 16.97 62.546 0.402 7.69 12.71 8.4
5/30/2022 6:00:00 AM 16.92 62.456 0.402 7.69 11.13 8.42
5/30/2022 6:15:00 AM 16.87 62.366 0.4 7.69 11.59 8.43
5/30/2022 6:30:00 AM 16.82 62.276 0.402 7.69 21.33 8.44
5/30/2022 6:45:00 AM 16.79 62.222 0.402 7.69 12.51 8.46
5/30/2022 7:00:00 AM 16.76 62.168 0.401 7.69 13.13 8.49
5/30/2022 7:15:00 AM 16.74 62.132 0.316 7.69 11.84 8.51
5/30/2022 7:30:00 AM 16.73 62.114 0.402 7.69 11.27 8.53
5/30/2022 7:45:00 AM 16.72 62.096 0.402 7.7 12.51 8.52
5/30/2022 8:00:00 AM 16.72 62.096 0.403 7.7 11.54 8.59
5/30/2022 8:15:00 AM 16.72 62.096 0.403 7.7 12.79 8.6
5/30/2022 8:30:00 AM 16.73 62.114 0.403 7.7 10 8.65
5/30/2022 8:45:00 AM 16.74 62.132 0.403 7.7 11.26 8.67
5/30/2022 9:00:00 AM 16.76 62.168 0.403 7.71 19.75 8.71
5/30/2022 9:15:00 AM 16.78 62.204 0.323 7.71 22.55 8.73
5/30/2022 9:30:00 AM 16.8 62.24 0.297 7.72 16.73 8.79
5/30/2022 9:45:00 AM 16.83 62.294 0.403 7.72 12.82 8.84
5/30/2022 10:00:00 AM 16.89 62.402 0.402 7.73 12.5 8.9
5/30/2022 10:15:00 AM 16.94 62.492 0.402 7.74 11.66 8.94
5/30/2022 10:30:00 AM 17 62.6 0.402 7.74 23.05 8.99
5/30/2022 10:45:00 AM 17.09 62.762 0.402 7.75 12.3 9.05
5/30/2022 11:00:00 AM 17.18 62.924 0.282 7.76 11 9.07
5/30/2022 11:15:00 AM 17.29 63.122 0.402 7.77 15.07 9.12
5/30/2022 11:30:00 AM 17.42 63.356 0.402 7.78 12.73 9.17
5/30/2022 11:45:00 AM 17.58 63.644 0.402 7.78 11.88 9.24
5/30/2022 12:00:00 PM 17.73 63.914 0.402 7.79 12.89 9.27
5/30/2022 12:15:00 PM 17.9 64.22 0.402 7.8 13.68 9.31
5/30/2022 12:30:00 PM 18.08 64.544 0.4 7.81 12.66 9.34
5/30/2022 12:45:00 PM 18.25 64.85 0.402 7.81 10.93 9.38
5/30/2022 1:00:00 PM 18.43 65.174 0.293 7.82 12.46 9.4
5/30/2022 1:15:00 PM 18.61 65.498 0.281 7.83 11.15 9.43
5/30/2022 1:30:00 PM 18.77 65.786 0.402 7.83 11.56 9.45
5/30/2022 1:45:00 PM 18.92 66.056 0.402 7.84 14.39 9.46
5/30/2022 2:00:00 PM 19.05 66.29 0.402 7.85 11.71 9.46
5/30/2022 2:15:00 PM 19.16 66.488 0.402 7.85 11.51 9.45
5/30/2022 2:30:00 PM 19.26 66.668 0.402 7.85 10.7 9.43
5/30/2022 2:45:00 PM 19.35 66.83 0.403 7.86 8.95 9.42
5/30/2022 3:00:00 PM 19.44 66.992 0.402 7.86 10.25 9.39
5/30/2022 3:15:00 PM 19.51 67.118 0.403 7.86 16.26 9.35
5/30/2022 3:30:00 PM 19.57 67.226 0.403 7.86 20.24 9.31
5/30/2022 3:45:00 PM 19.61 67.298 0.311 7.86 18.62 9.27
5/30/2022 4:00:00 PM 19.65 67.37 0.403 7.86 13.27 9.23
5/30/2022 4:15:00 PM 19.67 67.406 0.403 7.85 13.12 9.18
5/30/2022 4:30:00 PM 19.67 67.406 0.28 7.85 17.58 9.13
5/30/2022 4:45:00 PM 19.67 67.406 0.275 7.84 12.6 9.06
5/30/2022 5:00:00 PM 19.69 67.442 0.317 7.84 11.65 9.02
5/30/2022 5:15:00 PM 19.71 67.478 0.237 7.84 31.13 8.96
5/30/2022 5:30:00 PM 19.73 67.514 0.234 7.83 13.86 8.9
5/30/2022 5:45:00 PM 19.74 67.532 0.296 7.83 12.96 8.85
5/30/2022 6:00:00 PM 19.75 67.55 0.274 7.82 14.85 8.79
5/30/2022 6:15:00 PM 19.76 67.568 0.403 7.82 8.89 8.74
5/30/2022 6:30:00 PM 19.77 67.586 0.404 7.81 13.18 8.69
5/30/2022 6:45:00 PM 19.78 67.604 0.239 7.8 12.02 8.63
5/30/2022 7:00:00 PM 19.79 67.622 0.317 7.8 12.24 8.57
5/30/2022 7:15:00 PM 19.79 67.622 0.404 7.8 13.72 8.52
5/30/2022 7:30:00 PM 19.8 67.64 0.404 7.79 11.74 8.47
5/30/2022 7:45:00 PM 19.8 67.64 0.404 7.78 11.97 8.43
5/30/2022 8:00:00 PM 19.8 67.64 0.27 7.77 11.02 8.38
5/30/2022 8:15:00 PM 19.78 67.604 0.196 7.76 11.73 8.34
5/30/2022 8:30:00 PM 19.77 67.586 0.404 7.76 11.76 8.3
5/30/2022 8:45:00 PM 19.75 67.55 0.405 7.75 11.09 8.25
5/30/2022 9:00:00 PM 19.73 67.514 0.405 7.74 11.38 8.21
5/30/2022 9:15:00 PM 19.71 67.478 0.405 7.74 154.08 8.17
5/30/2022 9:30:00 PM 19.68 67.424 0.405 7.73 11.11 8.14
5/30/2022 9:45:00 PM 19.66 67.388 0.405 7.73 10.23 8.11
5/30/2022 10:00:00 PM 19.63 67.334 0.405 7.72 13.76 8.08
5/30/2022 10:15:00 PM 19.6 67.28 0.405 7.72 12.48 8.06
5/30/2022 10:30:00 PM 19.57 67.226 0.286 7.71 12.85 8.05
5/30/2022 10:45:00 PM 19.54 67.172 0.405 7.71 12.3 8.02
5/30/2022 11:00:00 PM 19.51 67.118 0.291 7.71 12.1 7.99
5/30/2022 11:15:00 PM 19.47 67.046 0.405 7.7 14.67 7.99
5/30/2022 11:30:00 PM 19.44 66.992 0.313 7.7 13.9 7.97
5/30/2022 11:45:00 PM 19.4 66.92 0.405 7.7 11.2 7.95
5/31/2022 12:00:00 AM 19.37 66.866 0.406 7.7 19.09 7.92
5/31/2022 12:15:00 AM 19.33 66.794 0.406 7.69 39.12 7.91
5/31/2022 12:30:00 AM 19.3 66.74 0.406 7.69 7.95 7.89
5/31/2022 12:45:00 AM 19.26 66.668 0.406 7.69 20.45 7.88
5/31/2022 1:00:00 AM 19.23 66.614 0.406 7.68 10.37 7.86
5/31/2022 1:15:00 AM 19.19 66.542 0.317 7.68 14.67 7.89
5/31/2022 1:30:00 AM 19.16 66.488 0.264 7.68 13.7 7.88
5/31/2022 1:45:00 AM 19.13 66.434 0.406 7.68 12.61 7.87
5/31/2022 2:00:00 AM 19.09 66.362 0.405 7.68 12.23 7.85
5/31/2022 2:15:00 AM 19.06 66.308 0.406 7.67 13.6 7.84
5/31/2022 2:30:00 AM 19.02 66.236 0.299 7.67 10.4 7.83
5/31/2022 2:45:00 AM 18.98 66.164 0.406 7.67 67.2 7.86
5/31/2022 3:00:00 AM 18.95 66.11 0.471 7.67 15.33 7.88
5/31/2022 3:15:00 AM 18.91 66.038 0.406 7.67 14.06 7.89
5/31/2022 3:30:00 AM 18.87 65.966 0.405 7.67 12.03 7.87
5/31/2022 3:45:00 AM 18.83 65.894 0.322 7.67 12.15 7.9
5/31/2022 4:00:00 AM 18.78 65.804 0.405 7.67 10.45 7.88
5/31/2022 4:15:00 AM 18.74 65.732 0.406 7.67 12.26 7.9
5/31/2022 4:30:00 AM 18.7 65.66 0.406 7.67 14.16 7.92
5/31/2022 4:45:00 AM 18.65 65.57 0.406 7.67 11.47 7.93
5/31/2022 5:00:00 AM 18.61 65.498 0.406 7.67 24.18 7.91
5/31/2022 5:15:00 AM 18.55 65.39 0.406 7.67 38.81 7.95
5/31/2022 5:30:00 AM 18.5 65.3 0.407 7.67 12.45 7.95
5/31/2022 5:45:00 AM 18.46 65.228 0.405 7.67 17.23 7.97
5/31/2022 6:00:00 AM 18.4 65.12 0.407 7.66 13.81 7.99
5/31/2022 6:15:00 AM 18.36 65.048 0.172 7.67 12.05 7.98
5/31/2022 6:30:00 AM 18.31 64.958 0.28 7.67 14 8.01
5/31/2022 6:45:00 AM 18.27 64.886 0.407 7.67 12.99 8.04
5/31/2022 7:00:00 AM 18.24 64.832 0.407 7.67 13.23 8.06
5/31/2022 7:15:00 AM 18.22 64.796 0.407 7.67 28.01 8.06
5/31/2022 7:30:00 AM 18.2 64.76 0.31 7.67 11.49 8.1
5/31/2022 7:45:00 AM 18.19 64.742 0.407 7.67 12.98 8.13
5/31/2022 8:00:00 AM 18.2 64.76 0.284 7.67 9.32 8.16
5/31/2022 8:15:00 AM 18.2 64.76 0.312 7.68 9.52 8.15
5/31/2022 8:30:00 AM 18.21 64.778 0.407 7.68 24.68 8.22
5/31/2022 8:45:00 AM 18.22 64.796 0.305 7.68 12.28 8.24
5/31/2022 9:00:00 AM 18.24 64.832 0.406 7.69 9.4 8.3
5/31/2022 9:15:00 AM 18.27 64.886 0.406 7.7 12.15 8.34
5/31/2022 9:30:00 AM 18.29 64.922 0.406 7.7 12.69 8.39
5/31/2022 9:45:00 AM 18.34 65.012 0.406 7.71 8.95 8.43
5/31/2022 10:00:00 AM 18.39 65.102 0.405 7.72 11.8 8.47
5/31/2022 10:15:00 AM 18.48 65.264 0.299 7.72 12.79 8.51
5/31/2022 10:30:00 AM 18.54 65.372 0.301 7.74 12.13 8.56
5/31/2022 10:45:00 AM 18.62 65.516 0.407 7.74 12 8.6
5/31/2022 11:00:00 AM 18.68 65.624 0.29 7.75 12.32 8.62
5/31/2022 11:15:00 AM 18.8 65.84 0.407 7.75 11.62 8.69
5/31/2022 11:30:00 AM 18.92 66.056 0.407 7.76 10.36 8.74
5/31/2022 11:45:00 AM 19.08 66.344 0.407 7.77 10.6 8.81
5/31/2022 12:00:00 PM 19.24 66.632 0.407 7.77 119.05 8.84
5/31/2022 12:15:00 PM 19.4 66.92 0.406 7.79 12.11 8.89
5/31/2022 12:30:00 PM 19.56 67.208 0.407 7.79 11.33 8.94
5/31/2022 12:45:00 PM 19.75 67.55 0.406 7.81 12.77 8.98
5/31/2022 1:00:00 PM 19.94 67.892 0.406 7.82 11.97 8.99
5/31/2022 1:15:00 PM 20.12 68.216 0.406 7.83 7.86 9.07
5/31/2022 1:30:00 PM 20.28 68.504 0.278 7.84 11.28 9.08
5/31/2022 1:45:00 PM 20.43 68.774 0.294 7.84 16.57 9.09
5/31/2022 2:00:00 PM 20.52 68.936 0.407 7.83 21.85 9.05
5/31/2022 2:15:00 PM 20.61 69.098 0.278 7.85 11.93 9.07
5/31/2022 2:30:00 PM 20.73 69.314 0.303 7.85 11.64 9.05
5/31/2022 2:45:00 PM 20.8 69.44 0.407 7.85 12.17 9.05
5/31/2022 3:00:00 PM 20.84 69.512 0.32 7.85 10.42 9.04
5/31/2022 3:15:00 PM 20.88 69.584 0.223 7.86 7.66 9
5/31/2022 3:30:00 PM 20.88 69.584 0.407 7.85 12.46 8.96
5/31/2022 3:45:00 PM 20.9 69.62 0.263 7.85 11.47 8.89
5/31/2022 4:00:00 PM 20.9 69.62 0.281 7.85 10.91 8.88
5/31/2022 4:15:00 PM 20.9 69.62 0.407 7.85 11.02 8.83
5/31/2022 4:30:00 PM 20.93 69.674 0.407 7.84 11.72 8.77
5/31/2022 4:45:00 PM 20.94 69.692 0.296 7.85 9.57 8.77
5/31/2022 5:00:00 PM 20.96 69.728 0.407 7.85 12.24 8.73
5/31/2022 5:15:00 PM 20.96 69.728 0.407 7.84 11.4 8.66
5/31/2022 5:30:00 PM 20.95 69.71 0.307 7.84 12.79 8.63
5/31/2022 5:45:00 PM 20.95 69.71 0.469 7.83 12.8 8.57
5/31/2022 6:00:00 PM 20.94 69.692 0.262 7.83 13.34 8.53
5/31/2022 6:15:00 PM 20.93 69.674 0.407 7.82 12.79 8.46
5/31/2022 6:30:00 PM 20.92 69.656 0.407 7.82 11.15 8.4
5/31/2022 6:45:00 PM 20.91 69.638 0.407 7.81 10.43 8.35
5/31/2022 7:00:00 PM 20.9 69.62 0.408 7.81 10.58 8.3
5/31/2022 7:15:00 PM 20.89 69.602 0.408 7.8 11.76 8.28
5/31/2022 7:30:00 PM 20.87 69.566 0.408 7.79 66.96 8.23
5/31/2022 7:45:00 PM 20.85 69.53 0.408 7.79 10.55 8.19
5/31/2022 8:00:00 PM 20.83 69.494 0.345 7.78 30.94 8.13
5/31/2022 8:15:00 PM 20.8 69.44 0.308 7.77 12.6 8.1
5/31/2022 8:30:00 PM 20.78 69.404 0.317 7.77 11.89 8.06
5/31/2022 8:45:00 PM 20.75 69.35 0.301 7.76 8.8 8
5/31/2022 9:00:00 PM 20.72 69.296 0.409 7.75 11.39 7.97
5/31/2022 9:15:00 PM 20.68 69.224 0.409 7.74 12.62 7.93
5/31/2022 9:30:00 PM 20.65 69.17 0.409 7.74 19.92 7.9
5/31/2022 9:45:00 PM 20.62 69.116 0.277 7.73 11.87 7.88
5/31/2022 10:00:00 PM 20.58 69.044 0.409 7.73 20.4 7.85
5/31/2022 10:15:00 PM 20.55 68.99 0.41 7.73 10.99 7.84
5/31/2022 10:30:00 PM 20.51 68.918 0.41 7.72 15.01 7.82
5/31/2022 10:45:00 PM 20.48 68.864 0.298 7.72 13.25 7.79
5/31/2022 11:00:00 PM 20.44 68.792 0.41 7.71 17.54 7.78
5/31/2022 11:15:00 PM 20.39 68.702 0.41 7.71 10.73 7.77
5/31/2022 11:30:00 PM 20.35 68.63 0.41 7.71 15.24 7.76
5/31/2022 11:45:00 PM 20.31 68.558 0.411 7.7 12.5 7.74
6/1/2022 12:00:00 AM 20.26 68.468 0.411 7.7 13.33 7.73
6/1/2022 12:15:00 AM 20.22 68.396 0.411 7.7 22.5 7.72
6/1/2022 12:30:00 AM 20.18 68.324 0.411 7.69 61.36 7.72
6/1/2022 12:45:00 AM 20.13 68.234 0.409 7.62 16.93 7.71
6/1/2022 1:00:00 AM 20.09 68.162 0.276 7.65 11.25 7.71
6/1/2022 1:15:00 AM 20.04 68.07201 0.277 7.67 12.84 7.72
6/1/2022 1:30:00 AM 20 68 0.411 7.68 15.36 7.71
6/1/2022 1:45:00 AM 19.96 67.92799 0.306 7.64 45.65 7.71
6/1/2022 2:00:00 AM 19.91 67.838 0.286 7.63 19.2 7.68
6/1/2022 2:15:00 AM 19.87 67.766 0.411 7.67 10.34 7.71
6/1/2022 2:30:00 AM 19.82 67.676 0.41 7.67 14.65 7.72
6/1/2022 2:45:00 AM 19.78 67.604 0.411 7.68 16.33 7.72
6/1/2022 3:00:00 AM 19.73 67.514 0.411 7.67 19.53 7.73
6/1/2022 3:15:00 AM 19.69 67.442 0.41 7.67 18.21 7.72
6/1/2022 3:30:00 AM 19.64 67.352 0.411 7.67 57.28 7.74
6/1/2022 3:45:00 AM 19.59 67.262 0.41 7.67 57.57 7.74
6/1/2022 4:00:00 AM 19.55 67.19 0.41 7.67 14.86 7.75
6/1/2022 4:15:00 AM 19.5 67.1 0.41 7.67 17.7 7.76
6/1/2022 4:30:00 AM 19.46 67.028 0.41 7.67 12.96 7.76
6/1/2022 4:45:00 AM 19.41 66.938 0.408 7.66 18.11 7.77
6/1/2022 5:00:00 AM 19.36 66.848 0.325 7.63 12.98 7.77
6/1/2022 5:15:00 AM 19.32 66.776 0.41 7.67 10.68 7.79
6/1/2022 5:30:00 AM 19.26 66.668 0.41 7.66 26.59 7.79
6/1/2022 5:45:00 AM 19.21 66.578 0.41 7.67 22.99 7.81
6/1/2022 6:00:00 AM 19.16 66.488 0.41 7.67 22.72 7.82
6/1/2022 6:15:00 AM 19.11 66.398 0.41 7.67 15.7 7.83
6/1/2022 6:30:00 AM 19.06 66.308 0.272 7.64 40.6 7.84
6/1/2022 6:45:00 AM 19.02 66.236 0.41 7.67 9.19 7.87
6/1/2022 7:00:00 AM 18.99 66.182 0.41 7.67 25.59 7.89
6/1/2022 7:15:00 AM 18.97 66.146 0.296 7.65 32.34 7.92
6/1/2022 7:30:00 AM 18.95 66.11 0.41 7.67 11.79 7.95
6/1/2022 7:45:00 AM 18.94 66.092 0.41 7.68 18.46 7.97
6/1/2022 8:00:00 AM 18.94 66.092 0.41 7.68 24.91 7.98
6/1/2022 8:15:00 AM 18.94 66.092 0.41 7.68 22.39 8.02
6/1/2022 8:30:00 AM 18.95 66.11 0.41 7.69 12.39 8.06
6/1/2022 8:45:00 AM 18.97 66.146 0.41 7.69 24.52 8.1
6/1/2022 9:00:00 AM 18.98 66.164 0.41 7.7 12.05 8.13
6/1/2022 9:15:00 AM 18.99 66.182 0.268 7.71 14.66 8.19
6/1/2022 9:30:00 AM 19.01 66.218 0.409 7.72 11.31 8.21
6/1/2022 9:45:00 AM 19.05 66.29 0.41 7.72 29.28 8.26
6/1/2022 10:00:00 AM 19.1 66.38 0.41 7.73 12.89 8.33
6/1/2022 10:15:00 AM 19.15 66.47 0.41 7.74 21.41 8.36
6/1/2022 10:30:00 AM 19.23 66.614 0.312 7.72 11.34 8.4
6/1/2022 10:45:00 AM 19.32 66.776 0.29 7.71 12.27 8.44
6/1/2022 11:00:00 AM 19.42 66.956 0.41 7.76 12.65 8.5
6/1/2022 11:15:00 AM 19.53 67.154 0.409 7.77 9.22 8.56
6/1/2022 11:30:00 AM 19.66 67.388 0.411 7.78 23.09 8.63
6/1/2022 11:45:00 AM 19.79 67.622 0.411 7.79 11.21 8.69
6/1/2022 12:00:00 PM 19.94 67.892 0.41 7.8 11.92 8.74
6/1/2022 12:15:00 PM 20.08 68.144 0.41 7.81 58.99 8.81
6/1/2022 12:30:00 PM 20.2 68.36 0.41 7.82 10.63 8.87
6/1/2022 12:45:00 PM 20.34 68.612 0.411 7.82 22.86 8.92
6/1/2022 1:00:00 PM 20.5 68.9 0.41 7.84 11.6 8.97
6/1/2022 1:15:00 PM 20.67 69.206 0.41 7.85 11.08 8.99
6/1/2022 1:30:00 PM 20.66 69.188 0.41 7.85 11.19 8.94
6/1/2022 1:45:00 PM 20.71 69.278 0.41 7.85 31.79 8.91
6/1/2022 2:00:00 PM 20.8 69.44 0.134 7.86 14.98 8.92
6/1/2022 2:15:00 PM 20.79 69.422 0.41 7.85 14.35 8.87
6/1/2022 2:30:00 PM 20.94 69.692 0.274 7.86 15.63 8.9
6/1/2022 2:45:00 PM 21.05 69.89 0.411 7.86 21.24 8.9
6/1/2022 3:00:00 PM 21.14 70.052 0.411 7.86 13.5 8.89
6/1/2022 3:15:00 PM 21.26 70.268 0.411 7.87 15.43 8.91
6/1/2022 3:30:00 PM 21.32 70.376 0.41 7.88 12.69 8.87
6/1/2022 3:45:00 PM 21.37 70.466 0.41 7.88 12.14 8.88
6/1/2022 4:00:00 PM 21.39 70.502 0.411 7.88 12.75 8.85
6/1/2022 4:15:00 PM 21.34 70.412 0.411 7.87 13.86 8.78
6/1/2022 4:30:00 PM 21.29 70.32201 0.411 7.87 12.15 8.66
6/1/2022 4:45:00 PM 21.26 70.268 0.411 7.86 6.14 8.67
6/1/2022 5:00:00 PM 21.23 70.214 0.411 7.86 11.71 8.61
6/1/2022 5:15:00 PM 21.23 70.214 0.411 7.85 14.39 8.56
6/1/2022 5:30:00 PM 21.26 70.268 0.411 7.85 12.98 8.51
6/1/2022 5:45:00 PM 21.28 70.304 0.41 7.84 11.91 8.39
6/1/2022 6:00:00 PM 21.29 70.32201 0.411 7.84 8.3 8.44
6/1/2022 6:15:00 PM 21.3 70.34 0.278 7.83 14.84 8.35
6/1/2022 6:30:00 PM 21.3 70.34 0.323 7.83 11.9 8.19
6/1/2022 6:45:00 PM 21.29 70.32201 0.269 7.83 11.13 8.22
6/1/2022 7:00:00 PM 21.26 70.268 0.412 7.82 11.76 8.19
6/1/2022 7:15:00 PM 21.23 70.214 0.317 7.81 10.55 8.05
6/1/2022 7:30:00 PM 21.2 70.16 0.412 7.8 38.48 8.08
6/1/2022 7:45:00 PM 21.16 70.088 0.413 7.79 15.43 7.99
6/1/2022 8:00:00 PM 21.12 70.016 0.329 7.79 11.07 7.98
6/1/2022 8:15:00 PM 21.08 69.944 0.412 7.78 12.04 7.66
6/1/2022 8:30:00 PM 21.03 69.854 0.413 7.77 11 7.73
6/1/2022 8:45:00 PM 20.99 69.782 0.413 7.76 9.82 7.78
6/1/2022 9:00:00 PM 20.95 69.71 0.413 7.75 10.19 7.79
6/1/2022 9:15:00 PM 20.91 69.638 0.413 7.74 12.65 7.64
6/1/2022 9:30:00 PM 20.86 69.548 0.413 7.74 15.59 7.77
6/1/2022 9:45:00 PM 20.82 69.476 0.411 7.73 16.1 7.64
6/1/2022 10:00:00 PM 20.77 69.386 0.413 7.72 21.36 7.7
6/1/2022 10:15:00 PM 20.73 69.314 0.413 7.72 36.65 7.64
6/1/2022 10:30:00 PM 20.7 69.26 0.413 7.73 13.74 7.71
6/1/2022 10:45:00 PM 20.66 69.188 0.413 7.72 13.7 7.68
6/1/2022 11:00:00 PM 20.61 69.098 0.413 7.72 11.51 7.66
6/1/2022 11:15:00 PM 20.56 69.008 0.413 7.72 14.24 7.63
6/1/2022 11:30:00 PM 20.49 68.882 0.413 7.72 30.21 7.6
6/1/2022 11:45:00 PM 20.42 68.756 0.414 7.73 28.8 7.59
6/2/2022 12:00:00 AM 20.36 68.648 0.414 7.72 15.85 7.54
6/2/2022 12:15:00 AM 20.31 68.558 0.414 7.72 11.31 7.55
6/2/2022 12:30:00 AM 20.25 68.45 0.413 7.73 17.17 7.58
6/2/2022 12:45:00 AM 20.21 68.378 0.413 7.59 12.48 7.58
6/2/2022 1:00:00 AM 20.17 68.306 0.414 7.72 20.39 7.56
6/2/2022 1:15:00 AM 20.14 68.252 0.413 7.72 46.97 7.56
6/2/2022 1:30:00 AM 20.1 68.18 0.413 7.72 20.94 7.57
6/2/2022 1:45:00 AM 20.07 68.126 0.302 7.68 13.32 7.57
6/2/2022 2:00:00 AM 20.03 68.054 0.413 7.72 14.25 7.54
6/2/2022 2:15:00 AM 19.99 67.982 0.413 7.72 12.66 7.56
6/2/2022 2:30:00 AM 19.96 67.92799 0.413 7.72 14.61 7.53
6/2/2022 2:45:00 AM 19.91 67.838 0.413 7.72 12.69 7.58
6/2/2022 3:00:00 AM 19.86 67.748 0.413 7.72 9.67 7.52
6/2/2022 3:15:00 AM 19.82 67.676 0.413 7.72 12.39 7.58
6/2/2022 3:30:00 AM 19.78 67.604 0.413 7.72 13.95 7.6
6/2/2022 3:45:00 AM 19.74 67.532 0.413 7.72 16.88 7.58
6/2/2022 4:00:00 AM 19.7 67.46 0.413 7.72 14.2 7.61
6/2/2022 4:15:00 AM 19.67 67.406 0.413 7.72 17.2 7.59
6/2/2022 4:30:00 AM 19.63 67.334 0.413 7.71 19.68 7.61
6/2/2022 4:45:00 AM 19.6 67.28 0.413 7.72 27.15 7.63
6/2/2022 5:00:00 AM 19.56 67.208 0.413 7.72 14.39 7.6
6/2/2022 5:15:00 AM 19.52 67.136 0.413 7.72 13.02 7.64
6/2/2022 5:30:00 AM 19.48 67.064 0.413 7.72 14.35 7.66
6/2/2022 5:45:00 AM 19.44 66.992 0.413 7.72 12.57 7.66
6/2/2022 6:00:00 AM 19.4 66.92 0.413 7.71 19.97 7.68
6/2/2022 6:15:00 AM 19.36 66.848 0.413 7.72 32.47 7.68
6/2/2022 6:30:00 AM 19.33 66.794 0.413 7.71 13.37 7.7
6/2/2022 6:45:00 AM 19.3 66.74 0.413 7.72 13.2 7.73
6/2/2022 7:00:00 AM 19.27 66.686 0.413 7.72 12.27 7.75
6/2/2022 7:15:00 AM 19.26 66.668 0.413 7.72 10.8 7.76
6/2/2022 7:30:00 AM 19.23 66.614 0.413 7.72 13.06 7.81
6/2/2022 7:45:00 AM 19.21 66.578 0.413 7.73 13.11 7.84
6/2/2022 8:00:00 AM 19.19 66.542 0.413 7.73 12.24 7.88
6/2/2022 8:15:00 AM 19.2 66.56 0.413 7.74 93.62 7.92
6/2/2022 8:30:00 AM 19.2 66.56 0.413 7.74 11.53 7.96
6/2/2022 8:45:00 AM 19.22 66.596 0.413 7.74 36.01 8
6/2/2022 9:00:00 AM 19.23 66.614 0.413 7.75 13.4 8.07
6/2/2022 9:15:00 AM 19.26 66.668 0.413 7.75 16.22 8.1
6/2/2022 9:30:00 AM 19.31 66.758 0.413 7.76 13.65 8.17
6/2/2022 9:45:00 AM 19.34 66.812 0.413 7.77 11.19 8.22
6/2/2022 10:00:00 AM 19.36 66.848 0.413 7.77 15.1 8.25
6/2/2022 10:15:00 AM 19.37 66.866 0.413 7.78 14.38 8.29
6/2/2022 10:30:00 AM 19.44 66.992 0.413 7.78 12.15 8.37
6/2/2022 10:45:00 AM 19.5 67.1 0.413 7.79 14.91 8.42
6/2/2022 11:00:00 AM 19.59 67.262 0.413 7.8 13.4 8.46
6/2/2022 11:15:00 AM 19.67 67.406 0.413 7.8 18.68 8.5
6/2/2022 11:30:00 AM 19.71 67.478 0.413 7.81 15.29 8.56
6/2/2022 11:45:00 AM 19.76 67.568 0.412 7.82 12.71 8.6
6/2/2022 12:00:00 PM 19.88 67.784 0.412 7.83 10.96 8.66
6/2/2022 12:15:00 PM 20.02 68.036 0.412 7.83 12.86 8.71
6/2/2022 12:30:00 PM 20.1 68.18 0.412 7.84 21.43 8.75
6/2/2022 12:45:00 PM 20.12 68.216 0.412 7.85 23.02 8.76
6/2/2022 1:00:00 PM 20.15 68.27 0.412 7.85 18.06 8.8
6/2/2022 1:15:00 PM 20.24 68.432 0.412 7.86 29.4 8.85
6/2/2022 1:30:00 PM 20.21 68.378 0.412 7.86 76.23 8.82
6/2/2022 1:45:00 PM 20.25 68.45 0.412 7.86 13.23 8.82
6/2/2022 2:00:00 PM 20.25 68.45 0.412 7.87 14.87 8.81
6/2/2022 2:15:00 PM 20.3 68.54 0.411 7.87 11.5 8.84
6/2/2022 2:30:00 PM 20.38 68.684 0.412 7.88 70.79 8.86
6/2/2022 2:45:00 PM 20.42 68.756 0.412 7.88 10.89 8.87
6/2/2022 3:00:00 PM 20.46 68.828 0.411 7.88 10.83 8.85
6/2/2022 3:15:00 PM 20.52 68.936 0.331 7.88 11.87 8.84
6/2/2022 3:30:00 PM 20.51 68.918 0.411 7.88 10.92 8.81
6/2/2022 3:45:00 PM 20.56 69.008 0.412 7.89 11.86 8.73
6/2/2022 4:00:00 PM 20.55 68.99 0.412 7.88 8.56 8.76
6/2/2022 4:15:00 PM 20.55 68.99 0.412 7.88 10.24 8.72
6/2/2022 4:30:00 PM 20.51 68.918 0.412 7.87 11.61 8.65
6/2/2022 4:45:00 PM 20.46 68.828 0.412 7.86 5.51 8.57
6/2/2022 5:00:00 PM 20.38 68.684 0.411 7.85 12.35 8.48
6/2/2022 5:15:00 PM 20.31 68.558 0.411 7.85 10.33 8.41
6/2/2022 5:30:00 PM 20.26 68.468 0.411 7.84 11.39 8.36
6/2/2022 5:45:00 PM 20.22 68.396 0.411 7.84 11.68 8.32
6/2/2022 6:00:00 PM 20.2 68.36 0.411 7.83 12.09 8.28
6/2/2022 6:15:00 PM 20.17 68.306 0.411 7.83 13.14 8.26
6/2/2022 6:30:00 PM 20.15 68.27 0.411 7.83 11.08 8.23
6/2/2022 6:45:00 PM 20.14 68.252 0.411 7.82 10.48 8.23
6/2/2022 7:00:00 PM 20.13 68.234 0.411 7.82 7.07 8.21
6/2/2022 7:15:00 PM 20.11 68.198 0.411 7.82 12.81 8.18
6/2/2022 7:30:00 PM 20.09 68.162 0.411 7.82 15.76 8.17
6/2/2022 7:45:00 PM 20.05 68.09 0.411 7.81 11.77 8.14
6/2/2022 8:00:00 PM 20.02 68.036 0.411 7.8 11.3 8.09
6/2/2022 8:15:00 PM 19.97 67.946 0.411 7.79 11.08 8.05
6/2/2022 8:30:00 PM 19.93 67.874 0.41 7.78 13.03 8
6/2/2022 8:45:00 PM 19.89 67.802 0.41 7.78 115.73 7.95
6/2/2022 9:00:00 PM 19.84 67.712 0.41 7.78 10.36 7.92
6/2/2022 9:15:00 PM 19.81 67.658 0.41 7.77 27.82 7.89
6/2/2022 9:30:00 PM 19.78 67.604 0.409 7.77 6.74 7.87
6/2/2022 9:45:00 PM 19.75 67.55 0.408 7.76 29.17 7.86
6/2/2022 10:00:00 PM 19.72 67.496 0.408 7.76 19.96 7.85
6/2/2022 10:15:00 PM 19.7 67.46 0.408 7.75 8.97 7.84
6/2/2022 10:30:00 PM 19.68 67.424 0.407 7.75 11.9 7.83
6/2/2022 10:45:00 PM 19.66 67.388 0.407 7.75 19.37 7.82
6/2/2022 11:00:00 PM 19.64 67.352 0.407 7.75 28.9 7.79
6/2/2022 11:15:00 PM 19.61 67.298 0.271 7.74 76.88 7.78
6/2/2022 11:30:00 PM 19.59 67.262 0.406 7.74 14.27 7.79
6/2/2022 11:45:00 PM 19.56 67.208 0.406 7.74 7.86 7.79
6/3/2022 12:00:00 AM 19.53 67.154 0.406 7.74 13.17 7.78
6/3/2022 12:15:00 AM 19.5 67.1 0.284 7.73 12.72 7.77
6/3/2022 12:30:00 AM 19.46 67.028 0.405 7.73 23.22 7.77
6/3/2022 12:45:00 AM 19.42 66.956 0.405 7.73 14.28 7.76
6/3/2022 1:00:00 AM 19.38 66.884 0.404 7.73 32.23 7.76
6/3/2022 1:15:00 AM 19.35 66.83 0.404 7.72 19.86 7.7
6/3/2022 1:30:00 AM 19.31 66.758 0.403 7.72 792.5 7.73
6/3/2022 1:45:00 AM 19.26 66.668 0.403 7.72 13.01 7.74
6/3/2022 2:00:00 AM 19.22 66.596 0.403 7.72 13.82 7.77
6/3/2022 2:15:00 AM 19.18 66.524 0.31 7.71 58 7.77
6/3/2022 2:30:00 AM 19.14 66.452 0.402 7.71 46.05 7.77
6/3/2022 2:45:00 AM 19.09 66.362 0.402 7.72 18.53 7.76
6/3/2022 3:00:00 AM 19.05 66.29 0.402 7.71 14.54 7.78
6/3/2022 3:15:00 AM 19.01 66.218 0.401 7.71 16.09 7.75
6/3/2022 3:30:00 AM 18.98 66.164 0.314 7.71 17.17 7.78
6/3/2022 3:45:00 AM 18.94 66.092 0.401 7.7 29.54 7.79
6/3/2022 4:00:00 AM 18.91 66.038 0.401 7.7 6.67 7.79
6/3/2022 4:15:00 AM 18.87 65.966 0.279 7.71 16.13 7.79
6/3/2022 4:30:00 AM 18.84 65.912 0.402 7.7 22.91 7.78
6/3/2022 4:45:00 AM 18.82 65.876 0.402 7.71 52.27 7.81
6/3/2022 5:00:00 AM 18.78 65.804 0.402 7.71 23.7 7.81
6/3/2022 5:15:00 AM 18.74 65.732 0.402 7.71 14.26 7.83
6/3/2022 5:30:00 AM 18.7 65.66 0.402 7.72 57.53 7.78
6/3/2022 5:45:00 AM 18.66 65.588 0.402 7.72 26.29 7.81
6/3/2022 6:00:00 AM 18.61 65.498 0.402 7.72 18.38 7.82
6/3/2022 6:15:00 AM 18.56 65.408 0.402 7.72 23.01 7.86
6/3/2022 6:30:00 AM 18.51 65.318 0.402 7.72 67.63 7.88
6/3/2022 6:45:00 AM 18.47 65.246 0.403 7.73 32.02 7.91
6/3/2022 7:00:00 AM 18.43 65.174 0.402 7.73 28.06 7.93
6/3/2022 7:15:00 AM 18.4 65.12 0.401 7.73 12.15 7.94
6/3/2022 7:30:00 AM 18.37 65.066 0.402 7.73 23.51 7.98
6/3/2022 7:45:00 AM 18.34 65.012 0.295 7.74 17.96 7.99
6/3/2022 8:00:00 AM 18.31 64.958 0.402 7.74 20.87 8.02
6/3/2022 8:15:00 AM 18.3 64.94 0.402 7.74 16.9 8.03
6/3/2022 8:30:00 AM 18.29 64.922 0.288 7.7 15.8 8.08
6/3/2022 8:45:00 AM 18.3 64.94 0.401 7.75 12.1 8.13
6/3/2022 9:00:00 AM 18.29 64.922 0.402 7.75 19.19 8.16
6/3/2022 9:15:00 AM 18.27 64.886 0.402 7.76 17.88 8.19
6/3/2022 9:30:00 AM 18.26 64.868 0.402 7.75 12.88 8.24
6/3/2022 9:45:00 AM 18.27 64.886 0.402 7.76 28.68 8.22
6/3/2022 10:00:00 AM 18.27 64.886 0.402 7.77 11.11 8.3
6/3/2022 10:15:00 AM 18.3 64.94 0.401 7.78 50.17 8.36
6/3/2022 10:30:00 AM 18.35 65.03 0.403 7.78 45.58 8.42
6/3/2022 10:45:00 AM 18.4 65.12 0.403 7.79 20.83 8.44
6/3/2022 11:00:00 AM 18.46 65.228 0.403 7.79 17.68 8.53
6/3/2022 11:15:00 AM 18.53 65.354 0.403 7.81 13.32 8.6
6/3/2022 11:30:00 AM 18.6 65.48 0.403 7.82 13.14 8.66
6/3/2022 11:45:00 AM 18.67 65.606 0.403 7.83 10.68 8.73
6/3/2022 12:00:00 PM 18.77 65.786 0.403 7.84 10.58 8.81
6/3/2022 12:15:00 PM 18.89 66.002 0.404 7.85 20.32 8.89
6/3/2022 12:30:00 PM 19.04 66.272 0.404 7.85 12.25 8.94
6/3/2022 12:45:00 PM 19.2 66.56 0.404 7.86 13.06 8.98
6/3/2022 1:00:00 PM 19.35 66.83 0.404 7.87 15.75 9.01
6/3/2022 1:15:00 PM 19.49 67.082 0.285 7.88 11.85 9.03
6/3/2022 1:30:00 PM 19.63 67.334 0.405 7.89 11.33 9.08
6/3/2022 1:45:00 PM 19.71 67.478 0.405 7.89 19.66 9.08
6/3/2022 2:00:00 PM 19.76 67.568 0.405 7.9 12.65 9.04
6/3/2022 2:15:00 PM 19.84 67.712 0.405 7.9 54.74 9.09
6/3/2022 2:30:00 PM 19.92 67.856 0.316 7.9 9.74 9.07
6/3/2022 2:45:00 PM 20 68 0.334 7.91 11.86 9.07
6/3/2022 3:00:00 PM 19.95 67.91 0.323 7.91 12.02 9.06
6/3/2022 3:15:00 PM 19.96 67.92799 0.406 7.91 12.22 9.04
6/3/2022 3:30:00 PM 19.94 67.892 0.406 7.91 12.75 8.97
6/3/2022 3:45:00 PM 19.93 67.874 0.327 7.9 10.34 8.99
6/3/2022 4:00:00 PM 19.91 67.838 0.406 7.9 11.19 8.99
6/3/2022 4:15:00 PM 19.88 67.784 0.406 7.9 13.25 8.98
6/3/2022 4:30:00 PM 19.88 67.784 0.406 7.9 15.58 8.94
6/3/2022 4:45:00 PM 19.86 67.748 0.406 7.9 11.99 8.91
6/3/2022 5:00:00 PM 19.85 67.73 0.406 7.9 16.55 8.83
6/3/2022 5:15:00 PM 19.86 67.748 0.407 7.9 11.51 8.81
6/3/2022 5:30:00 PM 19.84 67.712 0.407 7.89 11.22 8.76
6/3/2022 5:45:00 PM 19.82 67.676 0.407 7.89 12.88 8.7
6/3/2022 6:00:00 PM 19.82 67.676 0.407 7.88 10.91 8.64
6/3/2022 6:15:00 PM 19.79 67.622 0.407 7.87 7.59 8.59
6/3/2022 6:30:00 PM 19.77 67.586 0.407 7.87 19.08 8.54
6/3/2022 6:45:00 PM 19.75 67.55 0.407 7.86 20.08 8.52
6/3/2022 7:00:00 PM 19.73 67.514 0.407 7.86 20.43 8.48
6/3/2022 7:15:00 PM 19.72 67.496 0.408 7.86 11.36 8.45
6/3/2022 7:30:00 PM 19.69 67.442 0.28 7.85 10.78 8.4
6/3/2022 7:45:00 PM 19.66 67.388 0.408 7.84 14.05 8.35
6/3/2022 8:00:00 PM 19.62 67.316 0.408 7.84 9.42 8.35
6/3/2022 8:15:00 PM 19.58 67.244 0.408 7.83 11.39 8.25
6/3/2022 8:30:00 PM 19.54 67.172 0.282 7.83 13.43 8.25
6/3/2022 8:45:00 PM 19.49 67.082 0.32 7.82 28.2 8.2
6/3/2022 9:00:00 PM 19.43 66.974 0.409 7.81 13.75 8.16
6/3/2022 9:15:00 PM 19.37 66.866 0.409 7.8 12.66 8.13
6/3/2022 9:30:00 PM 19.32 66.776 0.409 7.8 12.75 8.09
6/3/2022 9:45:00 PM 19.25 66.65 0.409 7.8 15.24 8.09
6/3/2022 10:00:00 PM 19.2 66.56 0.409 7.79 36.11 8.07
6/3/2022 10:15:00 PM 19.14 66.452 0.41 7.78 12.8 8.05
6/3/2022 10:30:00 PM 19.08 66.344 0.328 7.78 24.84 8.03
6/3/2022 10:45:00 PM 19.02 66.236 0.41 7.78 45.35 8.02
6/3/2022 11:00:00 PM 18.96 66.128 0.411 7.77 34.17 8.01
6/3/2022 11:15:00 PM 18.89 66.002 0.411 7.78 13.08 8
6/3/2022 11:30:00 PM 18.84 65.912 0.411 7.77 23.7 7.98
6/3/2022 11:45:00 PM 18.77 65.786 0.411 7.77 13.87 7.97
6/4/2022 12:00:00 AM 18.71 65.67799 0.412 7.77 44.86 7.97
6/4/2022 12:15:00 AM 18.65 65.57 0.412 7.76 8.37 7.97
6/4/2022 12:30:00 AM 18.58 65.444 0.412 7.76 36.83 7.96
6/4/2022 12:45:00 AM 18.52 65.336 0.412 7.76 44.88 7.96
6/4/2022 1:00:00 AM 18.45 65.21 0.412 7.75 45.18 7.96
6/4/2022 1:15:00 AM 18.39 65.102 0.413 7.75 38.97 7.96
6/4/2022 1:30:00 AM 18.33 64.994 0.412 7.75 13.52 7.97
6/4/2022 1:45:00 AM 18.26 64.868 0.413 7.75 5.26 7.97
6/4/2022 2:00:00 AM 18.2 64.76 0.413 7.74 18.16 7.97
6/4/2022 2:15:00 AM 18.14 64.652 0.412 7.75 29.15 7.95
6/4/2022 2:30:00 AM 18.08 64.544 0.307 7.74 32.08 7.96
6/4/2022 2:45:00 AM 18.01 64.418 0.413 7.74 9.13 7.98
6/4/2022 3:00:00 AM 17.95 64.31 0.414 7.74 7.87 7.99
6/4/2022 3:15:00 AM 17.88 64.184 0.414 7.74 9.4 8.01
6/4/2022 3:30:00 AM 17.82 64.076 0.414 7.75 11.9 8.01
6/4/2022 3:45:00 AM 17.74 63.932 0.414 7.74 21.64 8.02
6/4/2022 4:00:00 AM 17.68 63.824 0.414 7.74 31.63 8.03
6/4/2022 4:15:00 AM 17.61 63.698 0.414 7.74 18.61 8.04
6/4/2022 4:30:00 AM 17.54 63.572 0.414 7.74 21.71 8.04
6/4/2022 4:45:00 AM 17.48 63.464 0.415 7.74 15.41 8.06
6/4/2022 5:00:00 AM 17.41 63.338 0.415 7.74 10.86 8.06
6/4/2022 5:15:00 AM 17.35 63.23 0.415 7.74 5.73 8.08
6/4/2022 5:30:00 AM 17.29 63.122 0.415 7.74 61.86 8.09
6/4/2022 5:45:00 AM 17.22 62.996 0.415 7.74 12.69 8.1
6/4/2022 6:00:00 AM 17.15 62.87 0.416 7.74 15.37 8.12
6/4/2022 6:15:00 AM 17.09 62.762 0.416 7.74 10.84 8.14
6/4/2022 6:30:00 AM 17.03 62.654 0.416 7.74 13.13 8.15
6/4/2022 6:45:00 AM 16.98 62.564 0.416 7.74 8.29 8.17
6/4/2022 7:00:00 AM 16.95 62.51 0.416 7.74 13.31 8.19
6/4/2022 7:15:00 AM 16.92 62.456 0.417 7.74 11.73 8.21
6/4/2022 7:30:00 AM 16.91 62.438 0.417 7.74 11.03 8.24
6/4/2022 7:45:00 AM 16.91 62.438 0.417 7.74 23.86 8.26
6/4/2022 8:00:00 AM 16.92 62.456 0.417 7.75 11.29 8.29
6/4/2022 8:15:00 AM 16.93 62.474 0.417 7.76 10.37 8.32
6/4/2022 8:30:00 AM 16.95 62.51 0.417 7.76 11.96 8.36
6/4/2022 8:45:00 AM 16.97 62.546 0.178 7.76 42.68 8.38
6/4/2022 9:00:00 AM 16.99 62.582 0.418 7.77 33.82 8.43
6/4/2022 9:15:00 AM 17.01 62.618 0.417 7.76 16.51 8.47
6/4/2022 9:30:00 AM 17.04 62.672 0.418 7.77 18.32 8.5
6/4/2022 9:45:00 AM 17.07 62.726 0.418 7.77 12.37 8.55
6/4/2022 10:00:00 AM 17.12 62.816 0.418 7.78 10.9 8.59
6/4/2022 10:15:00 AM 17.16 62.888 0.418 7.79 11.28 8.63
6/4/2022 10:30:00 AM 17.23 63.014 0.418 7.79 9.62 8.67
6/4/2022 10:45:00 AM 17.31 63.158 0.298 7.8 8.09 8.71
6/4/2022 11:00:00 AM 17.4 63.32 0.418 7.8 9.13 8.76
6/4/2022 11:15:00 AM 17.51 63.518 0.418 7.81 9.23 8.82
6/4/2022 11:30:00 AM 17.64 63.752 0.417 7.82 9.88 8.87
6/4/2022 11:45:00 AM 17.79 64.022 0.418 7.83 11.08 8.92
6/4/2022 12:00:00 PM 17.97 64.346 0.417 7.83 12.42 8.97
6/4/2022 12:15:00 PM 18.16 64.688 0.417 7.84 10.25 9.03
6/4/2022 12:30:00 PM 18.34 65.012 0.417 7.85 10.68 9.09
6/4/2022 12:45:00 PM 18.52 65.336 0.417 7.87 10.48 9.13
6/4/2022 1:00:00 PM 18.7 65.66 0.417 7.87 9.06 9.17
6/4/2022 1:15:00 PM 18.88 65.984 0.417 7.88 9.56 9.21
6/4/2022 1:30:00 PM 19.03 66.254 0.273 7.89 8.4 9.24
6/4/2022 1:45:00 PM 19.16 66.488 0.417 7.9 8.5 9.25
6/4/2022 2:00:00 PM 19.28 66.704 0.417 7.9 9.79 9.25
6/4/2022 2:15:00 PM 19.39 66.902 0.316 7.9 10.57 9.25
6/4/2022 2:30:00 PM 19.48 67.064 0.417 7.91 9.88 9.24
6/4/2022 2:45:00 PM 19.57 67.226 0.417 7.91 10.11 9.23
6/4/2022 3:00:00 PM 19.63 67.334 0.29 7.92 9.39 9.21
6/4/2022 3:15:00 PM 19.66 67.388 0.417 7.91 14 9.19
6/4/2022 3:30:00 PM 19.69 67.442 0.417 7.91 19.06 9.15
6/4/2022 3:45:00 PM 19.68 67.424 0.417 7.91 10.23 9.11
6/4/2022 4:00:00 PM 19.67 67.406 0.417 7.91 10.28 9.07
6/4/2022 4:15:00 PM 19.64 67.352 0.417 7.91 12.18 8.98
6/4/2022 4:30:00 PM 19.6 67.28 0.356 7.9 13.04 8.93
6/4/2022 4:45:00 PM 19.58 67.244 0.417 7.89 12.28 8.89
6/4/2022 5:00:00 PM 19.55 67.19 0.417 7.89 11.47 8.84
6/4/2022 5:15:00 PM 19.53 67.154 0.417 7.88 11.6 8.77
6/4/2022 5:30:00 PM 19.51 67.118 0.417 7.88 12.04 8.73
6/4/2022 5:45:00 PM 19.49 67.082 0.418 7.87 13.03 8.68
6/4/2022 6:00:00 PM 19.46 67.028 0.418 7.87 11.05 8.63
6/4/2022 6:15:00 PM 19.44 66.992 0.312 7.85 11.28 8.58
6/4/2022 6:30:00 PM 19.43 66.974 0.316 7.85 12.77 8.53
6/4/2022 6:45:00 PM 19.41 66.938 0.312 7.85 10.08 8.48
6/4/2022 7:00:00 PM 19.38 66.884 0.418 7.84 12.77 8.46
6/4/2022 7:15:00 PM 19.36 66.848 0.314 7.84 7 8.42
6/4/2022 7:30:00 PM 19.33 66.794 0.216 7.84 35.79 8.36
6/4/2022 7:45:00 PM 19.3 66.74 0.418 7.83 12.43 8.33
6/4/2022 8:00:00 PM 19.27 66.686 0.419 7.82 9.81 8.33
6/4/2022 8:15:00 PM 19.23 66.614 0.419 7.82 10.86 8.29
6/4/2022 8:30:00 PM 19.18 66.524 0.419 7.81 83.99 8.26
6/4/2022 8:45:00 PM 19.12 66.416 0.419 7.81 13.6 8.24
6/4/2022 9:00:00 PM 19.05 66.29 0.419 7.81 18.23 8.2
6/4/2022 9:15:00 PM 18.98 66.164 0.419 7.81 131.25 8.19
6/4/2022 9:30:00 PM 18.9 66.02 0.338 7.8 10.26 8.15
6/4/2022 9:45:00 PM 18.82 65.876 0.419 7.8 17.33 8.14
6/4/2022 10:00:00 PM 18.75 65.75 0.419 7.79 34.48 8.12
6/4/2022 10:15:00 PM 18.69 65.642 0.419 7.8 29.97 8.11
6/4/2022 10:30:00 PM 18.62 65.516 0.369 7.79 9.86 8.1
6/4/2022 10:45:00 PM 18.55 65.39 0.42 7.79 11.65 8.06
6/4/2022 11:00:00 PM 18.49 65.282 0.42 7.79 14 8.08
6/4/2022 11:15:00 PM 18.42 65.156 0.215 7.78 12.83 8.08
6/4/2022 11:30:00 PM 18.35 65.03 0.42 7.78 44.05 8.06
6/4/2022 11:45:00 PM 18.28 64.904 0.42 7.78 26.1 8.06
6/5/2022 12:00:00 AM 18.21 64.778 0.42 7.77 43.52 8.06
6/5/2022 12:15:00 AM 18.14 64.652 0.42 7.77 12.82 8.05
6/5/2022 12:30:00 AM 18.07 64.526 0.42 7.77 11.54 8.05
6/5/2022 12:45:00 AM 18 64.4 0.421 7.76 32.45 8.04
6/5/2022 1:00:00 AM 17.92 64.256 0.329 7.75 21.78 8.03
6/5/2022 1:15:00 AM 17.85 64.13 0.421 7.76 11.89 8.04
6/5/2022 1:30:00 AM 17.78 64.004 0.42 7.76 12.83 8.06
6/5/2022 1:45:00 AM 17.7 63.86 0.421 7.75 43.59 8.07
6/5/2022 2:00:00 AM 17.63 63.734 0.281 7.67 26.17 8.05
6/5/2022 2:15:00 AM 17.55 63.59 0.421 7.75 19.18 8.06
6/5/2022 2:30:00 AM 17.48 63.464 0.421 7.75 12.17 8.07
6/5/2022 2:45:00 AM 17.41 63.338 0.281 7.75 12.23 8.09
6/5/2022 3:00:00 AM 17.34 63.212 0.42 7.75 25.78 8.04
6/5/2022 3:15:00 AM 17.27 63.086 0.312 7.75 12.01 8.13
6/5/2022 3:30:00 AM 17.2 62.96 0.419 7.72 12.52 8.12
6/5/2022 3:45:00 AM 17.13 62.834 0.421 7.75 29.43 8.15
6/5/2022 4:00:00 AM 17.06 62.708 0.421 7.75 12.7 8.16
6/5/2022 4:15:00 AM 16.99 62.582 0.421 7.75 11.69 8.17
6/5/2022 4:30:00 AM 16.92 62.456 0.421 7.75 12.17 8.19
6/5/2022 4:45:00 AM 16.84 62.312 0.421 7.75 12.34 8.19
6/5/2022 5:00:00 AM 16.76 62.168 0.421 7.75 15.29 8.21
6/5/2022 5:15:00 AM 16.69 62.042 0.421 7.75 15.39 8.22
6/5/2022 5:30:00 AM 16.61 61.898 0.421 7.74 45.92 8.24
6/5/2022 5:45:00 AM 16.54 61.772 0.318 7.75 9.73 8.27
6/5/2022 6:00:00 AM 16.46 61.628 0.421 7.76 24.47 8.28
6/5/2022 6:15:00 AM 16.39 61.502 0.349 7.74 11.97 8.3
6/5/2022 6:30:00 AM 16.33 61.394 0.421 7.75 9.85 8.33
6/5/2022 6:45:00 AM 16.28 61.304 0.421 7.75 10.2 8.35
6/5/2022 7:00:00 AM 16.24 61.232 0.42 7.75 11.12 8.38
6/5/2022 7:15:00 AM 16.21 61.178 0.42 7.76 11.35 8.4
6/5/2022 7:30:00 AM 16.19 61.142 0.42 7.76 18 8.43
6/5/2022 7:45:00 AM 16.18 61.124 0.42 7.76 9.6 8.42
6/5/2022 8:00:00 AM 16.19 61.142 0.303 7.75 12.75 8.47
6/5/2022 8:15:00 AM 16.2 61.16 0.42 7.76 9.32 8.51
6/5/2022 8:30:00 AM 16.22 61.196 0.42 7.77 180.87 8.49
6/5/2022 8:45:00 AM 16.24 61.232 0.33 7.78 11.82 8.55
6/5/2022 9:00:00 AM 16.25 61.25 0.42 7.78 9.06 8.48
6/5/2022 9:15:00 AM 16.25 61.25 0.42 7.79 8.13 8.67
6/5/2022 9:30:00 AM 16.26 61.268 0.418 7.79 8.56 8.75
6/5/2022 9:45:00 AM 16.27 61.286 0.42 7.8 11.75 8.78
6/5/2022 10:00:00 AM 16.29 61.322 0.42 7.81 9.88 8.75
6/5/2022 10:15:00 AM 16.33 61.394 0.42 7.81 10.22 8.86
6/5/2022 10:30:00 AM 16.39 61.502 0.42 7.82 9.41 8.93
6/5/2022 10:45:00 AM 16.46 61.628 0.42 7.82 48.84 8.95
6/5/2022 11:00:00 AM 16.55 61.79 0.42 7.83 12.15 9.01
6/5/2022 11:15:00 AM 16.65 61.97 0.42 7.83 48.83 9.07
6/5/2022 11:30:00 AM 16.78 62.204 0.419 7.83 11.36 9.14
6/5/2022 11:45:00 AM 16.92 62.456 0.419 7.85 10.58 9.17
6/5/2022 12:00:00 PM 17.07 62.726 0.419 7.85 10.98 9.25
6/5/2022 12:15:00 PM 17.23 63.014 0.419 7.86 4.63 9.31
6/5/2022 12:30:00 PM 17.41 63.338 0.419 7.87 44.01 9.38
6/5/2022 12:45:00 PM 17.58 63.644 0.419 7.88 140.03 9.4
6/5/2022 1:00:00 PM 17.75 63.95 0.311 7.89 10.15 9.47
6/5/2022 1:15:00 PM 17.88 64.184 0.419 7.9 7.37 9.51
6/5/2022 1:30:00 PM 18.05 64.49 0.338 7.91 15.41 9.53
6/5/2022 1:45:00 PM 18.17 64.706 0.285 7.92 144.42 9.55
6/5/2022 2:00:00 PM 18.31 64.958 0.305 7.92 12.66 9.55
6/5/2022 2:15:00 PM 18.43 65.174 0.419 7.93 19.44 9.57
6/5/2022 2:30:00 PM 18.54 65.372 0.419 7.93 10.13 9.55
6/5/2022 2:45:00 PM 18.6 65.48 0.419 7.93 31.3 9.53
6/5/2022 3:00:00 PM 18.67 65.606 0.419 7.93 9.4 9.51
6/5/2022 3:15:00 PM 18.7 65.66 0.419 7.93 25.13 9.46
6/5/2022 3:30:00 PM 18.73 65.714 0.419 7.93 14.65 9.38
6/5/2022 3:45:00 PM 18.73 65.714 0.419 7.93 9.83 9.44
6/5/2022 4:00:00 PM 18.72 65.696 0.293 7.92 10.58 9.38
6/5/2022 4:15:00 PM 18.7 65.66 0.224 7.91 17.08 9.2
6/5/2022 4:30:00 PM 18.67 65.606 0.33 7.91 26.82 9.24
6/5/2022 4:45:00 PM 18.65 65.57 0.419 7.91 13.01 9.18
6/5/2022 5:00:00 PM 18.62 65.516 0.204 7.86 33.67 9.14
6/5/2022 5:15:00 PM 18.6 65.48 0.419 7.9 11.91 9.01
6/5/2022 5:30:00 PM 18.59 65.462 0.419 7.89 13.1 8.97
6/5/2022 5:45:00 PM 18.56 65.408 0.419 7.89 7.81 8.96
6/5/2022 6:00:00 PM 18.55 65.39 0.307 7.88 53.61 8.92
6/5/2022 6:15:00 PM 18.53 65.354 0.42 7.89 38.26 8.73
6/5/2022 6:30:00 PM 18.52 65.336 0.42 7.88 7.61 8.46
6/5/2022 6:45:00 PM 18.51 65.318 0.42 7.88 10.98 8.75
6/5/2022 7:00:00 PM 18.5 65.3 0.42 7.87 8.57 8.72
6/5/2022 7:15:00 PM 18.48 65.264 0.42 7.87 27.65 8.68
6/5/2022 7:30:00 PM 18.47 65.246 0.42 7.87 32.16 8.52
6/5/2022 7:45:00 PM 18.44 65.192 0.421 7.86 10.56 8.6
6/5/2022 8:00:00 PM 18.4 65.12 0.357 7.86 10.39 8.57
6/5/2022 8:15:00 PM 18.36 65.048 0.421 7.85 11.11 8.52
6/5/2022 8:30:00 PM 18.3 64.94 0.345 7.84 9.71 8.52
6/5/2022 8:45:00 PM 18.24 64.832 0.328 7.83 12.07 8.44
6/5/2022 9:00:00 PM 18.17 64.706 0.421 7.83 11.07 8.43
6/5/2022 9:15:00 PM 18.11 64.598 0.421 7.82 17.63 8.43
6/5/2022 9:30:00 PM 18.04 64.472 0.421 7.82 33.95 8.38
6/5/2022 9:45:00 PM 17.98 64.364 0.421 7.82 77.98 8.37
6/5/2022 10:00:00 PM 17.92 64.256 0.421 7.81 15.03 8.38
6/5/2022 10:15:00 PM 17.86 64.148 0.309 7.82 13.1 8.36
6/5/2022 10:30:00 PM 17.79 64.022 0.421 7.81 10.36 8.34
6/5/2022 10:45:00 PM 17.73 63.914 0.421 7.8 11.57 8.31
6/5/2022 11:00:00 PM 17.67 63.806 0.422 7.8 18.08 8.33
6/5/2022 11:15:00 PM 17.6 63.68 0.42 7.8 21.2 8.31
6/5/2022 11:30:00 PM 17.54 63.572 0.3 7.8 10.7 8.31
6/5/2022 11:45:00 PM 17.48 63.464 0.422 7.79 15.99 8.29
6/6/2022 12:00:00 AM 17.42 63.356 0.421 7.8 11.32 8.27
6/6/2022 12:15:00 AM 17.37 63.266 0.422 7.79 33.32 8.28
6/6/2022 12:30:00 AM 17.31 63.158 0.263 7.78 12.28 8.27
6/6/2022 12:45:00 AM 17.25 63.05 0.422 7.78 11.69 8.26
6/6/2022 1:00:00 AM 17.19 62.942 0.422 7.78 18.24 8.27
6/6/2022 1:15:00 AM 17.13 62.834 0.422 7.77 11.33 8.26
6/6/2022 1:30:00 AM 17.07 62.726 0.422 7.77 34.01 8.26
6/6/2022 1:45:00 AM 17.01 62.618 0.422 7.77 47.2 8.27
6/6/2022 2:00:00 AM 16.95 62.51 0.422 7.77 8.43 8.28
6/6/2022 2:15:00 AM 16.9 62.42 0.422 7.77 32.03 8.28
6/6/2022 2:30:00 AM 16.84 62.312 0.294 7.77 12.33 8.28
6/6/2022 2:45:00 AM 16.78 62.204 0.422 7.77 11.45 8.28
6/6/2022 3:00:00 AM 16.71 62.078 0.422 7.77 34.21 8.29
6/6/2022 3:15:00 AM 16.65 61.97 0.422 7.76 12.97 8.3
6/6/2022 3:30:00 AM 16.59 61.862 0.422 7.77 8.99 8.31
6/6/2022 3:45:00 AM 16.54 61.772 0.422 7.76 10.86 8.32
6/6/2022 4:00:00 AM 16.48 61.664 0.422 7.76 29.02 8.33
6/6/2022 4:15:00 AM 16.42 61.556 0.422 7.77 9.55 8.35
6/6/2022 4:30:00 AM 16.36 61.448 0.422 7.76 11.61 8.35
6/6/2022 4:45:00 AM 16.3 61.34 0.335 7.76 56.69 8.32
6/6/2022 5:00:00 AM 16.24 61.232 0.422 7.76 12.92 8.37
6/6/2022 5:15:00 AM 16.18 61.124 0.422 7.76 8.78 8.38
6/6/2022 5:30:00 AM 16.12 61.016 0.422 7.76 10.9 8.38
6/6/2022 5:45:00 AM 16.07 60.926 0.311 7.76 10.42 8.4
6/6/2022 6:00:00 AM 16.01 60.818 0.422 7.76 11.17 8.42
6/6/2022 6:15:00 AM 15.96 60.728 0.202 7.76 11.84 8.44
6/6/2022 6:30:00 AM 15.92 60.656 0.422 7.75 10.88 8.46
6/6/2022 6:45:00 AM 15.88 60.584 0.422 7.76 10.47 8.47
6/6/2022 7:00:00 AM 15.85 60.53 0.422 7.75 7.65 8.5
6/6/2022 7:15:00 AM 15.84 60.512 0.421 7.76 67.94 8.52
6/6/2022 7:30:00 AM 15.83 60.494 0.422 7.76 11.89 8.55
6/6/2022 7:45:00 AM 15.84 60.512 0.421 7.77 9.83 8.58
6/6/2022 8:00:00 AM 15.85 60.53 0.421 7.77 10.36 8.61
6/6/2022 8:15:00 AM 15.88 60.584 0.319 7.77 9.25 8.65
6/6/2022 8:30:00 AM 15.91 60.638 0.19 7.78 11.07 8.68
6/6/2022 8:45:00 AM 15.95 60.71 0.421 7.78 11.07 8.73
6/6/2022 9:00:00 AM 15.99 60.782 0.191 7.79 9.86 8.76
6/6/2022 9:15:00 AM 16.02 60.836 0.421 7.79 10.68 8.79
6/6/2022 9:30:00 AM 16.06 60.908 0.421 7.8 11.27 8.84
6/6/2022 9:45:00 AM 16.09 60.962 0.421 7.8 9.25 8.89
6/6/2022 10:00:00 AM 16.14 61.052 0.421 7.8 9.09 8.94
6/6/2022 10:15:00 AM 16.2 61.16 0.42 7.81 9.62 8.98
6/6/2022 10:30:00 AM 16.28 61.304 0.42 7.81 14.89 9.03
6/6/2022 10:45:00 AM 16.38 61.484 0.347 7.82 10.98 9.08
6/6/2022 11:00:00 AM 16.48 61.664 0.42 7.83 10.1 9.11
6/6/2022 11:15:00 AM 16.6 61.88 0.42 7.84 9.62 9.17
6/6/2022 11:30:00 AM 16.73 62.114 0.42 7.84 9.89 9.22
6/6/2022 11:45:00 AM 16.84 62.312 0.42 7.85 12.82 9.3
6/6/2022 12:00:00 PM 16.93 62.474 0.42 7.87 8.84 9.38
6/6/2022 12:15:00 PM 17.04 62.672 0.286 7.89 8.76 9.45
6/6/2022 12:30:00 PM 17.22 62.996 0.419 7.89 10.3 9.51
6/6/2022 12:45:00 PM 17.41 63.338 0.419 7.9 8.59 9.56
6/6/2022 1:00:00 PM 17.62 63.716 0.313 7.92 8.55 9.6
6/6/2022 1:15:00 PM 17.84 64.112 0.419 7.92 8.56 9.64
6/6/2022 1:30:00 PM 18.05 64.49 0.419 7.93 9.25 9.65
6/6/2022 1:45:00 PM 18.23 64.814 0.419 7.93 9.1 9.67
6/6/2022 2:00:00 PM 18.39 65.102 0.419 7.94 8.13 9.66
6/6/2022 2:15:00 PM 18.53 65.354 0.42 7.95 14.43 9.66
6/6/2022 2:30:00 PM 18.64 65.552 0.419 7.95 10.42 9.64
6/6/2022 2:45:00 PM 18.71 65.67799 0.419 7.95 9.53 9.62
6/6/2022 3:00:00 PM 18.78 65.804 0.419 7.95 11.32 9.6
6/6/2022 3:15:00 PM 18.82 65.876 0.419 7.96 9.63 9.59
6/6/2022 3:30:00 PM 18.84 65.912 0.419 7.96 9.6 9.54
6/6/2022 3:45:00 PM 18.85 65.93 0.419 7.96 11.21 9.51
6/6/2022 4:00:00 PM 18.83 65.894 0.332 7.95 10.9 9.47
6/6/2022 4:15:00 PM 18.79 65.82201 0.419 7.95 9.84 9.41
6/6/2022 4:30:00 PM 18.76 65.768 0.419 7.95 9.67 9.34
6/6/2022 4:45:00 PM 18.74 65.732 0.418 7.94 9.47 9.28
6/6/2022 5:00:00 PM 18.72 65.696 0.419 7.93 21.94 9.22
6/6/2022 5:15:00 PM 18.69 65.642 0.418 7.93 8.78 9.17
6/6/2022 5:30:00 PM 18.66 65.588 0.305 7.93 10.51 9.12
6/6/2022 5:45:00 PM 18.64 65.552 0.42 7.92 10.15 9.08
6/6/2022 6:00:00 PM 18.62 65.516 0.42 7.91 9.92 9.03
6/6/2022 6:15:00 PM 18.6 65.48 0.42 7.91 10.76 8.98
6/6/2022 6:30:00 PM 18.6 65.48 0.42 7.9 8.62 8.93
6/6/2022 6:45:00 PM 18.59 65.462 0.42 7.9 10.47 8.87
6/6/2022 7:00:00 PM 18.58 65.444 0.42 7.9 10.15 8.81
6/6/2022 7:15:00 PM 18.58 65.444 0.42 7.89 6.84 8.76
6/6/2022 7:30:00 PM 18.56 65.408 0.42 7.89 10.66 8.73
6/6/2022 7:45:00 PM 18.55 65.39 0.413 7.88 9.85 8.7
6/6/2022 8:00:00 PM 18.53 65.354 0.421 7.87 8.39 8.66
6/6/2022 8:15:00 PM 18.5 65.3 0.421 7.87 8.17 8.6
6/6/2022 8:30:00 PM 18.46 65.228 0.421 7.86 9.63 8.56
6/6/2022 8:45:00 PM 18.42 65.156 0.325 7.86 9.59 8.52
6/6/2022 9:00:00 PM 18.37 65.066 0.289 7.85 9.41 8.48
6/6/2022 9:15:00 PM 18.32 64.976 0.421 7.84 7.62 8.44
6/6/2022 9:30:00 PM 18.26 64.868 0.421 7.84 12.68 8.42
6/6/2022 9:45:00 PM 18.2 64.76 0.292 7.84 13.39 8.39
6/6/2022 10:00:00 PM 18.14 64.652 0.421 7.83 35.53 8.38
6/6/2022 10:15:00 PM 18.08 64.544 0.421 7.84 16.66 8.36
6/6/2022 10:30:00 PM 18.02 64.436 0.421 7.83 9.14 8.25
6/6/2022 10:45:00 PM 17.96 64.328 0.306 7.82 9.27 8.34
6/6/2022 11:00:00 PM 17.9 64.22 0.42 7.82 9.73 8.31
6/6/2022 11:15:00 PM 17.86 64.148 0.422 7.82 10.47 8.3
6/6/2022 11:30:00 PM 17.82 64.076 0.221 7.82 9.58 8.29
6/6/2022 11:45:00 PM 17.79 64.022 0.421 7.81 11.3 8.27
6/7/2022 12:00:00 AM 17.77 63.986 0.422 7.81 13.06 8.25
6/7/2022 12:15:00 AM 17.75 63.95 0.422 7.81 9.85 8.25
6/7/2022 12:30:00 AM 17.73 63.914 0.422 7.81 11.31 8.24
6/7/2022 12:45:00 AM 17.7 63.86 0.262 7.8 10.44 8.22
6/7/2022 1:00:00 AM 17.67 63.806 0.335 7.8 13.47 8.19
6/7/2022 1:15:00 AM 17.64 63.752 0.422 7.79 10.97 8.17
6/7/2022 1:30:00 AM 17.6 63.68 0.422 7.79 11.57 8.19
6/7/2022 1:45:00 AM 17.56 63.608 0.35 7.79 11.09 8.19
6/7/2022 2:00:00 AM 17.52 63.536 0.423 7.79 11.07 8.13
6/7/2022 2:15:00 AM 17.47 63.446 0.423 7.78 10.19 8.17
6/7/2022 2:30:00 AM 17.43 63.374 0.423 7.78 12.96 8.16
6/7/2022 2:45:00 AM 17.38 63.284 0.423 7.78 12.23 8.17
6/7/2022 3:00:00 AM 17.34 63.212 0.423 7.78 10.34 8.16
6/7/2022 3:15:00 AM 17.3 63.14 0.423 7.78 11.28 8.16
6/7/2022 3:30:00 AM 17.25 63.05 0.423 7.77 11.79 8.16
6/7/2022 3:45:00 AM 17.21 62.978 0.423 7.78 11.67 8.15
6/7/2022 4:00:00 AM 17.17 62.906 0.423 7.78 9.78 8.18
6/7/2022 4:15:00 AM 17.13 62.834 0.423 7.78 13.01 8.18
6/7/2022 4:30:00 AM 17.1 62.78 0.423 7.77 9.98 8.2
6/7/2022 4:45:00 AM 17.06 62.708 0.423 7.77 11.99 8.2
6/7/2022 5:00:00 AM 17.02 62.636 0.423 7.77 19.56 8.2
6/7/2022 5:15:00 AM 16.99 62.582 0.422 7.77 11.11 8.21
6/7/2022 5:30:00 AM 16.96 62.528 0.423 7.77 10.59 8.22
6/7/2022 5:45:00 AM 16.93 62.474 0.422 7.77 11.25 8.22
6/7/2022 6:00:00 AM 16.9 62.42 0.316 7.77 23.4 8.22
6/7/2022 6:15:00 AM 16.88 62.384 0.34 7.77 12.26 8.23
6/7/2022 6:30:00 AM 16.87 62.366 0.264 7.77 16.1 8.27
6/7/2022 6:45:00 AM 16.85 62.33 0.422 7.77 10.67 8.28
6/7/2022 7:00:00 AM 16.84 62.312 0.422 7.77 12.22 8.31
6/7/2022 7:15:00 AM 16.84 62.312 0.422 7.78 10.99 8.34
6/7/2022 7:30:00 AM 16.83 62.294 0.422 7.78 9.92 8.38
6/7/2022 7:45:00 AM 16.84 62.312 0.422 7.78 11.04 8.42
6/7/2022 8:00:00 AM 16.85 62.33 0.422 7.79 11.4 8.48
6/7/2022 8:15:00 AM 16.85 62.33 0.422 7.79 12.5 8.5
6/7/2022 8:30:00 AM 16.86 62.348 0.422 7.79 8.65 8.55
6/7/2022 8:45:00 AM 16.88 62.384 0.422 7.8 11.69 8.59
6/7/2022 9:00:00 AM 16.89 62.402 0.422 7.8 11.75 8.63
6/7/2022 9:15:00 AM 16.93 62.474 0.421 7.81 11.07 8.68
6/7/2022 9:30:00 AM 16.96 62.528 0.284 7.82 8.27 8.76
6/7/2022 9:45:00 AM 17.02 62.636 0.421 7.82 9.72 8.84
6/7/2022 10:00:00 AM 17.03 62.654 0.283 7.82 8.9 8.85
6/7/2022 10:15:00 AM 17.1 62.78 0.421 7.83 9.97 8.95
6/7/2022 10:30:00 AM 17.15 62.87 0.421 7.84 9.72 9
6/7/2022 10:45:00 AM 17.26 63.068 0.323 7.85 92.96 9.07
6/7/2022 11:00:00 AM 17.34 63.212 0.332 7.87 11.52 9.17
6/7/2022 11:15:00 AM 17.4 63.32 0.421 7.87 8.94 9.22
6/7/2022 11:30:00 AM 17.45 63.41 0.42 7.87 10.09 9.26
6/7/2022 11:45:00 AM 17.47 63.446 0.42 7.88 10.29 9.26
6/7/2022 12:00:00 PM 17.49 63.482 0.42 7.88 10.23 9.28
6/7/2022 12:15:00 PM 17.48 63.464 0.42 7.89 8.25 9.25
6/7/2022 12:30:00 PM 17.53 63.554 0.42 7.89 10.59 9.32
6/7/2022 12:45:00 PM 17.58 63.644 0.42 7.9 9.37 9.37
6/7/2022 1:00:00 PM 17.72 63.896 0.42 7.91 8.55 9.47
6/7/2022 1:15:00 PM 17.79 64.022 0.419 7.92 9.95 9.49
6/7/2022 1:30:00 PM 17.85 64.13 0.419 7.93 8.68 9.48
6/7/2022 1:45:00 PM 17.89 64.202 0.419 7.93 9.34 9.47
6/7/2022 2:00:00 PM 17.89 64.202 0.419 7.93 8.32 9.45
6/7/2022 2:15:00 PM 17.89 64.202 0.401 7.92 62.63 9.36
6/7/2022 2:30:00 PM 17.88 64.184 0.411 7.92 16.05 9.33
6/7/2022 2:45:00 PM 17.87 64.166 0.419 7.92 7.47 9.27
6/7/2022 3:00:00 PM 17.86 64.148 0.419 7.91 10.77 9.22
6/7/2022 3:15:00 PM 17.86 64.148 0.319 7.91 9.08 9.16
6/7/2022 3:30:00 PM 17.86 64.148 0.353 7.91 8.9 9.14
6/7/2022 3:45:00 PM 17.87 64.166 0.34 7.91 8.55 9.1
6/7/2022 4:00:00 PM 17.88 64.184 0.419 7.91 9.1 9.06
6/7/2022 4:15:00 PM 17.92 64.256 0.419 7.9 12.54 9.07
6/7/2022 4:30:00 PM 17.94 64.292 0.333 7.91 8.22 9.07
6/7/2022 4:45:00 PM 17.97 64.346 0.419 7.91 11.46 9.05
6/7/2022 5:00:00 PM 17.98 64.364 0.419 7.91 8.48 8.99
6/7/2022 5:15:00 PM 17.99 64.382 0.347 7.9 11.19 8.98
6/7/2022 5:30:00 PM 17.99 64.382 0.418 7.89 10.33 8.9
6/7/2022 5:45:00 PM 17.97 64.346 0.419 7.88 42.39 8.81
6/7/2022 6:00:00 PM 17.95 64.31 0.303 7.87 9.17 8.76
6/7/2022 6:15:00 PM 17.94 64.292 0.417 7.86 9.61 8.69
6/7/2022 6:30:00 PM 17.92 64.256 0.439 7.85 7.86 8.62
6/7/2022 6:45:00 PM 17.9 64.22 0.323 7.84 10.02 8.58
6/7/2022 7:00:00 PM 17.88 64.184 0.417 7.83 8.61 8.53
6/7/2022 7:15:00 PM 17.86 64.148 0.418 7.82 10.47 8.49
6/7/2022 7:30:00 PM 17.84 64.112 0.418 7.82 7.53 8.46
6/7/2022 7:45:00 PM 17.82 64.076 0.31 7.82 7.3 8.44
6/7/2022 8:00:00 PM 17.8 64.04 0.32 7.81 7.12 8.43
6/7/2022 8:15:00 PM 17.79 64.022 0.419 7.81 7.78 8.42
6/7/2022 8:30:00 PM 17.77 63.986 0.419 7.81 8.28 8.41
6/7/2022 8:45:00 PM 17.75 63.95 0.419 7.8 8.59 8.39
6/7/2022 9:00:00 PM 17.73 63.914 0.315 7.81 9.37 8.37
6/7/2022 9:15:00 PM 17.72 63.896 0.418 7.81 16.84 8.35
6/7/2022 9:30:00 PM 17.7 63.86 0.418 7.8 9.92 8.33
6/7/2022 9:45:00 PM 17.69 63.842 0.315 7.78 572.65 8.29
6/7/2022 10:00:00 PM 17.68 63.824 0.417 7.8 11.69 8.27
6/7/2022 10:15:00 PM 17.66 63.788 0.438 7.8 8.07 8.27
6/7/2022 10:30:00 PM 17.65 63.77 0.417 7.79 8.88 8.25
6/7/2022 10:45:00 PM 17.64 63.752 0.417 7.79 10.62 8.22
6/7/2022 11:00:00 PM 17.62 63.716 0.416 7.79 10.64 8.19
6/7/2022 11:15:00 PM 17.61 63.698 0.416 7.79 9.81 8.17
6/7/2022 11:30:00 PM 17.6 63.68 0.416 7.79 10.59 8.14
6/7/2022 11:45:00 PM 17.59 63.662 0.415 7.78 9.76 8.19
6/8/2022 12:00:00 AM 17.58 63.644 0.414 7.78 9.93 8.13
6/8/2022 12:15:00 AM 17.58 63.644 0.222 7.78 10.73 8.18
6/8/2022 12:30:00 AM 17.58 63.644 0.414 7.77 10.05 8.17
6/8/2022 12:45:00 AM 17.57 63.626 0.329 7.77 11.11 8.17
6/8/2022 1:00:00 AM 17.56 63.608 0.288 7.77 10.21 8.14
6/8/2022 1:15:00 AM 17.55 63.59 0.334 7.77 11.25 8.14
6/8/2022 1:30:00 AM 17.54 63.572 0.412 7.76 9.91 8.16
6/8/2022 1:45:00 AM 17.53 63.554 0.411 7.76 10.99 8.15
6/8/2022 2:00:00 AM 17.52 63.536 0.317 7.76 11.17 8.16
6/8/2022 2:15:00 AM 17.5 63.5 0.411 7.76 11.5 8.16
6/8/2022 2:30:00 AM 17.49 63.482 0.316 7.76 10.24 8.15
6/8/2022 2:45:00 AM 17.48 63.464 0.299 7.75 10.65 8.16
6/8/2022 3:00:00 AM 17.47 63.446 0.478 7.75 11.02 8.16
6/8/2022 3:15:00 AM 17.46 63.428 0.212 7.75 11.55 8.17
6/8/2022 3:30:00 AM 17.45 63.41 0.41 7.75 12.18 8.16
6/8/2022 3:45:00 AM 17.45 63.41 0.409 7.74 10.54 8.17
6/8/2022 4:00:00 AM 17.44 63.392 0.409 7.75 10.73 8.17
6/8/2022 4:15:00 AM 17.43 63.374 0.409 7.74 12.05 8.16
6/8/2022 4:30:00 AM 17.42 63.356 0.281 7.74 10.47 8.17
6/8/2022 4:45:00 AM 17.41 63.338 0.295 7.74 16.66 8.15
6/8/2022 5:00:00 AM 17.4 63.32 0.408 7.74 22.33 8.16
6/8/2022 5:15:00 AM 17.39 63.302 0.408 7.74 26.71 8.15
6/8/2022 5:30:00 AM 17.38 63.284 0.408 7.74 11.89 8.16
6/8/2022 5:45:00 AM 17.37 63.266 0.407 7.74 12.39 8.12
6/8/2022 6:00:00 AM 17.36 63.248 0.407 7.73 11.54 8.12
6/8/2022 6:15:00 AM 17.34 63.212 0.294 7.73 11.37 8.17
6/8/2022 6:30:00 AM 17.32 63.176 0.175 7.74 11.23 8.15
6/8/2022 6:45:00 AM 17.32 63.176 0.224 7.74 11.2 8.21
6/8/2022 7:00:00 AM 17.31 63.158 0.406 7.74 11.21 8.23
6/8/2022 7:15:00 AM 17.31 63.158 0.303 7.75 8.99 8.25
6/8/2022 7:30:00 AM 17.32 63.176 0.406 7.75 11.69 8.23
6/8/2022 7:45:00 AM 17.33 63.194 0.406 7.75 10.91 8.26
6/8/2022 8:00:00 AM 17.36 63.248 0.212 7.76 10.94 8.34
6/8/2022 8:15:00 AM 17.38 63.284 0.405 7.76 10.51 8.37
6/8/2022 8:30:00 AM 17.41 63.338 0.405 7.76 10.31 8.36
6/8/2022 8:45:00 AM 17.46 63.428 0.405 7.77 10.38 8.43
6/8/2022 9:00:00 AM 17.49 63.482 0.195 7.78 10.76 8.5
6/8/2022 9:15:00 AM 17.52 63.536 0.403 7.78 10.56 8.5
6/8/2022 9:30:00 AM 17.56 63.608 0.261 7.79 11.02 8.56
6/8/2022 9:45:00 AM 17.6 63.68 0.304 7.79 9.31 8.57
6/8/2022 10:00:00 AM 17.65 63.77 0.404 7.8 9.61 8.69
6/8/2022 10:15:00 AM 17.72 63.896 0.404 7.81 9.26 8.75
6/8/2022 10:30:00 AM 17.77 63.986 0.254 7.82 10.79 8.82
6/8/2022 10:45:00 AM 17.82 64.076 0.402 7.83 9.55 8.88
6/8/2022 11:00:00 AM 17.88 64.184 0.403 7.84 9.86 8.92
6/8/2022 11:15:00 AM 17.96 64.328 0.403 7.84 9.59 9
6/8/2022 11:30:00 AM 18.07 64.526 0.403 7.85 9.33 9.07
6/8/2022 11:45:00 AM 18.2 64.76 0.283 7.87 9.49 9.11
6/8/2022 12:00:00 PM 18.37 65.066 0.316 7.87 10.13 9.17
6/8/2022 12:15:00 PM 18.56 65.408 0.322 7.88 9.53 9.17
6/8/2022 12:30:00 PM 18.76 65.768 0.403 7.89 9.06 9.22
6/8/2022 12:45:00 PM 18.96 66.128 0.403 7.89 6.6 9.25
6/8/2022 1:00:00 PM 19.15 66.47 0.403 7.9 8.53 9.27
6/8/2022 1:15:00 PM 19.33 66.794 0.403 7.91 10.21 9.24
6/8/2022 1:30:00 PM 19.5 67.1 0.403 7.92 8.08 9.33
6/8/2022 1:45:00 PM 19.65 67.37 0.403 7.93 10.22 9.35
6/8/2022 2:00:00 PM 19.77 67.586 0.422 7.93 10.79 9.35
6/8/2022 2:15:00 PM 19.87 67.766 0.403 7.94 12.02 9.32
6/8/2022 2:30:00 PM 19.95 67.91 0.26 7.93 12.32 9.34
6/8/2022 2:45:00 PM 20.02 68.036 0.263 7.95 10.61 9.31
6/8/2022 3:00:00 PM 20.07 68.126 0.404 7.94 11.3 9.31
6/8/2022 3:15:00 PM 20.11 68.198 0.235 7.94 10.2 9.28
6/8/2022 3:30:00 PM 20.14 68.252 0.27 7.95 10.23 9.24
6/8/2022 3:45:00 PM 20.14 68.252 0.405 7.94 9.81 9.19
6/8/2022 4:00:00 PM 20.13 68.234 0.304 7.94 9.42 9.12
6/8/2022 4:15:00 PM 20.11 68.198 0.405 7.93 9.45 9.07
6/8/2022 4:30:00 PM 20.08 68.144 0.231 7.92 8.89 8.98
6/8/2022 4:45:00 PM 20.06 68.108 0.223 7.91 8.73 8.92
6/8/2022 5:00:00 PM 20.05 68.09 0.304 7.9 8.96 8.81
6/8/2022 5:15:00 PM 20.03 68.054 0.294 7.9 8.93 8.72
6/8/2022 5:30:00 PM 20.02 68.036 0.278 7.9 8.93 8.72
6/8/2022 5:45:00 PM 20.01 68.018 0.407 7.89 8.24 8.68
6/8/2022 6:00:00 PM 20 68 0.406 7.89 10.38 8.56
6/8/2022 6:15:00 PM 20 68 0.304 7.87 57.49 8.48
6/8/2022 6:30:00 PM 19.99 67.982 0.254 7.87 7.8 8.52
6/8/2022 6:45:00 PM 19.99 67.982 0.271 7.86 8.42 8.46
6/8/2022 7:00:00 PM 19.99 67.982 0.408 7.86 8.09 8.39
6/8/2022 7:15:00 PM 19.99 67.982 0.408 7.84 8.42 8.36
6/8/2022 7:30:00 PM 19.99 67.982 0.408 7.85 7.72 8.29
6/8/2022 7:45:00 PM 19.97 67.946 0.409 7.84 9.08 8.28
6/8/2022 8:00:00 PM 19.96 67.92799 0.408 7.83 8.67 8.15
6/8/2022 8:15:00 PM 19.94 67.892 0.236 7.83 10.95 8.19
6/8/2022 8:30:00 PM 19.91 67.838 0.409 7.82 11.6 8.1
6/8/2022 8:45:00 PM 19.89 67.802 0.264 7.81 12.24 8.09
6/8/2022 9:00:00 PM 19.86 67.748 0.472 7.79 12.3 8.05
6/8/2022 9:15:00 PM 19.82 67.676 0.41 7.8 12.17 8
6/8/2022 9:30:00 PM 19.79 67.622 0.41 7.79 36.16 7.98
6/8/2022 9:45:00 PM 19.75 67.55 0.411 7.78 18.87 7.91
6/8/2022 10:00:00 PM 19.71 67.478 0.145 7.76 16.47 7.93
6/8/2022 10:15:00 PM 19.67 67.406 0.346 7.77 12.31 7.88
6/8/2022 10:30:00 PM 19.63 67.334 0.411 7.78 15.97 7.88
6/8/2022 10:45:00 PM 19.61 67.298 0.411 7.78 20.16 7.86
6/8/2022 11:00:00 PM 19.58 67.244 0.411 7.77 24.26 7.82
6/8/2022 11:15:00 PM 19.55 67.19 0.268 7.77 41.85 7.82
6/8/2022 11:30:00 PM 19.54 67.172 0.271 7.77 13.76 7.8
6/8/2022 11:45:00 PM 19.52 67.136 0.412 7.76 30.61 7.78
6/9/2022 12:00:00 AM 19.51 67.118 0.411 7.76 23.67 7.76
6/9/2022 12:15:00 AM 19.5 67.1 0.409 7.76 13.07 7.73
6/9/2022 12:30:00 AM 19.48 67.064 0.32 7.76 18.48 7.7
6/9/2022 12:45:00 AM 19.46 67.028 0.408 7.74 15.33 7.67
6/9/2022 1:00:00 AM 19.44 66.992 0.409 7.74 52.48 7.63
6/9/2022 1:15:00 AM 19.42 66.956 0.409 7.74 26.6 7.6
6/9/2022 1:30:00 AM 19.39 66.902 0.41 7.73 31.52 7.54
6/9/2022 1:45:00 AM 19.37 66.866 0.41 7.74 13.02 7.55
6/9/2022 2:00:00 AM 19.34 66.812 0.324 7.69 12.78 7.55
6/9/2022 2:15:00 AM 19.32 66.776 0.321 7.73 10.03 7.53
6/9/2022 2:30:00 AM 19.3 66.74 0.319 7.7 24.4 7.51
6/9/2022 2:45:00 AM 19.28 66.704 0.251 7.7 20.76 7.56
6/9/2022 3:00:00 AM 19.27 66.686 0.411 7.74 34.04 7.56
6/9/2022 3:15:00 AM 19.25 66.65 0.411 7.73 32.79 7.57
6/9/2022 3:30:00 AM 19.24 66.632 0.411 7.72 13.12 7.56
6/9/2022 3:45:00 AM 19.22 66.596 0.411 7.74 50.12 7.55
6/9/2022 4:00:00 AM 19.21 66.578 0.192 7.73 18.36 7.55
6/9/2022 4:15:00 AM 19.19 66.542 0.271 7.71 26.05 7.55
6/9/2022 4:30:00 AM 19.17 66.506 0.258 7.72 14.98 7.54
6/9/2022 4:45:00 AM 19.15 66.47 0.41 7.73 11.28 7.51
6/9/2022 5:00:00 AM 19.13 66.434 0.41 7.73 12.68 7.54
6/9/2022 5:15:00 AM 19.12 66.416 0.409 7.73 21.83 7.56
6/9/2022 5:30:00 AM 19.1 66.38 0.408 7.7 97.57 7.53
6/9/2022 5:45:00 AM 19.08 66.344 0.408 7.73 28.31 7.56
6/9/2022 6:00:00 AM 19.07 66.326 0.308 7.73 13.47 7.57
6/9/2022 6:15:00 AM 19.05 66.29 0.322 7.71 13.54 7.55
6/9/2022 6:30:00 AM 19.04 66.272 0.407 7.72 12.96 7.55
6/9/2022 6:45:00 AM 19.03 66.254 0.408 7.74 15.49 7.62
6/9/2022 7:00:00 AM 19.02 66.236 0.408 7.74 12.2 7.62
6/9/2022 7:15:00 AM 19.02 66.236 0.407 7.74 11.94 7.6
6/9/2022 7:30:00 AM 19.02 66.236 0.286 7.73 12.83 7.67
6/9/2022 7:45:00 AM 19.03 66.254 0.257 7.71 10.54 7.7
6/9/2022 8:00:00 AM 19.04 66.272 0.217 7.74 12.2 7.74
6/9/2022 8:15:00 AM 19.05 66.29 0.305 7.76 11.09 7.68
6/9/2022 8:30:00 AM 19.07 66.326 0.33 7.75 10.45 7.81
6/9/2022 8:45:00 AM 19.1 66.38 0.407 7.76 10.26 7.81
6/9/2022 9:00:00 AM 19.12 66.416 0.407 7.77 11.93 7.87
6/9/2022 9:15:00 AM 19.14 66.452 0.407 7.78 25.22 7.94
6/9/2022 9:30:00 AM 19.16 66.488 0.407 7.78 13.36 7.98
6/9/2022 9:45:00 AM 19.2 66.56 0.3 7.78 10.71 8.09
6/9/2022 10:00:00 AM 19.23 66.614 0.407 7.79 9.39 8.14
6/9/2022 10:15:00 AM 19.27 66.686 0.274 7.8 10.58 8.2
6/9/2022 10:30:00 AM 19.35 66.83 0.406 7.81 10.27 8.21
6/9/2022 10:45:00 AM 19.41 66.938 0.406 7.82 9.66 8.32
6/9/2022 11:00:00 AM 19.49 67.082 0.406 7.82 10.3 8.36
6/9/2022 11:15:00 AM 19.58 67.244 0.288 7.84 10.36 8.35
6/9/2022 11:30:00 AM 19.67 67.406 0.406 7.84 12.28 8.46
6/9/2022 11:45:00 AM 19.72 67.496 0.406 7.85 8.14 8.49
6/9/2022 12:00:00 PM 19.86 67.748 0.214 7.86 10.86 8.56
6/9/2022 12:15:00 PM 19.98 67.964 0.405 7.87 11.66 8.62
6/9/2022 12:30:00 PM 20.09 68.162 0.406 7.88 8.26 8.69
6/9/2022 12:45:00 PM 20.21 68.378 0.406 7.89 12.27 8.76
6/9/2022 1:00:00 PM 20.39 68.702 0.273 7.9 61.21 8.83
6/9/2022 1:15:00 PM 20.55 68.99 0.406 7.91 6.44 8.88
6/9/2022 1:30:00 PM 20.58 69.044 0.406 7.92 9.99 8.9
6/9/2022 1:45:00 PM 20.7 69.26 0.275 7.92 11.49 8.94
6/9/2022 2:00:00 PM 20.73 69.314 0.406 7.93 11.15 8.94
6/9/2022 2:15:00 PM 20.67 69.206 0.406 7.93 18.06 8.9
6/9/2022 2:30:00 PM 20.8 69.44 0.32 7.94 12.46 8.92
6/9/2022 2:45:00 PM 20.71 69.278 0.407 7.94 9.93 8.86
6/9/2022 3:00:00 PM 20.69 69.242 0.407 7.94 11.23 8.84
6/9/2022 3:15:00 PM 20.74 69.332 0.272 7.92 9.29 8.89
6/9/2022 3:30:00 PM 20.69 69.242 0.407 7.94 10.28 8.86
6/9/2022 3:45:00 PM 20.73 69.314 0.407 7.95 10.06 8.82
6/9/2022 4:00:00 PM 20.73 69.314 0.262 7.95 10.75 8.85
6/9/2022 4:15:00 PM 20.7 69.26 0.407 7.95 9.53 8.82
6/9/2022 4:30:00 PM 20.7 69.26 0.322 7.95 9.17 8.78
6/9/2022 4:45:00 PM 20.73 69.314 0.407 7.94 9.63 8.8
6/9/2022 5:00:00 PM 20.71 69.278 0.203 7.9 10.35 8.74
6/9/2022 5:15:00 PM 20.68 69.224 0.408 7.94 11.05 8.72
6/9/2022 5:30:00 PM 20.64 69.152 0.408 7.93 9.12 8.66
6/9/2022 5:45:00 PM 20.57 69.026 0.408 7.92 10.06 8.58
6/9/2022 6:00:00 PM 20.48 68.864 0.292 7.92 10.01 8.51
6/9/2022 6:15:00 PM 20.4 68.72 0.41 7.88 10.82 8.46
6/9/2022 6:30:00 PM 20.32 68.576 0.194 7.9 8.36 8.4
6/9/2022 6:45:00 PM 20.25 68.45 0.265 7.88 9.02 8.34
6/9/2022 7:00:00 PM 20.2 68.36 0.287 7.89 9.46 8.28
6/9/2022 7:15:00 PM 20.12 68.216 0.409 7.88 11.53 8.23
6/9/2022 7:30:00 PM 20.07 68.126 0.285 7.86 8.88 8.21
6/9/2022 7:45:00 PM 20 68 0.318 7.87 9.15 8.14
6/9/2022 8:00:00 PM 19.94 67.892 0.409 7.87 10.71 8.13
6/9/2022 8:15:00 PM 19.86 67.748 0.41 7.86 9.5 8.1
6/9/2022 8:30:00 PM 19.79 67.622 0.41 7.85 9 8.07
6/9/2022 8:45:00 PM 19.71 67.478 0.41 7.85 8.94 8.05
6/9/2022 9:00:00 PM 19.63 67.334 0.41 7.84 9.52 8.02
6/9/2022 9:15:00 PM 19.56 67.208 0.338 7.83 10.03 8
6/9/2022 9:30:00 PM 19.49 67.082 0.41 7.84 11.65 7.96
6/9/2022 9:45:00 PM 19.42 66.956 0.411 7.82 10.3 7.95
6/9/2022 10:00:00 PM 19.36 66.848 0.411 7.82 14.97 7.92
6/9/2022 10:15:00 PM 19.3 66.74 0.411 7.82 10.45 7.9
6/9/2022 10:30:00 PM 19.24 66.632 0.412 7.82 9.48 7.9
6/9/2022 10:45:00 PM 19.17 66.506 0.412 7.81 11.94 7.89
6/9/2022 11:00:00 PM 19.1 66.38 0.111 7.79 14.32 7.89
6/9/2022 11:15:00 PM 19.03 66.254 0.268 7.8 8.78 7.88
6/9/2022 11:30:00 PM 18.97 66.146 0.411 7.8 12.58 7.85
6/9/2022 11:45:00 PM 18.9 66.02 0.278 7.79 12.09 7.86
6/10/2022 12:00:00 AM 18.83 65.894 0.289 7.79 11.53 7.85
6/10/2022 12:15:00 AM 18.76 65.768 0.413 7.79 11.48 7.85
6/10/2022 12:30:00 AM 18.69 65.642 0.413 7.79 9.73 7.82
6/10/2022 12:45:00 AM 18.61 65.498 0.414 7.78 10.84 7.83
6/10/2022 1:00:00 AM 18.53 65.354 0.414 7.78 11.36 7.84
6/10/2022 1:15:00 AM 18.45 65.21 0.414 7.78 11.71 7.84
6/10/2022 1:30:00 AM 18.37 65.066 0.254 7.78 11.25 7.85
6/10/2022 1:45:00 AM 18.3 64.94 0.415 7.77 10.62 7.85
6/10/2022 2:00:00 AM 18.22 64.796 0.415 7.77 15.67 7.85
6/10/2022 2:15:00 AM 18.15 64.67 0.415 7.77 42.41 7.86
6/10/2022 2:30:00 AM 18.07 64.526 0.415 7.76 10.93 7.86
6/10/2022 2:45:00 AM 18 64.4 0.415 7.77 10.5 7.86
6/10/2022 3:00:00 AM 17.93 64.274 0.335 7.77 10.73 7.88
6/10/2022 3:15:00 AM 17.86 64.148 0.306 7.76 11.73 7.88
6/10/2022 3:30:00 AM 17.79 64.022 0.218 7.75 11.56 7.9
6/10/2022 3:45:00 AM 17.72 63.896 0.268 7.76 8.92 7.92
6/10/2022 4:00:00 AM 17.65 63.77 0.416 7.76 10.75 7.92
6/10/2022 4:15:00 AM 17.57 63.626 0.416 7.76 12.07 7.93
6/10/2022 4:30:00 AM 17.5 63.5 0.321 7.76 18.35 7.92
6/10/2022 4:45:00 AM 17.43 63.374 0.417 7.74 29.86 7.93
6/10/2022 5:00:00 AM 17.36 63.248 0.417 7.76 13.69 7.96
6/10/2022 5:15:00 AM 17.29 63.122 0.416 7.76 37.62 7.97
6/10/2022 5:30:00 AM 17.22 62.996 0.41 7.76 27.92 7.98
6/10/2022 5:45:00 AM 17.15 62.87 0.409 7.76 37.59 7.97
6/10/2022 6:00:00 AM 17.09 62.762 0.284 7.76 52.36 8.02
6/10/2022 6:15:00 AM 17.03 62.654 0.417 7.75 11.22 8.04
6/10/2022 6:30:00 AM 16.97 62.546 0.417 7.76 11.33 8.06
6/10/2022 6:45:00 AM 16.93 62.474 0.417 7.75 13.28 8.08
6/10/2022 7:00:00 AM 16.9 62.42 0.289 7.75 8.14 8.11
6/10/2022 7:15:00 AM 16.89 62.402 0.418 7.76 58.98 8.12
6/10/2022 7:30:00 AM 16.88 62.384 0.327 7.77 10.1 8.15
6/10/2022 7:45:00 AM 16.89 62.402 0.418 7.77 9.33 8.18
6/10/2022 8:00:00 AM 16.9 62.42 0.418 7.77 11.02 8.21
6/10/2022 8:15:00 AM 16.92 62.456 0.417 7.78 12.35 8.24
6/10/2022 8:30:00 AM 16.94 62.492 0.307 7.78 11.88 8.28
6/10/2022 8:45:00 AM 16.96 62.528 0.418 7.78 9.82 8.33
6/10/2022 9:00:00 AM 16.99 62.582 0.418 7.79 9.07 8.37
6/10/2022 9:15:00 AM 17.01 62.618 0.418 7.79 9.1 8.41
6/10/2022 9:30:00 AM 17.03 62.654 0.418 7.8 9.6 8.46
6/10/2022 9:45:00 AM 17.06